<?xml version="1.0" encoding="UTF-8" standalone="no" ?>
<gpx xmlns="http://www.topografix.com/GPX/1/1" xmlns:xsi="http://www.w3.org/2001/XMLSchema-instance" xsi:schemaLocation="http://www.topografix.com/GPX/1/1 http://www.topografix.com/GPX/1/1/gpx.xsd" version="1.1" creator="VisuGPX - https://www.visugpx.com">
  <metadata>
    <name>La Léonne 2021_Circuit 77 km </name>
    <desc><![CDATA[La Léonne 2021 
Circuit de 77 km passant par:
Les Herbiers
Rochetrejoux via la jonchère
D97 Saint Germain de Prinçay
Puybelliard
D960Bis Chantonnay
la mine, moulin neuf,à droite
le champ du loup, à gauche le fuiteau
l'angle guignard
la touche, saint vincent
D106 la fraignaie
à droite l'augeoire, la fradinière
la vendrennière, continuez à gauche sur D52
les rhéautés, à droite le pont du servant
Les davières (ravito)
rejoindre D949 via le pavillon
D52 les chaffauds
Saint Vincent Sterlanges
la tranchais (ancienne voie ferrée)
le gué jourdain par la rocade
la guinbaudière,la tisonnière]]></desc>
  </metadata>
  <trk>
    <name><![CDATA[12656913-la léonne 2021]]></name>
    <trkseg>
      <trkpt lat="46.8637" lon="-1.00575">
        <ele>120</ele>
        <time>2021-03-08T21:05:08Z</time>
      </trkpt>
      <trkpt lat="46.86335" lon="-1.00614">
        <ele>119</ele>
        <time>2021-03-08T21:05:16Z</time>
      </trkpt>
      <trkpt lat="46.86315" lon="-1.00632">
        <ele>119</ele>
        <time>2021-03-08T21:05:20Z</time>
      </trkpt>
      <trkpt lat="46.8627" lon="-1.00662">
        <ele>118</ele>
        <time>2021-03-08T21:05:29Z</time>
      </trkpt>
      <trkpt lat="46.86234" lon="-1.00681">
        <ele>117</ele>
        <time>2021-03-08T21:05:36Z</time>
      </trkpt>
      <trkpt lat="46.86182" lon="-1.00705">
        <ele>116</ele>
        <time>2021-03-08T21:05:45Z</time>
      </trkpt>
      <trkpt lat="46.86138" lon="-1.00732">
        <ele>116</ele>
        <time>2021-03-08T21:05:54Z</time>
      </trkpt>
      <trkpt lat="46.86094" lon="-1.00769">
        <ele>115</ele>
        <time>2021-03-08T21:06:03Z</time>
      </trkpt>
      <trkpt lat="46.86055" lon="-1.00815">
        <ele>114</ele>
        <time>2021-03-08T21:06:12Z</time>
      </trkpt>
      <trkpt lat="46.85999" lon="-1.00892">
        <ele>112</ele>
        <time>2021-03-08T21:06:25Z</time>
      </trkpt>
      <trkpt lat="46.85963" lon="-1.00951">
        <ele>113</ele>
        <time>2021-03-08T21:06:35Z</time>
      </trkpt>
      <trkpt lat="46.85957" lon="-1.00972">
        <ele>113</ele>
        <time>2021-03-08T21:06:38Z</time>
      </trkpt>
      <trkpt lat="46.85958" lon="-1.0098">
        <ele>113</ele>
        <time>2021-03-08T21:06:39Z</time>
      </trkpt>
      <trkpt lat="46.85955" lon="-1.00984">
        <ele>113</ele>
        <time>2021-03-08T21:06:40Z</time>
      </trkpt>
      <trkpt lat="46.85952" lon="-1.00985">
        <ele>113</ele>
        <time>2021-03-08T21:06:40Z</time>
      </trkpt>
      <trkpt lat="46.85946" lon="-1.00979">
        <ele>113</ele>
        <time>2021-03-08T21:06:41Z</time>
      </trkpt>
      <trkpt lat="46.85931" lon="-1.00971">
        <ele>113</ele>
        <time>2021-03-08T21:06:44Z</time>
      </trkpt>
      <trkpt lat="46.85879" lon="-1.00946">
        <ele>113</ele>
        <time>2021-03-08T21:06:54Z</time>
      </trkpt>
      <trkpt lat="46.85858" lon="-1.00941">
        <ele>113</ele>
        <time>2021-03-08T21:06:58Z</time>
      </trkpt>
      <trkpt lat="46.8585" lon="-1.00944">
        <ele>113</ele>
        <time>2021-03-08T21:06:59Z</time>
      </trkpt>
      <trkpt lat="46.85842" lon="-1.00939">
        <ele>113</ele>
        <time>2021-03-08T21:07:01Z</time>
      </trkpt>
      <trkpt lat="46.85838" lon="-1.00929">
        <ele>113</ele>
        <time>2021-03-08T21:07:02Z</time>
      </trkpt>
      <trkpt lat="46.85838" lon="-1.00917">
        <ele>113</ele>
        <time>2021-03-08T21:07:04Z</time>
      </trkpt>
      <trkpt lat="46.85689" lon="-1.0083">
        <ele>112</ele>
        <time>2021-03-08T21:07:32Z</time>
      </trkpt>
      <trkpt lat="46.85562" lon="-1.00711">
        <ele>108</ele>
        <time>2021-03-08T21:07:59Z</time>
      </trkpt>
      <trkpt lat="46.85539" lon="-1.00693">
        <ele>108</ele>
        <time>2021-03-08T21:08:04Z</time>
      </trkpt>
      <trkpt lat="46.85483" lon="-1.00655">
        <ele>108</ele>
        <time>2021-03-08T21:08:15Z</time>
      </trkpt>
      <trkpt lat="46.85442" lon="-1.00633">
        <ele>108</ele>
        <time>2021-03-08T21:08:22Z</time>
      </trkpt>
      <trkpt lat="46.85347" lon="-1.00588">
        <ele>109</ele>
        <time>2021-03-08T21:08:40Z</time>
      </trkpt>
      <trkpt lat="46.85285" lon="-1.00572">
        <ele>110</ele>
        <time>2021-03-08T21:08:51Z</time>
      </trkpt>
      <trkpt lat="46.85261" lon="-1.00556">
        <ele>110</ele>
        <time>2021-03-08T21:08:56Z</time>
      </trkpt>
      <trkpt lat="46.85102" lon="-1.0044">
        <ele>110</ele>
        <time>2021-03-08T21:09:28Z</time>
      </trkpt>
      <trkpt lat="46.85054" lon="-1.0041">
        <ele>111</ele>
        <time>2021-03-08T21:09:37Z</time>
      </trkpt>
      <trkpt lat="46.85028" lon="-1.00398">
        <ele>112</ele>
        <time>2021-03-08T21:09:42Z</time>
      </trkpt>
      <trkpt lat="46.84991" lon="-1.00387">
        <ele>113</ele>
        <time>2021-03-08T21:09:49Z</time>
      </trkpt>
      <trkpt lat="46.84953" lon="-1.0038">
        <ele>113</ele>
        <time>2021-03-08T21:09:55Z</time>
      </trkpt>
      <trkpt lat="46.84893" lon="-1.00379">
        <ele>114</ele>
        <time>2021-03-08T21:10:06Z</time>
      </trkpt>
      <trkpt lat="46.84867" lon="-1.00381">
        <ele>115</ele>
        <time>2021-03-08T21:10:11Z</time>
      </trkpt>
      <trkpt lat="46.84774" lon="-1.00404">
        <ele>116</ele>
        <time>2021-03-08T21:10:27Z</time>
      </trkpt>
      <trkpt lat="46.84774" lon="-1.00407">
        <ele>116</ele>
        <time>2021-03-08T21:10:28Z</time>
      </trkpt>
      <trkpt lat="46.8477" lon="-1.00415">
        <ele>116</ele>
        <time>2021-03-08T21:10:29Z</time>
      </trkpt>
      <trkpt lat="46.84765" lon="-1.00416">
        <ele>116</ele>
        <time>2021-03-08T21:10:30Z</time>
      </trkpt>
      <trkpt lat="46.8476" lon="-1.00409">
        <ele>116</ele>
        <time>2021-03-08T21:10:31Z</time>
      </trkpt>
      <trkpt lat="46.84747" lon="-1.00415">
        <ele>116</ele>
        <time>2021-03-08T21:10:34Z</time>
      </trkpt>
      <trkpt lat="46.84696" lon="-1.00435">
        <ele>114</ele>
        <time>2021-03-08T21:10:43Z</time>
      </trkpt>
      <trkpt lat="46.84648" lon="-1.00451">
        <ele>113</ele>
        <time>2021-03-08T21:10:52Z</time>
      </trkpt>
      <trkpt lat="46.8461" lon="-1.00461">
        <ele>112</ele>
        <time>2021-03-08T21:10:59Z</time>
      </trkpt>
      <trkpt lat="46.84571" lon="-1.00469">
        <ele>111</ele>
        <time>2021-03-08T21:11:06Z</time>
      </trkpt>
      <trkpt lat="46.84503" lon="-1.00474">
        <ele>111</ele>
        <time>2021-03-08T21:11:18Z</time>
      </trkpt>
      <trkpt lat="46.84502" lon="-1.00481">
        <ele>111</ele>
        <time>2021-03-08T21:11:19Z</time>
      </trkpt>
      <trkpt lat="46.84496" lon="-1.00493">
        <ele>111</ele>
        <time>2021-03-08T21:11:20Z</time>
      </trkpt>
      <trkpt lat="46.84492" lon="-1.00496">
        <ele>111</ele>
        <time>2021-03-08T21:11:21Z</time>
      </trkpt>
      <trkpt lat="46.84487" lon="-1.00498">
        <ele>111</ele>
        <time>2021-03-08T21:11:22Z</time>
      </trkpt>
      <trkpt lat="46.84482" lon="-1.00497">
        <ele>111</ele>
        <time>2021-03-08T21:11:23Z</time>
      </trkpt>
      <trkpt lat="46.84474" lon="-1.0049">
        <ele>112</ele>
        <time>2021-03-08T21:11:25Z</time>
      </trkpt>
      <trkpt lat="46.8447" lon="-1.00477">
        <ele>112</ele>
        <time>2021-03-08T21:11:26Z</time>
      </trkpt>
      <trkpt lat="46.8447" lon="-1.00471">
        <ele>112</ele>
        <time>2021-03-08T21:11:27Z</time>
      </trkpt>
      <trkpt lat="46.84173" lon="-1.00445">
        <ele>119</ele>
        <time>2021-03-08T21:12:20Z</time>
      </trkpt>
      <trkpt lat="46.83858" lon="-1.00421">
        <ele>126</ele>
        <time>2021-03-08T21:13:16Z</time>
      </trkpt>
      <trkpt lat="46.83613" lon="-1.00403">
        <ele>129</ele>
        <time>2021-03-08T21:14:00Z</time>
      </trkpt>
      <trkpt lat="46.83506" lon="-1.00398">
        <ele>127</ele>
        <time>2021-03-08T21:14:19Z</time>
      </trkpt>
      <trkpt lat="46.83326" lon="-1.00377">
        <ele>126</ele>
        <time>2021-03-08T21:14:51Z</time>
      </trkpt>
      <trkpt lat="46.83322" lon="-1.00408">
        <ele>126</ele>
        <time>2021-03-08T21:14:55Z</time>
      </trkpt>
      <trkpt lat="46.83318" lon="-1.00426">
        <ele>126</ele>
        <time>2021-03-08T21:14:57Z</time>
      </trkpt>
      <trkpt lat="46.83311" lon="-1.00442">
        <ele>126</ele>
        <time>2021-03-08T21:14:59Z</time>
      </trkpt>
      <trkpt lat="46.83304" lon="-1.00453">
        <ele>126</ele>
        <time>2021-03-08T21:15:01Z</time>
      </trkpt>
      <trkpt lat="46.83289" lon="-1.00467">
        <ele>125</ele>
        <time>2021-03-08T21:15:04Z</time>
      </trkpt>
      <trkpt lat="46.83255" lon="-1.00491">
        <ele>124</ele>
        <time>2021-03-08T21:15:11Z</time>
      </trkpt>
      <trkpt lat="46.83225" lon="-1.00504">
        <ele>123</ele>
        <time>2021-03-08T21:15:17Z</time>
      </trkpt>
      <trkpt lat="46.83206" lon="-1.00513">
        <ele>123</ele>
        <time>2021-03-08T21:15:20Z</time>
      </trkpt>
      <trkpt lat="46.83178" lon="-1.00524">
        <ele>122</ele>
        <time>2021-03-08T21:15:25Z</time>
      </trkpt>
      <trkpt lat="46.83142" lon="-1.00545">
        <ele>121</ele>
        <time>2021-03-08T21:15:32Z</time>
      </trkpt>
      <trkpt lat="46.83104" lon="-1.00575">
        <ele>120</ele>
        <time>2021-03-08T21:15:40Z</time>
      </trkpt>
      <trkpt lat="46.83025" lon="-1.00646">
        <ele>120</ele>
        <time>2021-03-08T21:15:57Z</time>
      </trkpt>
      <trkpt lat="46.83004" lon="-1.00668">
        <ele>121</ele>
        <time>2021-03-08T21:16:01Z</time>
      </trkpt>
      <trkpt lat="46.82987" lon="-1.00695">
        <ele>121</ele>
        <time>2021-03-08T21:16:06Z</time>
      </trkpt>
      <trkpt lat="46.82972" lon="-1.00722">
        <ele>121</ele>
        <time>2021-03-08T21:16:10Z</time>
      </trkpt>
      <trkpt lat="46.82898" lon="-1.00868">
        <ele>121</ele>
        <time>2021-03-08T21:16:32Z</time>
      </trkpt>
      <trkpt lat="46.82873" lon="-1.00913">
        <ele>121</ele>
        <time>2021-03-08T21:16:39Z</time>
      </trkpt>
      <trkpt lat="46.82859" lon="-1.00936">
        <ele>120</ele>
        <time>2021-03-08T21:16:43Z</time>
      </trkpt>
      <trkpt lat="46.82792" lon="-1.01017">
        <ele>119</ele>
        <time>2021-03-08T21:16:58Z</time>
      </trkpt>
      <trkpt lat="46.82738" lon="-1.01079">
        <ele>118</ele>
        <time>2021-03-08T21:17:10Z</time>
      </trkpt>
      <trkpt lat="46.82659" lon="-1.0117">
        <ele>118</ele>
        <time>2021-03-08T21:17:28Z</time>
      </trkpt>
      <trkpt lat="46.82631" lon="-1.01197">
        <ele>119</ele>
        <time>2021-03-08T21:17:34Z</time>
      </trkpt>
      <trkpt lat="46.826" lon="-1.01214">
        <ele>119</ele>
        <time>2021-03-08T21:17:40Z</time>
      </trkpt>
      <trkpt lat="46.82369" lon="-1.01314">
        <ele>121</ele>
        <time>2021-03-08T21:18:23Z</time>
      </trkpt>
      <trkpt lat="46.82206" lon="-1.01384">
        <ele>121</ele>
        <time>2021-03-08T21:18:53Z</time>
      </trkpt>
      <trkpt lat="46.82172" lon="-1.01403">
        <ele>119</ele>
        <time>2021-03-08T21:19:00Z</time>
      </trkpt>
      <trkpt lat="46.82118" lon="-1.01441">
        <ele>119</ele>
        <time>2021-03-08T21:19:10Z</time>
      </trkpt>
      <trkpt lat="46.81954" lon="-1.01557">
        <ele>117</ele>
        <time>2021-03-08T21:19:43Z</time>
      </trkpt>
      <trkpt lat="46.81803" lon="-1.01663">
        <ele>114</ele>
        <time>2021-03-08T21:20:13Z</time>
      </trkpt>
      <trkpt lat="46.81783" lon="-1.01678">
        <ele>114</ele>
        <time>2021-03-08T21:20:17Z</time>
      </trkpt>
      <trkpt lat="46.81735" lon="-1.01722">
        <ele>114</ele>
        <time>2021-03-08T21:20:27Z</time>
      </trkpt>
      <trkpt lat="46.81719" lon="-1.0174">
        <ele>114</ele>
        <time>2021-03-08T21:20:30Z</time>
      </trkpt>
      <trkpt lat="46.81539" lon="-1.01936">
        <ele>116</ele>
        <time>2021-03-08T21:21:10Z</time>
      </trkpt>
      <trkpt lat="46.81517" lon="-1.01957">
        <ele>116</ele>
        <time>2021-03-08T21:21:15Z</time>
      </trkpt>
      <trkpt lat="46.81506" lon="-1.01967">
        <ele>117</ele>
        <time>2021-03-08T21:21:17Z</time>
      </trkpt>
      <trkpt lat="46.81496" lon="-1.01972">
        <ele>117</ele>
        <time>2021-03-08T21:21:19Z</time>
      </trkpt>
      <trkpt lat="46.81483" lon="-1.01977">
        <ele>117</ele>
        <time>2021-03-08T21:21:22Z</time>
      </trkpt>
      <trkpt lat="46.81469" lon="-1.01979">
        <ele>117</ele>
        <time>2021-03-08T21:21:24Z</time>
      </trkpt>
      <trkpt lat="46.81453" lon="-1.01978">
        <ele>117</ele>
        <time>2021-03-08T21:21:27Z</time>
      </trkpt>
      <trkpt lat="46.81402" lon="-1.01959">
        <ele>117</ele>
        <time>2021-03-08T21:21:36Z</time>
      </trkpt>
      <trkpt lat="46.81365" lon="-1.01945">
        <ele>117</ele>
        <time>2021-03-08T21:21:43Z</time>
      </trkpt>
      <trkpt lat="46.81333" lon="-1.01942">
        <ele>118</ele>
        <time>2021-03-08T21:21:49Z</time>
      </trkpt>
      <trkpt lat="46.81316" lon="-1.01944">
        <ele>118</ele>
        <time>2021-03-08T21:21:52Z</time>
      </trkpt>
      <trkpt lat="46.81296" lon="-1.01947">
        <ele>118</ele>
        <time>2021-03-08T21:21:55Z</time>
      </trkpt>
      <trkpt lat="46.81176" lon="-1.01966">
        <ele>120</ele>
        <time>2021-03-08T21:22:17Z</time>
      </trkpt>
      <trkpt lat="46.81153" lon="-1.01975">
        <ele>119</ele>
        <time>2021-03-08T21:22:21Z</time>
      </trkpt>
      <trkpt lat="46.81142" lon="-1.01982">
        <ele>119</ele>
        <time>2021-03-08T21:22:23Z</time>
      </trkpt>
      <trkpt lat="46.81127" lon="-1.01994">
        <ele>119</ele>
        <time>2021-03-08T21:22:26Z</time>
      </trkpt>
      <trkpt lat="46.81117" lon="-1.02005">
        <ele>119</ele>
        <time>2021-03-08T21:22:29Z</time>
      </trkpt>
      <trkpt lat="46.81106" lon="-1.02018">
        <ele>119</ele>
        <time>2021-03-08T21:22:31Z</time>
      </trkpt>
      <trkpt lat="46.81093" lon="-1.02041">
        <ele>119</ele>
        <time>2021-03-08T21:22:35Z</time>
      </trkpt>
      <trkpt lat="46.81054" lon="-1.02117">
        <ele>117</ele>
        <time>2021-03-08T21:22:46Z</time>
      </trkpt>
      <trkpt lat="46.80996" lon="-1.02233">
        <ele>116</ele>
        <time>2021-03-08T21:23:04Z</time>
      </trkpt>
      <trkpt lat="46.80992" lon="-1.02231">
        <ele>116</ele>
        <time>2021-03-08T21:23:04Z</time>
      </trkpt>
      <trkpt lat="46.80927" lon="-1.02216">
        <ele>115</ele>
        <time>2021-03-08T21:23:16Z</time>
      </trkpt>
      <trkpt lat="46.80911" lon="-1.02206">
        <ele>114</ele>
        <time>2021-03-08T21:23:19Z</time>
      </trkpt>
      <trkpt lat="46.80901" lon="-1.02193">
        <ele>115</ele>
        <time>2021-03-08T21:23:22Z</time>
      </trkpt>
      <trkpt lat="46.80888" lon="-1.02171">
        <ele>115</ele>
        <time>2021-03-08T21:23:25Z</time>
      </trkpt>
      <trkpt lat="46.80863" lon="-1.02123">
        <ele>114</ele>
        <time>2021-03-08T21:23:33Z</time>
      </trkpt>
      <trkpt lat="46.80855" lon="-1.02102">
        <ele>114</ele>
        <time>2021-03-08T21:23:35Z</time>
      </trkpt>
      <trkpt lat="46.80843" lon="-1.02081">
        <ele>114</ele>
        <time>2021-03-08T21:23:39Z</time>
      </trkpt>
      <trkpt lat="46.80834" lon="-1.02068">
        <ele>114</ele>
        <time>2021-03-08T21:23:41Z</time>
      </trkpt>
      <trkpt lat="46.80826" lon="-1.02059">
        <ele>114</ele>
        <time>2021-03-08T21:23:43Z</time>
      </trkpt>
      <trkpt lat="46.80814" lon="-1.02052">
        <ele>113</ele>
        <time>2021-03-08T21:23:45Z</time>
      </trkpt>
      <trkpt lat="46.8078" lon="-1.02034">
        <ele>113</ele>
        <time>2021-03-08T21:23:52Z</time>
      </trkpt>
      <trkpt lat="46.80766" lon="-1.02019">
        <ele>112</ele>
        <time>2021-03-08T21:23:55Z</time>
      </trkpt>
      <trkpt lat="46.80756" lon="-1.02001">
        <ele>112</ele>
        <time>2021-03-08T21:23:58Z</time>
      </trkpt>
      <trkpt lat="46.80747" lon="-1.01975">
        <ele>112</ele>
        <time>2021-03-08T21:24:01Z</time>
      </trkpt>
      <trkpt lat="46.80699" lon="-1.01799">
        <ele>111</ele>
        <time>2021-03-08T21:24:24Z</time>
      </trkpt>
      <trkpt lat="46.80693" lon="-1.01784">
        <ele>111</ele>
        <time>2021-03-08T21:24:26Z</time>
      </trkpt>
      <trkpt lat="46.80684" lon="-1.01769">
        <ele>110</ele>
        <time>2021-03-08T21:24:29Z</time>
      </trkpt>
      <trkpt lat="46.80671" lon="-1.01753">
        <ele>110</ele>
        <time>2021-03-08T21:24:32Z</time>
      </trkpt>
      <trkpt lat="46.80656" lon="-1.01738">
        <ele>109</ele>
        <time>2021-03-08T21:24:35Z</time>
      </trkpt>
      <trkpt lat="46.80645" lon="-1.01728">
        <ele>109</ele>
        <time>2021-03-08T21:24:37Z</time>
      </trkpt>
      <trkpt lat="46.80608" lon="-1.01707">
        <ele>108</ele>
        <time>2021-03-08T21:24:44Z</time>
      </trkpt>
      <trkpt lat="46.80455" lon="-1.01617">
        <ele>104</ele>
        <time>2021-03-08T21:25:14Z</time>
      </trkpt>
      <trkpt lat="46.80323" lon="-1.01529">
        <ele>103</ele>
        <time>2021-03-08T21:25:39Z</time>
      </trkpt>
      <trkpt lat="46.80286" lon="-1.01453">
        <ele>102</ele>
        <time>2021-03-08T21:25:51Z</time>
      </trkpt>
      <trkpt lat="46.80239" lon="-1.01334">
        <ele>98</ele>
        <time>2021-03-08T21:26:08Z</time>
      </trkpt>
      <trkpt lat="46.80208" lon="-1.01274">
        <ele>96</ele>
        <time>2021-03-08T21:26:17Z</time>
      </trkpt>
      <trkpt lat="46.80098" lon="-1.0118">
        <ele>98</ele>
        <time>2021-03-08T21:26:39Z</time>
      </trkpt>
      <trkpt lat="46.80069" lon="-1.01154">
        <ele>98</ele>
        <time>2021-03-08T21:26:45Z</time>
      </trkpt>
      <trkpt lat="46.8002" lon="-1.01133">
        <ele>97</ele>
        <time>2021-03-08T21:26:55Z</time>
      </trkpt>
      <trkpt lat="46.80006" lon="-1.01133">
        <ele>96</ele>
        <time>2021-03-08T21:26:57Z</time>
      </trkpt>
      <trkpt lat="46.79984" lon="-1.01133">
        <ele>95</ele>
        <time>2021-03-08T21:27:01Z</time>
      </trkpt>
      <trkpt lat="46.79938" lon="-1.01116">
        <ele>93</ele>
        <time>2021-03-08T21:27:09Z</time>
      </trkpt>
      <trkpt lat="46.79855" lon="-1.01053">
        <ele>91</ele>
        <time>2021-03-08T21:27:26Z</time>
      </trkpt>
      <trkpt lat="46.79822" lon="-1.01005">
        <ele>90</ele>
        <time>2021-03-08T21:27:34Z</time>
      </trkpt>
      <trkpt lat="46.79819" lon="-1.01001">
        <ele>89</ele>
        <time>2021-03-08T21:27:35Z</time>
      </trkpt>
      <trkpt lat="46.79815" lon="-1.00995">
        <ele>89</ele>
        <time>2021-03-08T21:27:36Z</time>
      </trkpt>
      <trkpt lat="46.79719" lon="-1.0082">
        <ele>80</ele>
        <time>2021-03-08T21:28:03Z</time>
      </trkpt>
      <trkpt lat="46.79713" lon="-1.00809">
        <ele>80</ele>
        <time>2021-03-08T21:28:05Z</time>
      </trkpt>
      <trkpt lat="46.79689" lon="-1.00765">
        <ele>82</ele>
        <time>2021-03-08T21:28:12Z</time>
      </trkpt>
      <trkpt lat="46.79665" lon="-1.00721">
        <ele>85</ele>
        <time>2021-03-08T21:28:19Z</time>
      </trkpt>
      <trkpt lat="46.7966" lon="-1.00712">
        <ele>86</ele>
        <time>2021-03-08T21:28:20Z</time>
      </trkpt>
      <trkpt lat="46.79658" lon="-1.00708">
        <ele>86</ele>
        <time>2021-03-08T21:28:21Z</time>
      </trkpt>
      <trkpt lat="46.79626" lon="-1.00599">
        <ele>89</ele>
        <time>2021-03-08T21:28:35Z</time>
      </trkpt>
      <trkpt lat="46.79612" lon="-1.00573">
        <ele>89</ele>
        <time>2021-03-08T21:28:39Z</time>
      </trkpt>
      <trkpt lat="46.79538" lon="-1.00471">
        <ele>88</ele>
        <time>2021-03-08T21:28:57Z</time>
      </trkpt>
      <trkpt lat="46.79494" lon="-1.0039">
        <ele>86</ele>
        <time>2021-03-08T21:29:10Z</time>
      </trkpt>
      <trkpt lat="46.7948" lon="-1.00371">
        <ele>86</ele>
        <time>2021-03-08T21:29:13Z</time>
      </trkpt>
      <trkpt lat="46.79438" lon="-1.00326">
        <ele>86</ele>
        <time>2021-03-08T21:29:23Z</time>
      </trkpt>
      <trkpt lat="46.79426" lon="-1.00315">
        <ele>86</ele>
        <time>2021-03-08T21:29:25Z</time>
      </trkpt>
      <trkpt lat="46.79366" lon="-1.00256">
        <ele>92</ele>
        <time>2021-03-08T21:29:38Z</time>
      </trkpt>
      <trkpt lat="46.79323" lon="-1.00215">
        <ele>96</ele>
        <time>2021-03-08T21:29:47Z</time>
      </trkpt>
      <trkpt lat="46.79287" lon="-1.00166">
        <ele>97</ele>
        <time>2021-03-08T21:29:56Z</time>
      </trkpt>
      <trkpt lat="46.79239" lon="-1.00088">
        <ele>97</ele>
        <time>2021-03-08T21:30:09Z</time>
      </trkpt>
      <trkpt lat="46.79221" lon="-1.00069">
        <ele>98</ele>
        <time>2021-03-08T21:30:13Z</time>
      </trkpt>
      <trkpt lat="46.79166" lon="-1.00037">
        <ele>98</ele>
        <time>2021-03-08T21:30:23Z</time>
      </trkpt>
      <trkpt lat="46.79096" lon="-0.99957">
        <ele>99</ele>
        <time>2021-03-08T21:30:39Z</time>
      </trkpt>
      <trkpt lat="46.79072" lon="-0.99921">
        <ele>100</ele>
        <time>2021-03-08T21:30:45Z</time>
      </trkpt>
      <trkpt lat="46.79039" lon="-0.99877">
        <ele>100</ele>
        <time>2021-03-08T21:30:53Z</time>
      </trkpt>
      <trkpt lat="46.79019" lon="-0.99855">
        <ele>101</ele>
        <time>2021-03-08T21:30:58Z</time>
      </trkpt>
      <trkpt lat="46.78988" lon="-0.99832">
        <ele>101</ele>
        <time>2021-03-08T21:31:04Z</time>
      </trkpt>
      <trkpt lat="46.78945" lon="-0.99813">
        <ele>101</ele>
        <time>2021-03-08T21:31:12Z</time>
      </trkpt>
      <trkpt lat="46.78945" lon="-0.99818">
        <ele>101</ele>
        <time>2021-03-08T21:31:12Z</time>
      </trkpt>
      <trkpt lat="46.78853" lon="-0.99833">
        <ele>98</ele>
        <time>2021-03-08T21:31:29Z</time>
      </trkpt>
      <trkpt lat="46.78823" lon="-0.99842">
        <ele>97</ele>
        <time>2021-03-08T21:31:34Z</time>
      </trkpt>
      <trkpt lat="46.78695" lon="-0.99946">
        <ele>95</ele>
        <time>2021-03-08T21:32:00Z</time>
      </trkpt>
      <trkpt lat="46.7859" lon="-1.00002">
        <ele>100</ele>
        <time>2021-03-08T21:32:20Z</time>
      </trkpt>
      <trkpt lat="46.78454" lon="-1.00158">
        <ele>106</ele>
        <time>2021-03-08T21:32:51Z</time>
      </trkpt>
      <trkpt lat="46.78353" lon="-1.00217">
        <ele>107</ele>
        <time>2021-03-08T21:33:10Z</time>
      </trkpt>
      <trkpt lat="46.78329" lon="-1.00242">
        <ele>107</ele>
        <time>2021-03-08T21:33:16Z</time>
      </trkpt>
      <trkpt lat="46.7831" lon="-1.00267">
        <ele>106</ele>
        <time>2021-03-08T21:33:20Z</time>
      </trkpt>
      <trkpt lat="46.78294" lon="-1.00298">
        <ele>105</ele>
        <time>2021-03-08T21:33:25Z</time>
      </trkpt>
      <trkpt lat="46.78259" lon="-1.0038">
        <ele>102</ele>
        <time>2021-03-08T21:33:37Z</time>
      </trkpt>
      <trkpt lat="46.78234" lon="-1.0041">
        <ele>99</ele>
        <time>2021-03-08T21:33:42Z</time>
      </trkpt>
      <trkpt lat="46.78173" lon="-1.00454">
        <ele>94</ele>
        <time>2021-03-08T21:33:54Z</time>
      </trkpt>
      <trkpt lat="46.78102" lon="-1.00467">
        <ele>92</ele>
        <time>2021-03-08T21:34:07Z</time>
      </trkpt>
      <trkpt lat="46.78089" lon="-1.00474">
        <ele>92</ele>
        <time>2021-03-08T21:34:10Z</time>
      </trkpt>
      <trkpt lat="46.78071" lon="-1.00491">
        <ele>93</ele>
        <time>2021-03-08T21:34:13Z</time>
      </trkpt>
      <trkpt lat="46.78048" lon="-1.00538">
        <ele>97</ele>
        <time>2021-03-08T21:34:21Z</time>
      </trkpt>
      <trkpt lat="46.78017" lon="-1.00661">
        <ele>102</ele>
        <time>2021-03-08T21:34:36Z</time>
      </trkpt>
      <trkpt lat="46.78005" lon="-1.00685">
        <ele>103</ele>
        <time>2021-03-08T21:34:40Z</time>
      </trkpt>
      <trkpt lat="46.77928" lon="-1.00799">
        <ele>108</ele>
        <time>2021-03-08T21:35:00Z</time>
      </trkpt>
      <trkpt lat="46.77895" lon="-1.00869">
        <ele>108</ele>
        <time>2021-03-08T21:35:10Z</time>
      </trkpt>
      <trkpt lat="46.77873" lon="-1.00894">
        <ele>109</ele>
        <time>2021-03-08T21:35:15Z</time>
      </trkpt>
      <trkpt lat="46.7785" lon="-1.00908">
        <ele>109</ele>
        <time>2021-03-08T21:35:19Z</time>
      </trkpt>
      <trkpt lat="46.77815" lon="-1.00918">
        <ele>108</ele>
        <time>2021-03-08T21:35:26Z</time>
      </trkpt>
      <trkpt lat="46.7778" lon="-1.00938">
        <ele>107</ele>
        <time>2021-03-08T21:35:32Z</time>
      </trkpt>
      <trkpt lat="46.77728" lon="-1.0096">
        <ele>103</ele>
        <time>2021-03-08T21:35:42Z</time>
      </trkpt>
      <trkpt lat="46.77708" lon="-1.00975">
        <ele>101</ele>
        <time>2021-03-08T21:35:46Z</time>
      </trkpt>
      <trkpt lat="46.77701" lon="-1.00991">
        <ele>100</ele>
        <time>2021-03-08T21:35:48Z</time>
      </trkpt>
      <trkpt lat="46.77697" lon="-1.01014">
        <ele>100</ele>
        <time>2021-03-08T21:35:51Z</time>
      </trkpt>
      <trkpt lat="46.77712" lon="-1.01109">
        <ele>99</ele>
        <time>2021-03-08T21:36:03Z</time>
      </trkpt>
      <trkpt lat="46.77724" lon="-1.01223">
        <ele>98</ele>
        <time>2021-03-08T21:36:17Z</time>
      </trkpt>
      <trkpt lat="46.77729" lon="-1.01311">
        <ele>96</ele>
        <time>2021-03-08T21:36:28Z</time>
      </trkpt>
      <trkpt lat="46.77727" lon="-1.01345">
        <ele>95</ele>
        <time>2021-03-08T21:36:32Z</time>
      </trkpt>
      <trkpt lat="46.77701" lon="-1.01416">
        <ele>92</ele>
        <time>2021-03-08T21:36:42Z</time>
      </trkpt>
      <trkpt lat="46.77666" lon="-1.01489">
        <ele>89</ele>
        <time>2021-03-08T21:36:53Z</time>
      </trkpt>
      <trkpt lat="46.77627" lon="-1.01545">
        <ele>88</ele>
        <time>2021-03-08T21:37:02Z</time>
      </trkpt>
      <trkpt lat="46.77526" lon="-1.01646">
        <ele>89</ele>
        <time>2021-03-08T21:37:24Z</time>
      </trkpt>
      <trkpt lat="46.77349" lon="-1.01774">
        <ele>94</ele>
        <time>2021-03-08T21:37:59Z</time>
      </trkpt>
      <trkpt lat="46.77183" lon="-1.01835">
        <ele>102</ele>
        <time>2021-03-08T21:38:30Z</time>
      </trkpt>
      <trkpt lat="46.77126" lon="-1.01835">
        <ele>104</ele>
        <time>2021-03-08T21:38:40Z</time>
      </trkpt>
      <trkpt lat="46.77097" lon="-1.01843">
        <ele>105</ele>
        <time>2021-03-08T21:38:45Z</time>
      </trkpt>
      <trkpt lat="46.77052" lon="-1.01864">
        <ele>106</ele>
        <time>2021-03-08T21:38:54Z</time>
      </trkpt>
      <trkpt lat="46.77005" lon="-1.01893">
        <ele>107</ele>
        <time>2021-03-08T21:39:03Z</time>
      </trkpt>
      <trkpt lat="46.76878" lon="-1.01928">
        <ele>106</ele>
        <time>2021-03-08T21:39:26Z</time>
      </trkpt>
      <trkpt lat="46.76817" lon="-1.01942">
        <ele>106</ele>
        <time>2021-03-08T21:39:37Z</time>
      </trkpt>
      <trkpt lat="46.76786" lon="-1.01943">
        <ele>106</ele>
        <time>2021-03-08T21:39:42Z</time>
      </trkpt>
      <trkpt lat="46.76741" lon="-1.01932">
        <ele>106</ele>
        <time>2021-03-08T21:39:50Z</time>
      </trkpt>
      <trkpt lat="46.76656" lon="-1.019">
        <ele>104</ele>
        <time>2021-03-08T21:40:06Z</time>
      </trkpt>
      <trkpt lat="46.76547" lon="-1.01829">
        <ele>102</ele>
        <time>2021-03-08T21:40:27Z</time>
      </trkpt>
      <trkpt lat="46.76444" lon="-1.01771">
        <ele>97</ele>
        <time>2021-03-08T21:40:47Z</time>
      </trkpt>
      <trkpt lat="46.76358" lon="-1.01727">
        <ele>93</ele>
        <time>2021-03-08T21:41:03Z</time>
      </trkpt>
      <trkpt lat="46.76323" lon="-1.01707">
        <ele>91</ele>
        <time>2021-03-08T21:41:10Z</time>
      </trkpt>
      <trkpt lat="46.76302" lon="-1.01696">
        <ele>90</ele>
        <time>2021-03-08T21:41:14Z</time>
      </trkpt>
      <trkpt lat="46.76272" lon="-1.01693">
        <ele>88</ele>
        <time>2021-03-08T21:41:19Z</time>
      </trkpt>
      <trkpt lat="46.7622" lon="-1.01694">
        <ele>86</ele>
        <time>2021-03-08T21:41:28Z</time>
      </trkpt>
      <trkpt lat="46.76152" lon="-1.01692">
        <ele>84</ele>
        <time>2021-03-08T21:41:40Z</time>
      </trkpt>
      <trkpt lat="46.76081" lon="-1.01666">
        <ele>82</ele>
        <time>2021-03-08T21:41:53Z</time>
      </trkpt>
      <trkpt lat="46.7604" lon="-1.01645">
        <ele>82</ele>
        <time>2021-03-08T21:42:01Z</time>
      </trkpt>
      <trkpt lat="46.75969" lon="-1.01586">
        <ele>82</ele>
        <time>2021-03-08T21:42:16Z</time>
      </trkpt>
      <trkpt lat="46.75934" lon="-1.01567">
        <ele>82</ele>
        <time>2021-03-08T21:42:22Z</time>
      </trkpt>
      <trkpt lat="46.75878" lon="-1.01547">
        <ele>82</ele>
        <time>2021-03-08T21:42:33Z</time>
      </trkpt>
      <trkpt lat="46.75756" lon="-1.01468">
        <ele>84</ele>
        <time>2021-03-08T21:42:56Z</time>
      </trkpt>
      <trkpt lat="46.75736" lon="-1.0146">
        <ele>85</ele>
        <time>2021-03-08T21:43:00Z</time>
      </trkpt>
      <trkpt lat="46.75698" lon="-1.01463">
        <ele>86</ele>
        <time>2021-03-08T21:43:07Z</time>
      </trkpt>
      <trkpt lat="46.7559" lon="-1.01482">
        <ele>90</ele>
        <time>2021-03-08T21:43:26Z</time>
      </trkpt>
      <trkpt lat="46.7552" lon="-1.01525">
        <ele>92</ele>
        <time>2021-03-08T21:43:40Z</time>
      </trkpt>
      <trkpt lat="46.75452" lon="-1.01555">
        <ele>93</ele>
        <time>2021-03-08T21:43:52Z</time>
      </trkpt>
      <trkpt lat="46.75247" lon="-1.01664">
        <ele>95</ele>
        <time>2021-03-08T21:44:31Z</time>
      </trkpt>
      <trkpt lat="46.75221" lon="-1.01681">
        <ele>95</ele>
        <time>2021-03-08T21:44:36Z</time>
      </trkpt>
      <trkpt lat="46.75173" lon="-1.01693">
        <ele>94</ele>
        <time>2021-03-08T21:44:45Z</time>
      </trkpt>
      <trkpt lat="46.75087" lon="-1.01706">
        <ele>93</ele>
        <time>2021-03-08T21:45:00Z</time>
      </trkpt>
      <trkpt lat="46.75029" lon="-1.01737">
        <ele>92</ele>
        <time>2021-03-08T21:45:11Z</time>
      </trkpt>
      <trkpt lat="46.74992" lon="-1.01752">
        <ele>92</ele>
        <time>2021-03-08T21:45:18Z</time>
      </trkpt>
      <trkpt lat="46.74952" lon="-1.01758">
        <ele>91</ele>
        <time>2021-03-08T21:45:25Z</time>
      </trkpt>
      <trkpt lat="46.74894" lon="-1.01758">
        <ele>91</ele>
        <time>2021-03-08T21:45:36Z</time>
      </trkpt>
      <trkpt lat="46.74879" lon="-1.01762">
        <ele>90</ele>
        <time>2021-03-08T21:45:38Z</time>
      </trkpt>
      <trkpt lat="46.74865" lon="-1.01772">
        <ele>90</ele>
        <time>2021-03-08T21:45:41Z</time>
      </trkpt>
      <trkpt lat="46.74789" lon="-1.01843">
        <ele>88</ele>
        <time>2021-03-08T21:45:57Z</time>
      </trkpt>
      <trkpt lat="46.74718" lon="-1.01888">
        <ele>86</ele>
        <time>2021-03-08T21:46:11Z</time>
      </trkpt>
      <trkpt lat="46.74703" lon="-1.01909">
        <ele>85</ele>
        <time>2021-03-08T21:46:15Z</time>
      </trkpt>
      <trkpt lat="46.74599" lon="-1.02154">
        <ele>81</ele>
        <time>2021-03-08T21:46:50Z</time>
      </trkpt>
      <trkpt lat="46.74539" lon="-1.02301">
        <ele>78</ele>
        <time>2021-03-08T21:47:11Z</time>
      </trkpt>
      <trkpt lat="46.74524" lon="-1.02327">
        <ele>78</ele>
        <time>2021-03-08T21:47:15Z</time>
      </trkpt>
      <trkpt lat="46.74502" lon="-1.02357">
        <ele>77</ele>
        <time>2021-03-08T21:47:20Z</time>
      </trkpt>
      <trkpt lat="46.74476" lon="-1.02385">
        <ele>77</ele>
        <time>2021-03-08T21:47:26Z</time>
      </trkpt>
      <trkpt lat="46.74463" lon="-1.02413">
        <ele>77</ele>
        <time>2021-03-08T21:47:30Z</time>
      </trkpt>
      <trkpt lat="46.74424" lon="-1.02577">
        <ele>77</ele>
        <time>2021-03-08T21:47:51Z</time>
      </trkpt>
      <trkpt lat="46.74411" lon="-1.02606">
        <ele>77</ele>
        <time>2021-03-08T21:47:55Z</time>
      </trkpt>
      <trkpt lat="46.74382" lon="-1.02643">
        <ele>78</ele>
        <time>2021-03-08T21:48:02Z</time>
      </trkpt>
      <trkpt lat="46.74352" lon="-1.02708">
        <ele>78</ele>
        <time>2021-03-08T21:48:12Z</time>
      </trkpt>
      <trkpt lat="46.74333" lon="-1.02735">
        <ele>78</ele>
        <time>2021-03-08T21:48:16Z</time>
      </trkpt>
      <trkpt lat="46.74317" lon="-1.02745">
        <ele>77</ele>
        <time>2021-03-08T21:48:20Z</time>
      </trkpt>
      <trkpt lat="46.74143" lon="-1.028">
        <ele>82</ele>
        <time>2021-03-08T21:48:51Z</time>
      </trkpt>
      <trkpt lat="46.74107" lon="-1.02815">
        <ele>83</ele>
        <time>2021-03-08T21:48:58Z</time>
      </trkpt>
      <trkpt lat="46.74025" lon="-1.02868">
        <ele>83</ele>
        <time>2021-03-08T21:49:14Z</time>
      </trkpt>
      <trkpt lat="46.73996" lon="-1.02873">
        <ele>82</ele>
        <time>2021-03-08T21:49:19Z</time>
      </trkpt>
      <trkpt lat="46.7396" lon="-1.02869">
        <ele>83</ele>
        <time>2021-03-08T21:49:26Z</time>
      </trkpt>
      <trkpt lat="46.73938" lon="-1.02873">
        <ele>83</ele>
        <time>2021-03-08T21:49:29Z</time>
      </trkpt>
      <trkpt lat="46.73867" lon="-1.02896">
        <ele>85</ele>
        <time>2021-03-08T21:49:42Z</time>
      </trkpt>
      <trkpt lat="46.73749" lon="-1.0292">
        <ele>89</ele>
        <time>2021-03-08T21:50:04Z</time>
      </trkpt>
      <trkpt lat="46.73671" lon="-1.0294">
        <ele>86</ele>
        <time>2021-03-08T21:50:18Z</time>
      </trkpt>
      <trkpt lat="46.73645" lon="-1.02943">
        <ele>85</ele>
        <time>2021-03-08T21:50:22Z</time>
      </trkpt>
      <trkpt lat="46.73404" lon="-1.02943">
        <ele>82</ele>
        <time>2021-03-08T21:51:05Z</time>
      </trkpt>
      <trkpt lat="46.73363" lon="-1.02949">
        <ele>82</ele>
        <time>2021-03-08T21:51:13Z</time>
      </trkpt>
      <trkpt lat="46.73313" lon="-1.02958">
        <ele>83</ele>
        <time>2021-03-08T21:51:22Z</time>
      </trkpt>
      <trkpt lat="46.73287" lon="-1.02953">
        <ele>83</ele>
        <time>2021-03-08T21:51:26Z</time>
      </trkpt>
      <trkpt lat="46.73221" lon="-1.02933">
        <ele>84</ele>
        <time>2021-03-08T21:51:38Z</time>
      </trkpt>
      <trkpt lat="46.73083" lon="-1.02917">
        <ele>88</ele>
        <time>2021-03-08T21:52:03Z</time>
      </trkpt>
      <trkpt lat="46.73064" lon="-1.02925">
        <ele>88</ele>
        <time>2021-03-08T21:52:06Z</time>
      </trkpt>
      <trkpt lat="46.73037" lon="-1.02943">
        <ele>88</ele>
        <time>2021-03-08T21:52:12Z</time>
      </trkpt>
      <trkpt lat="46.73023" lon="-1.02946">
        <ele>88</ele>
        <time>2021-03-08T21:52:14Z</time>
      </trkpt>
      <trkpt lat="46.73004" lon="-1.0294">
        <ele>88</ele>
        <time>2021-03-08T21:52:18Z</time>
      </trkpt>
      <trkpt lat="46.72795" lon="-1.0283">
        <ele>89</ele>
        <time>2021-03-08T21:52:57Z</time>
      </trkpt>
      <trkpt lat="46.7276" lon="-1.02824">
        <ele>88</ele>
        <time>2021-03-08T21:53:03Z</time>
      </trkpt>
      <trkpt lat="46.72675" lon="-1.0282">
        <ele>87</ele>
        <time>2021-03-08T21:53:19Z</time>
      </trkpt>
      <trkpt lat="46.72613" lon="-1.02824">
        <ele>86</ele>
        <time>2021-03-08T21:53:30Z</time>
      </trkpt>
      <trkpt lat="46.72422" lon="-1.02852">
        <ele>84</ele>
        <time>2021-03-08T21:54:04Z</time>
      </trkpt>
      <trkpt lat="46.72407" lon="-1.02858">
        <ele>84</ele>
        <time>2021-03-08T21:54:06Z</time>
      </trkpt>
      <trkpt lat="46.72393" lon="-1.02871">
        <ele>84</ele>
        <time>2021-03-08T21:54:09Z</time>
      </trkpt>
      <trkpt lat="46.72382" lon="-1.0289">
        <ele>83</ele>
        <time>2021-03-08T21:54:12Z</time>
      </trkpt>
      <trkpt lat="46.7238" lon="-1.02894">
        <ele>83</ele>
        <time>2021-03-08T21:54:13Z</time>
      </trkpt>
      <trkpt lat="46.72375" lon="-1.02901">
        <ele>83</ele>
        <time>2021-03-08T21:54:14Z</time>
      </trkpt>
      <trkpt lat="46.72371" lon="-1.02903">
        <ele>83</ele>
        <time>2021-03-08T21:54:15Z</time>
      </trkpt>
      <trkpt lat="46.72367" lon="-1.02902">
        <ele>83</ele>
        <time>2021-03-08T21:54:16Z</time>
      </trkpt>
      <trkpt lat="46.7236" lon="-1.02896">
        <ele>83</ele>
        <time>2021-03-08T21:54:17Z</time>
      </trkpt>
      <trkpt lat="46.72358" lon="-1.02885">
        <ele>84</ele>
        <time>2021-03-08T21:54:19Z</time>
      </trkpt>
      <trkpt lat="46.72341" lon="-1.02884">
        <ele>84</ele>
        <time>2021-03-08T21:54:22Z</time>
      </trkpt>
      <trkpt lat="46.7227" lon="-1.02895">
        <ele>83</ele>
        <time>2021-03-08T21:54:34Z</time>
      </trkpt>
      <trkpt lat="46.72179" lon="-1.02906">
        <ele>82</ele>
        <time>2021-03-08T21:54:51Z</time>
      </trkpt>
      <trkpt lat="46.7215" lon="-1.02913">
        <ele>82</ele>
        <time>2021-03-08T21:54:56Z</time>
      </trkpt>
      <trkpt lat="46.71947" lon="-1.02986">
        <ele>82</ele>
        <time>2021-03-08T21:55:33Z</time>
      </trkpt>
      <trkpt lat="46.71909" lon="-1.03021">
        <ele>82</ele>
        <time>2021-03-08T21:55:41Z</time>
      </trkpt>
      <trkpt lat="46.71842" lon="-1.03095">
        <ele>79</ele>
        <time>2021-03-08T21:55:56Z</time>
      </trkpt>
      <trkpt lat="46.71791" lon="-1.03147">
        <ele>78</ele>
        <time>2021-03-08T21:56:07Z</time>
      </trkpt>
      <trkpt lat="46.71661" lon="-1.03289">
        <ele>83</ele>
        <time>2021-03-08T21:56:36Z</time>
      </trkpt>
      <trkpt lat="46.71577" lon="-1.03377">
        <ele>84</ele>
        <time>2021-03-08T21:56:54Z</time>
      </trkpt>
      <trkpt lat="46.71532" lon="-1.03409">
        <ele>84</ele>
        <time>2021-03-08T21:57:03Z</time>
      </trkpt>
      <trkpt lat="46.71504" lon="-1.03416">
        <ele>84</ele>
        <time>2021-03-08T21:57:08Z</time>
      </trkpt>
      <trkpt lat="46.71489" lon="-1.03413">
        <ele>84</ele>
        <time>2021-03-08T21:57:11Z</time>
      </trkpt>
      <trkpt lat="46.71428" lon="-1.03366">
        <ele>84</ele>
        <time>2021-03-08T21:57:23Z</time>
      </trkpt>
      <trkpt lat="46.71412" lon="-1.03356">
        <ele>84</ele>
        <time>2021-03-08T21:57:26Z</time>
      </trkpt>
      <trkpt lat="46.71318" lon="-1.03354">
        <ele>83</ele>
        <time>2021-03-08T21:57:43Z</time>
      </trkpt>
      <trkpt lat="46.7131" lon="-1.03355">
        <ele>82</ele>
        <time>2021-03-08T21:57:45Z</time>
      </trkpt>
      <trkpt lat="46.71274" lon="-1.03385">
        <ele>82</ele>
        <time>2021-03-08T21:57:52Z</time>
      </trkpt>
      <trkpt lat="46.7116" lon="-1.03485">
        <ele>79</ele>
        <time>2021-03-08T21:58:16Z</time>
      </trkpt>
      <trkpt lat="46.71147" lon="-1.03501">
        <ele>79</ele>
        <time>2021-03-08T21:58:19Z</time>
      </trkpt>
      <trkpt lat="46.711" lon="-1.03444">
        <ele>79</ele>
        <time>2021-03-08T21:58:29Z</time>
      </trkpt>
      <trkpt lat="46.71074" lon="-1.03405">
        <ele>79</ele>
        <time>2021-03-08T21:58:36Z</time>
      </trkpt>
      <trkpt lat="46.7104" lon="-1.03348">
        <ele>80</ele>
        <time>2021-03-08T21:58:45Z</time>
      </trkpt>
      <trkpt lat="46.71028" lon="-1.03332">
        <ele>80</ele>
        <time>2021-03-08T21:58:48Z</time>
      </trkpt>
      <trkpt lat="46.71015" lon="-1.03319">
        <ele>80</ele>
        <time>2021-03-08T21:58:51Z</time>
      </trkpt>
      <trkpt lat="46.70941" lon="-1.03262">
        <ele>80</ele>
        <time>2021-03-08T21:59:06Z</time>
      </trkpt>
      <trkpt lat="46.70925" lon="-1.03248">
        <ele>79</ele>
        <time>2021-03-08T21:59:09Z</time>
      </trkpt>
      <trkpt lat="46.70912" lon="-1.03229">
        <ele>79</ele>
        <time>2021-03-08T21:59:13Z</time>
      </trkpt>
      <trkpt lat="46.70876" lon="-1.03161">
        <ele>78</ele>
        <time>2021-03-08T21:59:23Z</time>
      </trkpt>
      <trkpt lat="46.70788" lon="-1.03262">
        <ele>80</ele>
        <time>2021-03-08T21:59:43Z</time>
      </trkpt>
      <trkpt lat="46.70642" lon="-1.03421">
        <ele>79</ele>
        <time>2021-03-08T22:00:15Z</time>
      </trkpt>
      <trkpt lat="46.70471" lon="-1.03617">
        <ele>72</ele>
        <time>2021-03-08T22:00:54Z</time>
      </trkpt>
      <trkpt lat="46.70468" lon="-1.03622">
        <ele>72</ele>
        <time>2021-03-08T22:00:55Z</time>
      </trkpt>
      <trkpt lat="46.7047" lon="-1.03632">
        <ele>72</ele>
        <time>2021-03-08T22:00:56Z</time>
      </trkpt>
      <trkpt lat="46.70466" lon="-1.03641">
        <ele>72</ele>
        <time>2021-03-08T22:00:57Z</time>
      </trkpt>
      <trkpt lat="46.70459" lon="-1.03643">
        <ele>72</ele>
        <time>2021-03-08T22:00:59Z</time>
      </trkpt>
      <trkpt lat="46.70453" lon="-1.03638">
        <ele>72</ele>
        <time>2021-03-08T22:01:00Z</time>
      </trkpt>
      <trkpt lat="46.70447" lon="-1.03643">
        <ele>72</ele>
        <time>2021-03-08T22:01:01Z</time>
      </trkpt>
      <trkpt lat="46.70188" lon="-1.03937">
        <ele>64</ele>
        <time>2021-03-08T22:02:00Z</time>
      </trkpt>
      <trkpt lat="46.69884" lon="-1.04274">
        <ele>62</ele>
        <time>2021-03-08T22:03:07Z</time>
      </trkpt>
      <trkpt lat="46.69866" lon="-1.04301">
        <ele>62</ele>
        <time>2021-03-08T22:03:12Z</time>
      </trkpt>
      <trkpt lat="46.69858" lon="-1.04318">
        <ele>61</ele>
        <time>2021-03-08T22:03:15Z</time>
      </trkpt>
      <trkpt lat="46.69855" lon="-1.04334">
        <ele>60</ele>
        <time>2021-03-08T22:03:17Z</time>
      </trkpt>
      <trkpt lat="46.69857" lon="-1.04343">
        <ele>60</ele>
        <time>2021-03-08T22:03:18Z</time>
      </trkpt>
      <trkpt lat="46.69856" lon="-1.04353">
        <ele>60</ele>
        <time>2021-03-08T22:03:19Z</time>
      </trkpt>
      <trkpt lat="46.69854" lon="-1.04361">
        <ele>60</ele>
        <time>2021-03-08T22:03:20Z</time>
      </trkpt>
      <trkpt lat="46.6985" lon="-1.04369">
        <ele>59</ele>
        <time>2021-03-08T22:03:21Z</time>
      </trkpt>
      <trkpt lat="46.69845" lon="-1.04374">
        <ele>59</ele>
        <time>2021-03-08T22:03:22Z</time>
      </trkpt>
      <trkpt lat="46.69834" lon="-1.04378">
        <ele>59</ele>
        <time>2021-03-08T22:03:24Z</time>
      </trkpt>
      <trkpt lat="46.69823" lon="-1.04372">
        <ele>60</ele>
        <time>2021-03-08T22:03:26Z</time>
      </trkpt>
      <trkpt lat="46.69812" lon="-1.04372">
        <ele>60</ele>
        <time>2021-03-08T22:03:28Z</time>
      </trkpt>
      <trkpt lat="46.698" lon="-1.04378">
        <ele>60</ele>
        <time>2021-03-08T22:03:31Z</time>
      </trkpt>
      <trkpt lat="46.69779" lon="-1.04393">
        <ele>60</ele>
        <time>2021-03-08T22:03:35Z</time>
      </trkpt>
      <trkpt lat="46.69194" lon="-1.05055">
        <ele>60</ele>
        <time>2021-03-08T22:05:47Z</time>
      </trkpt>
      <trkpt lat="46.69032" lon="-1.05239">
        <ele>66</ele>
        <time>2021-03-08T22:06:23Z</time>
      </trkpt>
      <trkpt lat="46.6902" lon="-1.0523">
        <ele>66</ele>
        <time>2021-03-08T22:06:26Z</time>
      </trkpt>
      <trkpt lat="46.68975" lon="-1.05198">
        <ele>65</ele>
        <time>2021-03-08T22:06:34Z</time>
      </trkpt>
      <trkpt lat="46.68946" lon="-1.05184">
        <ele>65</ele>
        <time>2021-03-08T22:06:40Z</time>
      </trkpt>
      <trkpt lat="46.68914" lon="-1.05172">
        <ele>64</ele>
        <time>2021-03-08T22:06:46Z</time>
      </trkpt>
      <trkpt lat="46.68902" lon="-1.05167">
        <ele>63</ele>
        <time>2021-03-08T22:06:48Z</time>
      </trkpt>
      <trkpt lat="46.6889" lon="-1.05164">
        <ele>63</ele>
        <time>2021-03-08T22:06:50Z</time>
      </trkpt>
      <trkpt lat="46.68875" lon="-1.05159">
        <ele>62</ele>
        <time>2021-03-08T22:06:53Z</time>
      </trkpt>
      <trkpt lat="46.68839" lon="-1.0515">
        <ele>60</ele>
        <time>2021-03-08T22:06:59Z</time>
      </trkpt>
      <trkpt lat="46.6883" lon="-1.0515">
        <ele>60</ele>
        <time>2021-03-08T22:07:01Z</time>
      </trkpt>
      <trkpt lat="46.68822" lon="-1.0515">
        <ele>60</ele>
        <time>2021-03-08T22:07:02Z</time>
      </trkpt>
      <trkpt lat="46.68789" lon="-1.05148">
        <ele>60</ele>
        <time>2021-03-08T22:07:08Z</time>
      </trkpt>
      <trkpt lat="46.68766" lon="-1.05143">
        <ele>60</ele>
        <time>2021-03-08T22:07:12Z</time>
      </trkpt>
      <trkpt lat="46.68756" lon="-1.0514">
        <ele>60</ele>
        <time>2021-03-08T22:07:14Z</time>
      </trkpt>
      <trkpt lat="46.68738" lon="-1.05132">
        <ele>61</ele>
        <time>2021-03-08T22:07:18Z</time>
      </trkpt>
      <trkpt lat="46.68731" lon="-1.05128">
        <ele>61</ele>
        <time>2021-03-08T22:07:19Z</time>
      </trkpt>
      <trkpt lat="46.68726" lon="-1.05124">
        <ele>62</ele>
        <time>2021-03-08T22:07:20Z</time>
      </trkpt>
      <trkpt lat="46.68706" lon="-1.05104">
        <ele>62</ele>
        <time>2021-03-08T22:07:24Z</time>
      </trkpt>
      <trkpt lat="46.687" lon="-1.05099">
        <ele>63</ele>
        <time>2021-03-08T22:07:25Z</time>
      </trkpt>
      <trkpt lat="46.68682" lon="-1.05084">
        <ele>63</ele>
        <time>2021-03-08T22:07:29Z</time>
      </trkpt>
      <trkpt lat="46.68674" lon="-1.05077">
        <ele>64</ele>
        <time>2021-03-08T22:07:31Z</time>
      </trkpt>
      <trkpt lat="46.6867" lon="-1.05073">
        <ele>64</ele>
        <time>2021-03-08T22:07:32Z</time>
      </trkpt>
      <trkpt lat="46.68664" lon="-1.05069">
        <ele>63</ele>
        <time>2021-03-08T22:07:33Z</time>
      </trkpt>
      <trkpt lat="46.68658" lon="-1.05064">
        <ele>63</ele>
        <time>2021-03-08T22:07:34Z</time>
      </trkpt>
      <trkpt lat="46.68615" lon="-1.05049">
        <ele>63</ele>
        <time>2021-03-08T22:07:42Z</time>
      </trkpt>
      <trkpt lat="46.68613" lon="-1.05048">
        <ele>63</ele>
        <time>2021-03-08T22:07:42Z</time>
      </trkpt>
      <trkpt lat="46.68612" lon="-1.05045">
        <ele>63</ele>
        <time>2021-03-08T22:07:43Z</time>
      </trkpt>
      <trkpt lat="46.686" lon="-1.04983">
        <ele>62</ele>
        <time>2021-03-08T22:07:51Z</time>
      </trkpt>
      <trkpt lat="46.68598" lon="-1.0498">
        <ele>62</ele>
        <time>2021-03-08T22:07:51Z</time>
      </trkpt>
      <trkpt lat="46.68597" lon="-1.04977">
        <ele>62</ele>
        <time>2021-03-08T22:07:52Z</time>
      </trkpt>
      <trkpt lat="46.68595" lon="-1.04974">
        <ele>62</ele>
        <time>2021-03-08T22:07:52Z</time>
      </trkpt>
      <trkpt lat="46.68592" lon="-1.04972">
        <ele>62</ele>
        <time>2021-03-08T22:07:53Z</time>
      </trkpt>
      <trkpt lat="46.68588" lon="-1.0497">
        <ele>62</ele>
        <time>2021-03-08T22:07:53Z</time>
      </trkpt>
      <trkpt lat="46.68573" lon="-1.04968">
        <ele>62</ele>
        <time>2021-03-08T22:07:56Z</time>
      </trkpt>
      <trkpt lat="46.68531" lon="-1.04965">
        <ele>60</ele>
        <time>2021-03-08T22:08:04Z</time>
      </trkpt>
      <trkpt lat="46.68521" lon="-1.0496">
        <ele>60</ele>
        <time>2021-03-08T22:08:05Z</time>
      </trkpt>
      <trkpt lat="46.68518" lon="-1.04959">
        <ele>60</ele>
        <time>2021-03-08T22:08:06Z</time>
      </trkpt>
      <trkpt lat="46.68516" lon="-1.04962">
        <ele>60</ele>
        <time>2021-03-08T22:08:06Z</time>
      </trkpt>
      <trkpt lat="46.68514" lon="-1.04964">
        <ele>60</ele>
        <time>2021-03-08T22:08:07Z</time>
      </trkpt>
      <trkpt lat="46.68508" lon="-1.04964">
        <ele>60</ele>
        <time>2021-03-08T22:08:08Z</time>
      </trkpt>
      <trkpt lat="46.68506" lon="-1.04962">
        <ele>59</ele>
        <time>2021-03-08T22:08:08Z</time>
      </trkpt>
      <trkpt lat="46.68504" lon="-1.04959">
        <ele>59</ele>
        <time>2021-03-08T22:08:09Z</time>
      </trkpt>
      <trkpt lat="46.68502" lon="-1.04955">
        <ele>59</ele>
        <time>2021-03-08T22:08:10Z</time>
      </trkpt>
      <trkpt lat="46.685" lon="-1.04956">
        <ele>59</ele>
        <time>2021-03-08T22:08:10Z</time>
      </trkpt>
      <trkpt lat="46.68495" lon="-1.0496">
        <ele>59</ele>
        <time>2021-03-08T22:08:11Z</time>
      </trkpt>
      <trkpt lat="46.68445" lon="-1.04959">
        <ele>59</ele>
        <time>2021-03-08T22:08:20Z</time>
      </trkpt>
      <trkpt lat="46.68428" lon="-1.04958">
        <ele>59</ele>
        <time>2021-03-08T22:08:23Z</time>
      </trkpt>
      <trkpt lat="46.68415" lon="-1.04957">
        <ele>58</ele>
        <time>2021-03-08T22:08:25Z</time>
      </trkpt>
      <trkpt lat="46.68397" lon="-1.04956">
        <ele>58</ele>
        <time>2021-03-08T22:08:28Z</time>
      </trkpt>
      <trkpt lat="46.68379" lon="-1.04955">
        <ele>58</ele>
        <time>2021-03-08T22:08:32Z</time>
      </trkpt>
      <trkpt lat="46.68334" lon="-1.04951">
        <ele>58</ele>
        <time>2021-03-08T22:08:40Z</time>
      </trkpt>
      <trkpt lat="46.68308" lon="-1.04949">
        <ele>58</ele>
        <time>2021-03-08T22:08:44Z</time>
      </trkpt>
      <trkpt lat="46.68287" lon="-1.04948">
        <ele>59</ele>
        <time>2021-03-08T22:08:48Z</time>
      </trkpt>
      <trkpt lat="46.68215" lon="-1.04942">
        <ele>59</ele>
        <time>2021-03-08T22:09:01Z</time>
      </trkpt>
      <trkpt lat="46.682" lon="-1.04941">
        <ele>58</ele>
        <time>2021-03-08T22:09:03Z</time>
      </trkpt>
      <trkpt lat="46.68185" lon="-1.0494">
        <ele>58</ele>
        <time>2021-03-08T22:09:06Z</time>
      </trkpt>
      <trkpt lat="46.68184" lon="-1.04945">
        <ele>58</ele>
        <time>2021-03-08T22:09:07Z</time>
      </trkpt>
      <trkpt lat="46.68179" lon="-1.04952">
        <ele>58</ele>
        <time>2021-03-08T22:09:08Z</time>
      </trkpt>
      <trkpt lat="46.68176" lon="-1.04953">
        <ele>58</ele>
        <time>2021-03-08T22:09:09Z</time>
      </trkpt>
      <trkpt lat="46.68173" lon="-1.04952">
        <ele>58</ele>
        <time>2021-03-08T22:09:09Z</time>
      </trkpt>
      <trkpt lat="46.68168" lon="-1.04947">
        <ele>57</ele>
        <time>2021-03-08T22:09:10Z</time>
      </trkpt>
      <trkpt lat="46.68167" lon="-1.04943">
        <ele>57</ele>
        <time>2021-03-08T22:09:11Z</time>
      </trkpt>
      <trkpt lat="46.68167" lon="-1.04939">
        <ele>57</ele>
        <time>2021-03-08T22:09:11Z</time>
      </trkpt>
      <trkpt lat="46.68152" lon="-1.04938">
        <ele>57</ele>
        <time>2021-03-08T22:09:14Z</time>
      </trkpt>
      <trkpt lat="46.68131" lon="-1.04936">
        <ele>57</ele>
        <time>2021-03-08T22:09:18Z</time>
      </trkpt>
      <trkpt lat="46.68107" lon="-1.04934">
        <ele>57</ele>
        <time>2021-03-08T22:09:22Z</time>
      </trkpt>
      <trkpt lat="46.6807" lon="-1.04932">
        <ele>57</ele>
        <time>2021-03-08T22:09:28Z</time>
      </trkpt>
      <trkpt lat="46.6804" lon="-1.0493">
        <ele>57</ele>
        <time>2021-03-08T22:09:34Z</time>
      </trkpt>
      <trkpt lat="46.68024" lon="-1.04929">
        <ele>58</ele>
        <time>2021-03-08T22:09:37Z</time>
      </trkpt>
      <trkpt lat="46.67966" lon="-1.04925">
        <ele>59</ele>
        <time>2021-03-08T22:09:47Z</time>
      </trkpt>
      <trkpt lat="46.67951" lon="-1.04923">
        <ele>59</ele>
        <time>2021-03-08T22:09:50Z</time>
      </trkpt>
      <trkpt lat="46.67939" lon="-1.04922">
        <ele>60</ele>
        <time>2021-03-08T22:09:52Z</time>
      </trkpt>
      <trkpt lat="46.67911" lon="-1.04921">
        <ele>60</ele>
        <time>2021-03-08T22:09:57Z</time>
      </trkpt>
      <trkpt lat="46.67828" lon="-1.04915">
        <ele>59</ele>
        <time>2021-03-08T22:10:12Z</time>
      </trkpt>
      <trkpt lat="46.67788" lon="-1.04912">
        <ele>60</ele>
        <time>2021-03-08T22:10:19Z</time>
      </trkpt>
      <trkpt lat="46.67773" lon="-1.0491">
        <ele>61</ele>
        <time>2021-03-08T22:10:21Z</time>
      </trkpt>
      <trkpt lat="46.67629" lon="-1.04901">
        <ele>61</ele>
        <time>2021-03-08T22:10:47Z</time>
      </trkpt>
      <trkpt lat="46.67559" lon="-1.04896">
        <ele>62</ele>
        <time>2021-03-08T22:11:00Z</time>
      </trkpt>
      <trkpt lat="46.675" lon="-1.04891">
        <ele>64</ele>
        <time>2021-03-08T22:11:10Z</time>
      </trkpt>
      <trkpt lat="46.67457" lon="-1.04889">
        <ele>66</ele>
        <time>2021-03-08T22:11:18Z</time>
      </trkpt>
      <trkpt lat="46.67393" lon="-1.04884">
        <ele>69</ele>
        <time>2021-03-08T22:11:29Z</time>
      </trkpt>
      <trkpt lat="46.67217" lon="-1.04871">
        <ele>79</ele>
        <time>2021-03-08T22:12:00Z</time>
      </trkpt>
      <trkpt lat="46.67194" lon="-1.04869">
        <ele>78</ele>
        <time>2021-03-08T22:12:05Z</time>
      </trkpt>
      <trkpt lat="46.67168" lon="-1.04867">
        <ele>78</ele>
        <time>2021-03-08T22:12:09Z</time>
      </trkpt>
      <trkpt lat="46.67147" lon="-1.04866">
        <ele>77</ele>
        <time>2021-03-08T22:12:13Z</time>
      </trkpt>
      <trkpt lat="46.67133" lon="-1.04866">
        <ele>77</ele>
        <time>2021-03-08T22:12:15Z</time>
      </trkpt>
      <trkpt lat="46.67117" lon="-1.04869">
        <ele>77</ele>
        <time>2021-03-08T22:12:18Z</time>
      </trkpt>
      <trkpt lat="46.67097" lon="-1.04878">
        <ele>77</ele>
        <time>2021-03-08T22:12:22Z</time>
      </trkpt>
      <trkpt lat="46.67077" lon="-1.04895">
        <ele>78</ele>
        <time>2021-03-08T22:12:26Z</time>
      </trkpt>
      <trkpt lat="46.67063" lon="-1.04912">
        <ele>78</ele>
        <time>2021-03-08T22:12:29Z</time>
      </trkpt>
      <trkpt lat="46.6705" lon="-1.04938">
        <ele>79</ele>
        <time>2021-03-08T22:12:33Z</time>
      </trkpt>
      <trkpt lat="46.67041" lon="-1.04967">
        <ele>80</ele>
        <time>2021-03-08T22:12:37Z</time>
      </trkpt>
      <trkpt lat="46.67033" lon="-1.05006">
        <ele>82</ele>
        <time>2021-03-08T22:12:42Z</time>
      </trkpt>
      <trkpt lat="46.67022" lon="-1.05065">
        <ele>83</ele>
        <time>2021-03-08T22:12:50Z</time>
      </trkpt>
      <trkpt lat="46.67014" lon="-1.05111">
        <ele>84</ele>
        <time>2021-03-08T22:12:55Z</time>
      </trkpt>
      <trkpt lat="46.67003" lon="-1.05167">
        <ele>86</ele>
        <time>2021-03-08T22:13:03Z</time>
      </trkpt>
      <trkpt lat="46.67002" lon="-1.05173">
        <ele>86</ele>
        <time>2021-03-08T22:13:03Z</time>
      </trkpt>
      <trkpt lat="46.67002" lon="-1.05176">
        <ele>86</ele>
        <time>2021-03-08T22:13:04Z</time>
      </trkpt>
      <trkpt lat="46.66999" lon="-1.05197">
        <ele>86</ele>
        <time>2021-03-08T22:13:06Z</time>
      </trkpt>
      <trkpt lat="46.66994" lon="-1.05226">
        <ele>87</ele>
        <time>2021-03-08T22:13:10Z</time>
      </trkpt>
      <trkpt lat="46.6699" lon="-1.0524">
        <ele>87</ele>
        <time>2021-03-08T22:13:12Z</time>
      </trkpt>
      <trkpt lat="46.66982" lon="-1.05264">
        <ele>87</ele>
        <time>2021-03-08T22:13:15Z</time>
      </trkpt>
      <trkpt lat="46.66971" lon="-1.05285">
        <ele>87</ele>
        <time>2021-03-08T22:13:18Z</time>
      </trkpt>
      <trkpt lat="46.66962" lon="-1.05299">
        <ele>88</ele>
        <time>2021-03-08T22:13:21Z</time>
      </trkpt>
      <trkpt lat="46.66945" lon="-1.05316">
        <ele>88</ele>
        <time>2021-03-08T22:13:24Z</time>
      </trkpt>
      <trkpt lat="46.66939" lon="-1.0532">
        <ele>88</ele>
        <time>2021-03-08T22:13:25Z</time>
      </trkpt>
      <trkpt lat="46.66931" lon="-1.05322">
        <ele>89</ele>
        <time>2021-03-08T22:13:27Z</time>
      </trkpt>
      <trkpt lat="46.66919" lon="-1.05321">
        <ele>89</ele>
        <time>2021-03-08T22:13:29Z</time>
      </trkpt>
      <trkpt lat="46.66903" lon="-1.0532">
        <ele>89</ele>
        <time>2021-03-08T22:13:32Z</time>
      </trkpt>
      <trkpt lat="46.66893" lon="-1.05318">
        <ele>89</ele>
        <time>2021-03-08T22:13:34Z</time>
      </trkpt>
      <trkpt lat="46.66885" lon="-1.05314">
        <ele>90</ele>
        <time>2021-03-08T22:13:35Z</time>
      </trkpt>
      <trkpt lat="46.66867" lon="-1.05305">
        <ele>90</ele>
        <time>2021-03-08T22:13:39Z</time>
      </trkpt>
      <trkpt lat="46.66845" lon="-1.05293">
        <ele>91</ele>
        <time>2021-03-08T22:13:43Z</time>
      </trkpt>
      <trkpt lat="46.66767" lon="-1.05245">
        <ele>90</ele>
        <time>2021-03-08T22:13:58Z</time>
      </trkpt>
      <trkpt lat="46.66754" lon="-1.05237">
        <ele>89</ele>
        <time>2021-03-08T22:14:00Z</time>
      </trkpt>
      <trkpt lat="46.66745" lon="-1.05229">
        <ele>88</ele>
        <time>2021-03-08T22:14:02Z</time>
      </trkpt>
      <trkpt lat="46.66735" lon="-1.05217">
        <ele>88</ele>
        <time>2021-03-08T22:14:04Z</time>
      </trkpt>
      <trkpt lat="46.6672" lon="-1.05188">
        <ele>87</ele>
        <time>2021-03-08T22:14:09Z</time>
      </trkpt>
      <trkpt lat="46.66715" lon="-1.05171">
        <ele>86</ele>
        <time>2021-03-08T22:14:11Z</time>
      </trkpt>
      <trkpt lat="46.66711" lon="-1.05147">
        <ele>86</ele>
        <time>2021-03-08T22:14:14Z</time>
      </trkpt>
      <trkpt lat="46.66708" lon="-1.05122">
        <ele>87</ele>
        <time>2021-03-08T22:14:17Z</time>
      </trkpt>
      <trkpt lat="46.66704" lon="-1.05109">
        <ele>87</ele>
        <time>2021-03-08T22:14:19Z</time>
      </trkpt>
      <trkpt lat="46.66691" lon="-1.05088">
        <ele>86</ele>
        <time>2021-03-08T22:14:22Z</time>
      </trkpt>
      <trkpt lat="46.66684" lon="-1.05082">
        <ele>86</ele>
        <time>2021-03-08T22:14:24Z</time>
      </trkpt>
      <trkpt lat="46.6667" lon="-1.05079">
        <ele>85</ele>
        <time>2021-03-08T22:14:26Z</time>
      </trkpt>
      <trkpt lat="46.66663" lon="-1.05081">
        <ele>85</ele>
        <time>2021-03-08T22:14:28Z</time>
      </trkpt>
      <trkpt lat="46.66655" lon="-1.05085">
        <ele>84</ele>
        <time>2021-03-08T22:14:29Z</time>
      </trkpt>
      <trkpt lat="46.66651" lon="-1.05088">
        <ele>84</ele>
        <time>2021-03-08T22:14:30Z</time>
      </trkpt>
      <trkpt lat="46.66646" lon="-1.05093">
        <ele>84</ele>
        <time>2021-03-08T22:14:31Z</time>
      </trkpt>
      <trkpt lat="46.66633" lon="-1.05115">
        <ele>83</ele>
        <time>2021-03-08T22:14:35Z</time>
      </trkpt>
      <trkpt lat="46.66622" lon="-1.05132">
        <ele>82</ele>
        <time>2021-03-08T22:14:37Z</time>
      </trkpt>
      <trkpt lat="46.66613" lon="-1.05148">
        <ele>82</ele>
        <time>2021-03-08T22:14:40Z</time>
      </trkpt>
      <trkpt lat="46.66599" lon="-1.05162">
        <ele>81</ele>
        <time>2021-03-08T22:14:43Z</time>
      </trkpt>
      <trkpt lat="46.66592" lon="-1.05163">
        <ele>81</ele>
        <time>2021-03-08T22:14:44Z</time>
      </trkpt>
      <trkpt lat="46.6659" lon="-1.05185">
        <ele>81</ele>
        <time>2021-03-08T22:14:47Z</time>
      </trkpt>
      <trkpt lat="46.66605" lon="-1.05247">
        <ele>83</ele>
        <time>2021-03-08T22:14:55Z</time>
      </trkpt>
      <trkpt lat="46.66609" lon="-1.05273">
        <ele>83</ele>
        <time>2021-03-08T22:14:58Z</time>
      </trkpt>
      <trkpt lat="46.66609" lon="-1.05293">
        <ele>83</ele>
        <time>2021-03-08T22:15:01Z</time>
      </trkpt>
      <trkpt lat="46.66605" lon="-1.05326">
        <ele>83</ele>
        <time>2021-03-08T22:15:05Z</time>
      </trkpt>
      <trkpt lat="46.66599" lon="-1.05349">
        <ele>84</ele>
        <time>2021-03-08T22:15:08Z</time>
      </trkpt>
      <trkpt lat="46.66594" lon="-1.05361">
        <ele>84</ele>
        <time>2021-03-08T22:15:10Z</time>
      </trkpt>
      <trkpt lat="46.66586" lon="-1.05374">
        <ele>85</ele>
        <time>2021-03-08T22:15:12Z</time>
      </trkpt>
      <trkpt lat="46.66547" lon="-1.05419">
        <ele>85</ele>
        <time>2021-03-08T22:15:21Z</time>
      </trkpt>
      <trkpt lat="46.66489" lon="-1.05528">
        <ele>87</ele>
        <time>2021-03-08T22:15:37Z</time>
      </trkpt>
      <trkpt lat="46.66418" lon="-1.05647">
        <ele>85</ele>
        <time>2021-03-08T22:15:57Z</time>
      </trkpt>
      <trkpt lat="46.66411" lon="-1.05674">
        <ele>85</ele>
        <time>2021-03-08T22:16:00Z</time>
      </trkpt>
      <trkpt lat="46.66403" lon="-1.0573">
        <ele>85</ele>
        <time>2021-03-08T22:16:07Z</time>
      </trkpt>
      <trkpt lat="46.66392" lon="-1.05762">
        <ele>85</ele>
        <time>2021-03-08T22:16:11Z</time>
      </trkpt>
      <trkpt lat="46.66381" lon="-1.05779">
        <ele>85</ele>
        <time>2021-03-08T22:16:14Z</time>
      </trkpt>
      <trkpt lat="46.66334" lon="-1.05827">
        <ele>83</ele>
        <time>2021-03-08T22:16:25Z</time>
      </trkpt>
      <trkpt lat="46.66325" lon="-1.05843">
        <ele>82</ele>
        <time>2021-03-08T22:16:27Z</time>
      </trkpt>
      <trkpt lat="46.66305" lon="-1.05896">
        <ele>80</ele>
        <time>2021-03-08T22:16:34Z</time>
      </trkpt>
      <trkpt lat="46.66294" lon="-1.05913">
        <ele>78</ele>
        <time>2021-03-08T22:16:37Z</time>
      </trkpt>
      <trkpt lat="46.66286" lon="-1.05923">
        <ele>78</ele>
        <time>2021-03-08T22:16:39Z</time>
      </trkpt>
      <trkpt lat="46.66228" lon="-1.05974">
        <ele>72</ele>
        <time>2021-03-08T22:16:51Z</time>
      </trkpt>
      <trkpt lat="46.66212" lon="-1.06001">
        <ele>70</ele>
        <time>2021-03-08T22:16:56Z</time>
      </trkpt>
      <trkpt lat="46.66199" lon="-1.06013">
        <ele>70</ele>
        <time>2021-03-08T22:16:58Z</time>
      </trkpt>
      <trkpt lat="46.66184" lon="-1.06017">
        <ele>68</ele>
        <time>2021-03-08T22:17:01Z</time>
      </trkpt>
      <trkpt lat="46.66161" lon="-1.0602">
        <ele>67</ele>
        <time>2021-03-08T22:17:05Z</time>
      </trkpt>
      <trkpt lat="46.66142" lon="-1.06018">
        <ele>66</ele>
        <time>2021-03-08T22:17:09Z</time>
      </trkpt>
      <trkpt lat="46.66112" lon="-1.06019">
        <ele>64</ele>
        <time>2021-03-08T22:17:14Z</time>
      </trkpt>
      <trkpt lat="46.66083" lon="-1.06024">
        <ele>63</ele>
        <time>2021-03-08T22:17:19Z</time>
      </trkpt>
      <trkpt lat="46.66064" lon="-1.06028">
        <ele>61</ele>
        <time>2021-03-08T22:17:22Z</time>
      </trkpt>
      <trkpt lat="46.6603" lon="-1.06043">
        <ele>58</ele>
        <time>2021-03-08T22:17:29Z</time>
      </trkpt>
      <trkpt lat="46.65998" lon="-1.06049">
        <ele>55</ele>
        <time>2021-03-08T22:17:35Z</time>
      </trkpt>
      <trkpt lat="46.65943" lon="-1.06054">
        <ele>53</ele>
        <time>2021-03-08T22:17:44Z</time>
      </trkpt>
      <trkpt lat="46.65899" lon="-1.06046">
        <ele>49</ele>
        <time>2021-03-08T22:17:52Z</time>
      </trkpt>
      <trkpt lat="46.65873" lon="-1.06049">
        <ele>45</ele>
        <time>2021-03-08T22:17:57Z</time>
      </trkpt>
      <trkpt lat="46.65852" lon="-1.06066">
        <ele>42</ele>
        <time>2021-03-08T22:18:01Z</time>
      </trkpt>
      <trkpt lat="46.65838" lon="-1.06123">
        <ele>40</ele>
        <time>2021-03-08T22:18:09Z</time>
      </trkpt>
      <trkpt lat="46.65832" lon="-1.06181">
        <ele>39</ele>
        <time>2021-03-08T22:18:16Z</time>
      </trkpt>
      <trkpt lat="46.65833" lon="-1.06244">
        <ele>41</ele>
        <time>2021-03-08T22:18:23Z</time>
      </trkpt>
      <trkpt lat="46.65838" lon="-1.06304">
        <ele>45</ele>
        <time>2021-03-08T22:18:31Z</time>
      </trkpt>
      <trkpt lat="46.65839" lon="-1.06354">
        <ele>47</ele>
        <time>2021-03-08T22:18:37Z</time>
      </trkpt>
      <trkpt lat="46.65835" lon="-1.06391">
        <ele>47</ele>
        <time>2021-03-08T22:18:41Z</time>
      </trkpt>
      <trkpt lat="46.65826" lon="-1.06414">
        <ele>47</ele>
        <time>2021-03-08T22:18:45Z</time>
      </trkpt>
      <trkpt lat="46.65796" lon="-1.06459">
        <ele>42</ele>
        <time>2021-03-08T22:18:52Z</time>
      </trkpt>
      <trkpt lat="46.65758" lon="-1.06533">
        <ele>38</ele>
        <time>2021-03-08T22:19:04Z</time>
      </trkpt>
      <trkpt lat="46.65734" lon="-1.06585">
        <ele>40</ele>
        <time>2021-03-08T22:19:11Z</time>
      </trkpt>
      <trkpt lat="46.65712" lon="-1.06612">
        <ele>46</ele>
        <time>2021-03-08T22:19:16Z</time>
      </trkpt>
      <trkpt lat="46.65677" lon="-1.06638">
        <ele>50</ele>
        <time>2021-03-08T22:19:23Z</time>
      </trkpt>
      <trkpt lat="46.65627" lon="-1.06662">
        <ele>52</ele>
        <time>2021-03-08T22:19:33Z</time>
      </trkpt>
      <trkpt lat="46.65595" lon="-1.06667">
        <ele>50</ele>
        <time>2021-03-08T22:19:39Z</time>
      </trkpt>
      <trkpt lat="46.65556" lon="-1.06663">
        <ele>51</ele>
        <time>2021-03-08T22:19:45Z</time>
      </trkpt>
      <trkpt lat="46.6553" lon="-1.06651">
        <ele>51</ele>
        <time>2021-03-08T22:19:50Z</time>
      </trkpt>
      <trkpt lat="46.6551" lon="-1.06629">
        <ele>48</ele>
        <time>2021-03-08T22:19:55Z</time>
      </trkpt>
      <trkpt lat="46.65486" lon="-1.06573">
        <ele>40</ele>
        <time>2021-03-08T22:20:03Z</time>
      </trkpt>
      <trkpt lat="46.65473" lon="-1.06548">
        <ele>39</ele>
        <time>2021-03-08T22:20:07Z</time>
      </trkpt>
      <trkpt lat="46.65463" lon="-1.06539">
        <ele>38</ele>
        <time>2021-03-08T22:20:09Z</time>
      </trkpt>
      <trkpt lat="46.65431" lon="-1.06522">
        <ele>38</ele>
        <time>2021-03-08T22:20:15Z</time>
      </trkpt>
      <trkpt lat="46.65412" lon="-1.06577">
        <ele>45</ele>
        <time>2021-03-08T22:20:22Z</time>
      </trkpt>
      <trkpt lat="46.65415" lon="-1.06644">
        <ele>50</ele>
        <time>2021-03-08T22:20:31Z</time>
      </trkpt>
      <trkpt lat="46.65429" lon="-1.06719">
        <ele>55</ele>
        <time>2021-03-08T22:20:40Z</time>
      </trkpt>
      <trkpt lat="46.65469" lon="-1.06903">
        <ele>67</ele>
        <time>2021-03-08T22:21:04Z</time>
      </trkpt>
      <trkpt lat="46.65483" lon="-1.0692">
        <ele>68</ele>
        <time>2021-03-08T22:21:07Z</time>
      </trkpt>
      <trkpt lat="46.655" lon="-1.06932">
        <ele>68</ele>
        <time>2021-03-08T22:21:10Z</time>
      </trkpt>
      <trkpt lat="46.65602" lon="-1.06933">
        <ele>77</ele>
        <time>2021-03-08T22:21:28Z</time>
      </trkpt>
      <trkpt lat="46.65664" lon="-1.06909">
        <ele>84</ele>
        <time>2021-03-08T22:21:40Z</time>
      </trkpt>
      <trkpt lat="46.65855" lon="-1.06969">
        <ele>94</ele>
        <time>2021-03-08T22:22:15Z</time>
      </trkpt>
      <trkpt lat="46.65906" lon="-1.06993">
        <ele>91</ele>
        <time>2021-03-08T22:22:24Z</time>
      </trkpt>
      <trkpt lat="46.65945" lon="-1.07014">
        <ele>91</ele>
        <time>2021-03-08T22:22:31Z</time>
      </trkpt>
      <trkpt lat="46.66001" lon="-1.07173">
        <ele>95</ele>
        <time>2021-03-08T22:22:53Z</time>
      </trkpt>
      <trkpt lat="46.65964" lon="-1.07205">
        <ele>94</ele>
        <time>2021-03-08T22:23:01Z</time>
      </trkpt>
      <trkpt lat="46.65956" lon="-1.07221">
        <ele>94</ele>
        <time>2021-03-08T22:23:03Z</time>
      </trkpt>
      <trkpt lat="46.65951" lon="-1.07239">
        <ele>94</ele>
        <time>2021-03-08T22:23:06Z</time>
      </trkpt>
      <trkpt lat="46.65951" lon="-1.07301">
        <ele>94</ele>
        <time>2021-03-08T22:23:13Z</time>
      </trkpt>
      <trkpt lat="46.65951" lon="-1.07316">
        <ele>94</ele>
        <time>2021-03-08T22:23:15Z</time>
      </trkpt>
      <trkpt lat="46.65948" lon="-1.07329">
        <ele>94</ele>
        <time>2021-03-08T22:23:17Z</time>
      </trkpt>
      <trkpt lat="46.65941" lon="-1.07339">
        <ele>93</ele>
        <time>2021-03-08T22:23:19Z</time>
      </trkpt>
      <trkpt lat="46.65855" lon="-1.07404">
        <ele>90</ele>
        <time>2021-03-08T22:23:36Z</time>
      </trkpt>
      <trkpt lat="46.65826" lon="-1.07455">
        <ele>92</ele>
        <time>2021-03-08T22:23:44Z</time>
      </trkpt>
      <trkpt lat="46.65816" lon="-1.07465">
        <ele>92</ele>
        <time>2021-03-08T22:23:46Z</time>
      </trkpt>
      <trkpt lat="46.65797" lon="-1.07472">
        <ele>93</ele>
        <time>2021-03-08T22:23:50Z</time>
      </trkpt>
      <trkpt lat="46.65746" lon="-1.07474">
        <ele>95</ele>
        <time>2021-03-08T22:23:59Z</time>
      </trkpt>
      <trkpt lat="46.65722" lon="-1.07477">
        <ele>94</ele>
        <time>2021-03-08T22:24:03Z</time>
      </trkpt>
      <trkpt lat="46.65669" lon="-1.07502">
        <ele>94</ele>
        <time>2021-03-08T22:24:13Z</time>
      </trkpt>
      <trkpt lat="46.65612" lon="-1.07534">
        <ele>93</ele>
        <time>2021-03-08T22:24:24Z</time>
      </trkpt>
      <trkpt lat="46.65555" lon="-1.0757">
        <ele>94</ele>
        <time>2021-03-08T22:24:35Z</time>
      </trkpt>
      <trkpt lat="46.65527" lon="-1.07574">
        <ele>94</ele>
        <time>2021-03-08T22:24:40Z</time>
      </trkpt>
      <trkpt lat="46.65498" lon="-1.07562">
        <ele>95</ele>
        <time>2021-03-08T22:24:45Z</time>
      </trkpt>
      <trkpt lat="46.65442" lon="-1.07528">
        <ele>95</ele>
        <time>2021-03-08T22:24:56Z</time>
      </trkpt>
      <trkpt lat="46.65395" lon="-1.07517">
        <ele>95</ele>
        <time>2021-03-08T22:25:04Z</time>
      </trkpt>
      <trkpt lat="46.65352" lon="-1.07518">
        <ele>94</ele>
        <time>2021-03-08T22:25:12Z</time>
      </trkpt>
      <trkpt lat="46.65322" lon="-1.07528">
        <ele>94</ele>
        <time>2021-03-08T22:25:18Z</time>
      </trkpt>
      <trkpt lat="46.65297" lon="-1.07546">
        <ele>95</ele>
        <time>2021-03-08T22:25:22Z</time>
      </trkpt>
      <trkpt lat="46.6526" lon="-1.07582">
        <ele>95</ele>
        <time>2021-03-08T22:25:30Z</time>
      </trkpt>
      <trkpt lat="46.65202" lon="-1.07627">
        <ele>97</ele>
        <time>2021-03-08T22:25:42Z</time>
      </trkpt>
      <trkpt lat="46.65092" lon="-1.07684">
        <ele>98</ele>
        <time>2021-03-08T22:26:03Z</time>
      </trkpt>
      <trkpt lat="46.65078" lon="-1.07689">
        <ele>98</ele>
        <time>2021-03-08T22:26:05Z</time>
      </trkpt>
      <trkpt lat="46.65055" lon="-1.07692">
        <ele>98</ele>
        <time>2021-03-08T22:26:10Z</time>
      </trkpt>
      <trkpt lat="46.65023" lon="-1.07693">
        <ele>99</ele>
        <time>2021-03-08T22:26:15Z</time>
      </trkpt>
      <trkpt lat="46.65009" lon="-1.077">
        <ele>99</ele>
        <time>2021-03-08T22:26:18Z</time>
      </trkpt>
      <trkpt lat="46.64976" lon="-1.07682">
        <ele>99</ele>
        <time>2021-03-08T22:26:24Z</time>
      </trkpt>
      <trkpt lat="46.64893" lon="-1.07643">
        <ele>101</ele>
        <time>2021-03-08T22:26:40Z</time>
      </trkpt>
      <trkpt lat="46.64856" lon="-1.07621">
        <ele>101</ele>
        <time>2021-03-08T22:26:47Z</time>
      </trkpt>
      <trkpt lat="46.64822" lon="-1.07593">
        <ele>102</ele>
        <time>2021-03-08T22:26:54Z</time>
      </trkpt>
      <trkpt lat="46.64811" lon="-1.07581">
        <ele>102</ele>
        <time>2021-03-08T22:26:56Z</time>
      </trkpt>
      <trkpt lat="46.64797" lon="-1.07557">
        <ele>102</ele>
        <time>2021-03-08T22:27:00Z</time>
      </trkpt>
      <trkpt lat="46.64753" lon="-1.07446">
        <ele>101</ele>
        <time>2021-03-08T22:27:16Z</time>
      </trkpt>
      <trkpt lat="46.64751" lon="-1.07434">
        <ele>101</ele>
        <time>2021-03-08T22:27:17Z</time>
      </trkpt>
      <trkpt lat="46.64689" lon="-1.07287">
        <ele>101</ele>
        <time>2021-03-08T22:27:38Z</time>
      </trkpt>
      <trkpt lat="46.64674" lon="-1.07269">
        <ele>101</ele>
        <time>2021-03-08T22:27:42Z</time>
      </trkpt>
      <trkpt lat="46.64636" lon="-1.07238">
        <ele>101</ele>
        <time>2021-03-08T22:27:49Z</time>
      </trkpt>
      <trkpt lat="46.64609" lon="-1.07214">
        <ele>100</ele>
        <time>2021-03-08T22:27:55Z</time>
      </trkpt>
      <trkpt lat="46.6457" lon="-1.07185">
        <ele>101</ele>
        <time>2021-03-08T22:28:03Z</time>
      </trkpt>
      <trkpt lat="46.6456" lon="-1.07181">
        <ele>101</ele>
        <time>2021-03-08T22:28:05Z</time>
      </trkpt>
      <trkpt lat="46.64552" lon="-1.07185">
        <ele>101</ele>
        <time>2021-03-08T22:28:06Z</time>
      </trkpt>
      <trkpt lat="46.64534" lon="-1.07201">
        <ele>101</ele>
        <time>2021-03-08T22:28:10Z</time>
      </trkpt>
      <trkpt lat="46.64528" lon="-1.07201">
        <ele>101</ele>
        <time>2021-03-08T22:28:11Z</time>
      </trkpt>
      <trkpt lat="46.64522" lon="-1.07198">
        <ele>101</ele>
        <time>2021-03-08T22:28:12Z</time>
      </trkpt>
      <trkpt lat="46.64516" lon="-1.07188">
        <ele>102</ele>
        <time>2021-03-08T22:28:14Z</time>
      </trkpt>
      <trkpt lat="46.64488" lon="-1.0711">
        <ele>100</ele>
        <time>2021-03-08T22:28:25Z</time>
      </trkpt>
      <trkpt lat="46.64478" lon="-1.07086">
        <ele>99</ele>
        <time>2021-03-08T22:28:28Z</time>
      </trkpt>
      <trkpt lat="46.64469" lon="-1.07071">
        <ele>98</ele>
        <time>2021-03-08T22:28:30Z</time>
      </trkpt>
      <trkpt lat="46.64459" lon="-1.07061">
        <ele>98</ele>
        <time>2021-03-08T22:28:33Z</time>
      </trkpt>
      <trkpt lat="46.64441" lon="-1.07053">
        <ele>98</ele>
        <time>2021-03-08T22:28:36Z</time>
      </trkpt>
      <trkpt lat="46.64423" lon="-1.07053">
        <ele>98</ele>
        <time>2021-03-08T22:28:39Z</time>
      </trkpt>
      <trkpt lat="46.64405" lon="-1.07056">
        <ele>97</ele>
        <time>2021-03-08T22:28:42Z</time>
      </trkpt>
      <trkpt lat="46.64378" lon="-1.07069">
        <ele>95</ele>
        <time>2021-03-08T22:28:47Z</time>
      </trkpt>
      <trkpt lat="46.64338" lon="-1.07099">
        <ele>93</ele>
        <time>2021-03-08T22:28:55Z</time>
      </trkpt>
      <trkpt lat="46.64322" lon="-1.07113">
        <ele>92</ele>
        <time>2021-03-08T22:28:59Z</time>
      </trkpt>
      <trkpt lat="46.64245" lon="-1.07173">
        <ele>88</ele>
        <time>2021-03-08T22:29:14Z</time>
      </trkpt>
      <trkpt lat="46.64177" lon="-1.07219">
        <ele>85</ele>
        <time>2021-03-08T22:29:28Z</time>
      </trkpt>
      <trkpt lat="46.64156" lon="-1.0723">
        <ele>83</ele>
        <time>2021-03-08T22:29:32Z</time>
      </trkpt>
      <trkpt lat="46.64133" lon="-1.07235">
        <ele>81</ele>
        <time>2021-03-08T22:29:36Z</time>
      </trkpt>
      <trkpt lat="46.6411" lon="-1.07236">
        <ele>79</ele>
        <time>2021-03-08T22:29:40Z</time>
      </trkpt>
      <trkpt lat="46.64026" lon="-1.07195">
        <ele>76</ele>
        <time>2021-03-08T22:29:56Z</time>
      </trkpt>
      <trkpt lat="46.63998" lon="-1.07177">
        <ele>76</ele>
        <time>2021-03-08T22:30:01Z</time>
      </trkpt>
      <trkpt lat="46.63977" lon="-1.07157">
        <ele>75</ele>
        <time>2021-03-08T22:30:05Z</time>
      </trkpt>
      <trkpt lat="46.63919" lon="-1.0708">
        <ele>74</ele>
        <time>2021-03-08T22:30:19Z</time>
      </trkpt>
      <trkpt lat="46.63794" lon="-1.06897">
        <ele>67</ele>
        <time>2021-03-08T22:30:51Z</time>
      </trkpt>
      <trkpt lat="46.63782" lon="-1.06886">
        <ele>66</ele>
        <time>2021-03-08T22:30:53Z</time>
      </trkpt>
      <trkpt lat="46.63763" lon="-1.06876">
        <ele>65</ele>
        <time>2021-03-08T22:30:57Z</time>
      </trkpt>
      <trkpt lat="46.63661" lon="-1.06854">
        <ele>59</ele>
        <time>2021-03-08T22:31:15Z</time>
      </trkpt>
      <trkpt lat="46.63532" lon="-1.06828">
        <ele>49</ele>
        <time>2021-03-08T22:31:39Z</time>
      </trkpt>
      <trkpt lat="46.63384" lon="-1.06816">
        <ele>38</ele>
        <time>2021-03-08T22:32:05Z</time>
      </trkpt>
      <trkpt lat="46.63344" lon="-1.06815">
        <ele>35</ele>
        <time>2021-03-08T22:32:12Z</time>
      </trkpt>
      <trkpt lat="46.63322" lon="-1.06822">
        <ele>34</ele>
        <time>2021-03-08T22:32:16Z</time>
      </trkpt>
      <trkpt lat="46.63307" lon="-1.06834">
        <ele>34</ele>
        <time>2021-03-08T22:32:19Z</time>
      </trkpt>
      <trkpt lat="46.633" lon="-1.06849">
        <ele>34</ele>
        <time>2021-03-08T22:32:21Z</time>
      </trkpt>
      <trkpt lat="46.63301" lon="-1.06867">
        <ele>34</ele>
        <time>2021-03-08T22:32:24Z</time>
      </trkpt>
      <trkpt lat="46.63306" lon="-1.06881">
        <ele>34</ele>
        <time>2021-03-08T22:32:25Z</time>
      </trkpt>
      <trkpt lat="46.63307" lon="-1.06886">
        <ele>34</ele>
        <time>2021-03-08T22:32:26Z</time>
      </trkpt>
      <trkpt lat="46.63321" lon="-1.06894">
        <ele>34</ele>
        <time>2021-03-08T22:32:29Z</time>
      </trkpt>
      <trkpt lat="46.63337" lon="-1.06892">
        <ele>34</ele>
        <time>2021-03-08T22:32:32Z</time>
      </trkpt>
      <trkpt lat="46.63401" lon="-1.06868">
        <ele>38</ele>
        <time>2021-03-08T22:32:43Z</time>
      </trkpt>
      <trkpt lat="46.63415" lon="-1.06871">
        <ele>39</ele>
        <time>2021-03-08T22:32:46Z</time>
      </trkpt>
      <trkpt lat="46.63424" lon="-1.06887">
        <ele>39</ele>
        <time>2021-03-08T22:32:48Z</time>
      </trkpt>
      <trkpt lat="46.63433" lon="-1.06942">
        <ele>37</ele>
        <time>2021-03-08T22:32:55Z</time>
      </trkpt>
      <trkpt lat="46.63438" lon="-1.06963">
        <ele>36</ele>
        <time>2021-03-08T22:32:58Z</time>
      </trkpt>
      <trkpt lat="46.63448" lon="-1.06979">
        <ele>35</ele>
        <time>2021-03-08T22:33:01Z</time>
      </trkpt>
      <trkpt lat="46.63486" lon="-1.07009">
        <ele>35</ele>
        <time>2021-03-08T22:33:08Z</time>
      </trkpt>
      <trkpt lat="46.63495" lon="-1.07019">
        <ele>34</ele>
        <time>2021-03-08T22:33:10Z</time>
      </trkpt>
      <trkpt lat="46.63497" lon="-1.07023">
        <ele>34</ele>
        <time>2021-03-08T22:33:11Z</time>
      </trkpt>
      <trkpt lat="46.63501" lon="-1.07034">
        <ele>33</ele>
        <time>2021-03-08T22:33:13Z</time>
      </trkpt>
      <trkpt lat="46.63513" lon="-1.07079">
        <ele>30</ele>
        <time>2021-03-08T22:33:18Z</time>
      </trkpt>
      <trkpt lat="46.63519" lon="-1.07106">
        <ele>31</ele>
        <time>2021-03-08T22:33:22Z</time>
      </trkpt>
      <trkpt lat="46.63524" lon="-1.07123">
        <ele>32</ele>
        <time>2021-03-08T22:33:24Z</time>
      </trkpt>
      <trkpt lat="46.63522" lon="-1.07135">
        <ele>32</ele>
        <time>2021-03-08T22:33:26Z</time>
      </trkpt>
      <trkpt lat="46.63474" lon="-1.07189">
        <ele>29</ele>
        <time>2021-03-08T22:33:36Z</time>
      </trkpt>
      <trkpt lat="46.63456" lon="-1.07203">
        <ele>29</ele>
        <time>2021-03-08T22:33:40Z</time>
      </trkpt>
      <trkpt lat="46.63437" lon="-1.07206">
        <ele>29</ele>
        <time>2021-03-08T22:33:44Z</time>
      </trkpt>
      <trkpt lat="46.63403" lon="-1.07199">
        <ele>30</ele>
        <time>2021-03-08T22:33:50Z</time>
      </trkpt>
      <trkpt lat="46.63334" lon="-1.07185">
        <ele>34</ele>
        <time>2021-03-08T22:34:02Z</time>
      </trkpt>
      <trkpt lat="46.63307" lon="-1.07177">
        <ele>36</ele>
        <time>2021-03-08T22:34:07Z</time>
      </trkpt>
      <trkpt lat="46.63277" lon="-1.07159">
        <ele>39</ele>
        <time>2021-03-08T22:34:13Z</time>
      </trkpt>
      <trkpt lat="46.63254" lon="-1.07137">
        <ele>39</ele>
        <time>2021-03-08T22:34:18Z</time>
      </trkpt>
      <trkpt lat="46.63236" lon="-1.07128">
        <ele>41</ele>
        <time>2021-03-08T22:34:21Z</time>
      </trkpt>
      <trkpt lat="46.63221" lon="-1.07126">
        <ele>42</ele>
        <time>2021-03-08T22:34:24Z</time>
      </trkpt>
      <trkpt lat="46.6319" lon="-1.07129">
        <ele>46</ele>
        <time>2021-03-08T22:34:29Z</time>
      </trkpt>
      <trkpt lat="46.63174" lon="-1.07125">
        <ele>47</ele>
        <time>2021-03-08T22:34:32Z</time>
      </trkpt>
      <trkpt lat="46.63153" lon="-1.07114">
        <ele>50</ele>
        <time>2021-03-08T22:34:36Z</time>
      </trkpt>
      <trkpt lat="46.63064" lon="-1.07037">
        <ele>61</ele>
        <time>2021-03-08T22:34:54Z</time>
      </trkpt>
      <trkpt lat="46.63026" lon="-1.07015">
        <ele>64</ele>
        <time>2021-03-08T22:35:02Z</time>
      </trkpt>
      <trkpt lat="46.62841" lon="-1.06961">
        <ele>74</ele>
        <time>2021-03-08T22:35:35Z</time>
      </trkpt>
      <trkpt lat="46.6276" lon="-1.06922">
        <ele>74</ele>
        <time>2021-03-08T22:35:50Z</time>
      </trkpt>
      <trkpt lat="46.62745" lon="-1.06921">
        <ele>74</ele>
        <time>2021-03-08T22:35:53Z</time>
      </trkpt>
      <trkpt lat="46.62698" lon="-1.06922">
        <ele>72</ele>
        <time>2021-03-08T22:36:02Z</time>
      </trkpt>
      <trkpt lat="46.62669" lon="-1.0692">
        <ele>71</ele>
        <time>2021-03-08T22:36:07Z</time>
      </trkpt>
      <trkpt lat="46.62634" lon="-1.06924">
        <ele>70</ele>
        <time>2021-03-08T22:36:13Z</time>
      </trkpt>
      <trkpt lat="46.62618" lon="-1.06932">
        <ele>69</ele>
        <time>2021-03-08T22:36:16Z</time>
      </trkpt>
      <trkpt lat="46.62551" lon="-1.06963">
        <ele>68</ele>
        <time>2021-03-08T22:36:28Z</time>
      </trkpt>
      <trkpt lat="46.62476" lon="-1.06991">
        <ele>67</ele>
        <time>2021-03-08T22:36:42Z</time>
      </trkpt>
      <trkpt lat="46.62389" lon="-1.07023">
        <ele>65</ele>
        <time>2021-03-08T22:36:58Z</time>
      </trkpt>
      <trkpt lat="46.62375" lon="-1.07035">
        <ele>65</ele>
        <time>2021-03-08T22:37:01Z</time>
      </trkpt>
      <trkpt lat="46.62323" lon="-1.07098">
        <ele>62</ele>
        <time>2021-03-08T22:37:13Z</time>
      </trkpt>
      <trkpt lat="46.623" lon="-1.07128">
        <ele>61</ele>
        <time>2021-03-08T22:37:19Z</time>
      </trkpt>
      <trkpt lat="46.62291" lon="-1.07146">
        <ele>60</ele>
        <time>2021-03-08T22:37:21Z</time>
      </trkpt>
      <trkpt lat="46.62287" lon="-1.0717">
        <ele>60</ele>
        <time>2021-03-08T22:37:24Z</time>
      </trkpt>
      <trkpt lat="46.62287" lon="-1.07219">
        <ele>59</ele>
        <time>2021-03-08T22:37:30Z</time>
      </trkpt>
      <trkpt lat="46.62281" lon="-1.07236">
        <ele>59</ele>
        <time>2021-03-08T22:37:33Z</time>
      </trkpt>
      <trkpt lat="46.62269" lon="-1.07255">
        <ele>59</ele>
        <time>2021-03-08T22:37:36Z</time>
      </trkpt>
      <trkpt lat="46.62262" lon="-1.07271">
        <ele>59</ele>
        <time>2021-03-08T22:37:38Z</time>
      </trkpt>
      <trkpt lat="46.62261" lon="-1.07289">
        <ele>59</ele>
        <time>2021-03-08T22:37:40Z</time>
      </trkpt>
      <trkpt lat="46.62265" lon="-1.0733">
        <ele>59</ele>
        <time>2021-03-08T22:37:45Z</time>
      </trkpt>
      <trkpt lat="46.62266" lon="-1.07373">
        <ele>59</ele>
        <time>2021-03-08T22:37:51Z</time>
      </trkpt>
      <trkpt lat="46.62266" lon="-1.07456">
        <ele>55</ele>
        <time>2021-03-08T22:38:01Z</time>
      </trkpt>
      <trkpt lat="46.62272" lon="-1.07586">
        <ele>45</ele>
        <time>2021-03-08T22:38:17Z</time>
      </trkpt>
      <trkpt lat="46.62268" lon="-1.07666">
        <ele>40</ele>
        <time>2021-03-08T22:38:27Z</time>
      </trkpt>
      <trkpt lat="46.62277" lon="-1.07834">
        <ele>32</ele>
        <time>2021-03-08T22:38:47Z</time>
      </trkpt>
      <trkpt lat="46.62278" lon="-1.07845">
        <ele>32</ele>
        <time>2021-03-08T22:38:49Z</time>
      </trkpt>
      <trkpt lat="46.62277" lon="-1.07882">
        <ele>32</ele>
        <time>2021-03-08T22:38:53Z</time>
      </trkpt>
      <trkpt lat="46.62273" lon="-1.07905">
        <ele>31</ele>
        <time>2021-03-08T22:38:56Z</time>
      </trkpt>
      <trkpt lat="46.62271" lon="-1.07923">
        <ele>31</ele>
        <time>2021-03-08T22:38:58Z</time>
      </trkpt>
      <trkpt lat="46.62269" lon="-1.07932">
        <ele>30</ele>
        <time>2021-03-08T22:38:59Z</time>
      </trkpt>
      <trkpt lat="46.62275" lon="-1.07936">
        <ele>30</ele>
        <time>2021-03-08T22:39:00Z</time>
      </trkpt>
      <trkpt lat="46.6228" lon="-1.07947">
        <ele>30</ele>
        <time>2021-03-08T22:39:02Z</time>
      </trkpt>
      <trkpt lat="46.62285" lon="-1.07962">
        <ele>29</ele>
        <time>2021-03-08T22:39:04Z</time>
      </trkpt>
      <trkpt lat="46.62321" lon="-1.08097">
        <ele>25</ele>
        <time>2021-03-08T22:39:22Z</time>
      </trkpt>
      <trkpt lat="46.62345" lon="-1.0818">
        <ele>24</ele>
        <time>2021-03-08T22:39:33Z</time>
      </trkpt>
      <trkpt lat="46.62357" lon="-1.08221">
        <ele>26</ele>
        <time>2021-03-08T22:39:38Z</time>
      </trkpt>
      <trkpt lat="46.62376" lon="-1.08296">
        <ele>29</ele>
        <time>2021-03-08T22:39:48Z</time>
      </trkpt>
      <trkpt lat="46.62381" lon="-1.08324">
        <ele>30</ele>
        <time>2021-03-08T22:39:52Z</time>
      </trkpt>
      <trkpt lat="46.62381" lon="-1.08336">
        <ele>30</ele>
        <time>2021-03-08T22:39:53Z</time>
      </trkpt>
      <trkpt lat="46.6238" lon="-1.08345">
        <ele>31</ele>
        <time>2021-03-08T22:39:54Z</time>
      </trkpt>
      <trkpt lat="46.62375" lon="-1.08364">
        <ele>31</ele>
        <time>2021-03-08T22:39:57Z</time>
      </trkpt>
      <trkpt lat="46.6236" lon="-1.08385">
        <ele>31</ele>
        <time>2021-03-08T22:40:00Z</time>
      </trkpt>
      <trkpt lat="46.62327" lon="-1.0841">
        <ele>30</ele>
        <time>2021-03-08T22:40:07Z</time>
      </trkpt>
      <trkpt lat="46.62314" lon="-1.08417">
        <ele>30</ele>
        <time>2021-03-08T22:40:09Z</time>
      </trkpt>
      <trkpt lat="46.6229" lon="-1.08425">
        <ele>31</ele>
        <time>2021-03-08T22:40:14Z</time>
      </trkpt>
      <trkpt lat="46.62266" lon="-1.08433">
        <ele>32</ele>
        <time>2021-03-08T22:40:18Z</time>
      </trkpt>
      <trkpt lat="46.62252" lon="-1.0844">
        <ele>33</ele>
        <time>2021-03-08T22:40:21Z</time>
      </trkpt>
      <trkpt lat="46.62236" lon="-1.08451">
        <ele>32</ele>
        <time>2021-03-08T22:40:24Z</time>
      </trkpt>
      <trkpt lat="46.62166" lon="-1.08521">
        <ele>35</ele>
        <time>2021-03-08T22:40:39Z</time>
      </trkpt>
      <trkpt lat="46.62146" lon="-1.08546">
        <ele>36</ele>
        <time>2021-03-08T22:40:44Z</time>
      </trkpt>
      <trkpt lat="46.62134" lon="-1.08565">
        <ele>38</ele>
        <time>2021-03-08T22:40:47Z</time>
      </trkpt>
      <trkpt lat="46.62123" lon="-1.08586">
        <ele>41</ele>
        <time>2021-03-08T22:40:50Z</time>
      </trkpt>
      <trkpt lat="46.62109" lon="-1.08619">
        <ele>43</ele>
        <time>2021-03-08T22:40:55Z</time>
      </trkpt>
      <trkpt lat="46.6209" lon="-1.08658">
        <ele>45</ele>
        <time>2021-03-08T22:41:01Z</time>
      </trkpt>
      <trkpt lat="46.62077" lon="-1.0868">
        <ele>46</ele>
        <time>2021-03-08T22:41:04Z</time>
      </trkpt>
      <trkpt lat="46.62039" lon="-1.0873">
        <ele>45</ele>
        <time>2021-03-08T22:41:13Z</time>
      </trkpt>
      <trkpt lat="46.62025" lon="-1.08757">
        <ele>45</ele>
        <time>2021-03-08T22:41:18Z</time>
      </trkpt>
      <trkpt lat="46.62011" lon="-1.08793">
        <ele>45</ele>
        <time>2021-03-08T22:41:23Z</time>
      </trkpt>
      <trkpt lat="46.62003" lon="-1.08824">
        <ele>45</ele>
        <time>2021-03-08T22:41:27Z</time>
      </trkpt>
      <trkpt lat="46.61994" lon="-1.08887">
        <ele>45</ele>
        <time>2021-03-08T22:41:35Z</time>
      </trkpt>
      <trkpt lat="46.61992" lon="-1.08939">
        <ele>45</ele>
        <time>2021-03-08T22:41:41Z</time>
      </trkpt>
      <trkpt lat="46.61993" lon="-1.08991">
        <ele>44</ele>
        <time>2021-03-08T22:41:47Z</time>
      </trkpt>
      <trkpt lat="46.61989" lon="-1.09041">
        <ele>43</ele>
        <time>2021-03-08T22:41:53Z</time>
      </trkpt>
      <trkpt lat="46.61976" lon="-1.091">
        <ele>42</ele>
        <time>2021-03-08T22:42:01Z</time>
      </trkpt>
      <trkpt lat="46.61961" lon="-1.09149">
        <ele>41</ele>
        <time>2021-03-08T22:42:08Z</time>
      </trkpt>
      <trkpt lat="46.61951" lon="-1.09183">
        <ele>42</ele>
        <time>2021-03-08T22:42:12Z</time>
      </trkpt>
      <trkpt lat="46.61912" lon="-1.09317">
        <ele>47</ele>
        <time>2021-03-08T22:42:30Z</time>
      </trkpt>
      <trkpt lat="46.61889" lon="-1.09384">
        <ele>49</ele>
        <time>2021-03-08T22:42:39Z</time>
      </trkpt>
      <trkpt lat="46.61857" lon="-1.09446">
        <ele>52</ele>
        <time>2021-03-08T22:42:48Z</time>
      </trkpt>
      <trkpt lat="46.61838" lon="-1.09477">
        <ele>54</ele>
        <time>2021-03-08T22:42:54Z</time>
      </trkpt>
      <trkpt lat="46.61816" lon="-1.09507">
        <ele>57</ele>
        <time>2021-03-08T22:42:59Z</time>
      </trkpt>
      <trkpt lat="46.61804" lon="-1.09521">
        <ele>58</ele>
        <time>2021-03-08T22:43:02Z</time>
      </trkpt>
      <trkpt lat="46.6176" lon="-1.09561">
        <ele>61</ele>
        <time>2021-03-08T22:43:11Z</time>
      </trkpt>
      <trkpt lat="46.61746" lon="-1.09578">
        <ele>61</ele>
        <time>2021-03-08T22:43:14Z</time>
      </trkpt>
      <trkpt lat="46.61734" lon="-1.09597">
        <ele>61</ele>
        <time>2021-03-08T22:43:17Z</time>
      </trkpt>
      <trkpt lat="46.61717" lon="-1.09639">
        <ele>63</ele>
        <time>2021-03-08T22:43:23Z</time>
      </trkpt>
      <trkpt lat="46.61707" lon="-1.09685">
        <ele>66</ele>
        <time>2021-03-08T22:43:29Z</time>
      </trkpt>
      <trkpt lat="46.61655" lon="-1.10035">
        <ele>75</ele>
        <time>2021-03-08T22:44:13Z</time>
      </trkpt>
      <trkpt lat="46.6163" lon="-1.1019">
        <ele>74</ele>
        <time>2021-03-08T22:44:32Z</time>
      </trkpt>
      <trkpt lat="46.61626" lon="-1.10211">
        <ele>74</ele>
        <time>2021-03-08T22:44:35Z</time>
      </trkpt>
      <trkpt lat="46.6162" lon="-1.1024">
        <ele>74</ele>
        <time>2021-03-08T22:44:39Z</time>
      </trkpt>
      <trkpt lat="46.61613" lon="-1.10265">
        <ele>74</ele>
        <time>2021-03-08T22:44:42Z</time>
      </trkpt>
      <trkpt lat="46.61599" lon="-1.10297">
        <ele>74</ele>
        <time>2021-03-08T22:44:47Z</time>
      </trkpt>
      <trkpt lat="46.61592" lon="-1.10307">
        <ele>74</ele>
        <time>2021-03-08T22:44:48Z</time>
      </trkpt>
      <trkpt lat="46.61566" lon="-1.10339">
        <ele>75</ele>
        <time>2021-03-08T22:44:54Z</time>
      </trkpt>
      <trkpt lat="46.61491" lon="-1.10408">
        <ele>77</ele>
        <time>2021-03-08T22:45:10Z</time>
      </trkpt>
      <trkpt lat="46.61265" lon="-1.10613">
        <ele>81</ele>
        <time>2021-03-08T22:45:58Z</time>
      </trkpt>
      <trkpt lat="46.61251" lon="-1.1063">
        <ele>82</ele>
        <time>2021-03-08T22:46:01Z</time>
      </trkpt>
      <trkpt lat="46.61229" lon="-1.10661">
        <ele>81</ele>
        <time>2021-03-08T22:46:06Z</time>
      </trkpt>
      <trkpt lat="46.61221" lon="-1.10679">
        <ele>81</ele>
        <time>2021-03-08T22:46:09Z</time>
      </trkpt>
      <trkpt lat="46.61217" lon="-1.10696">
        <ele>81</ele>
        <time>2021-03-08T22:46:11Z</time>
      </trkpt>
      <trkpt lat="46.61208" lon="-1.10739">
        <ele>80</ele>
        <time>2021-03-08T22:46:17Z</time>
      </trkpt>
      <trkpt lat="46.61165" lon="-1.11046">
        <ele>78</ele>
        <time>2021-03-08T22:46:55Z</time>
      </trkpt>
      <trkpt lat="46.6113" lon="-1.113">
        <ele>72</ele>
        <time>2021-03-08T22:47:27Z</time>
      </trkpt>
      <trkpt lat="46.61118" lon="-1.11355">
        <ele>70</ele>
        <time>2021-03-08T22:47:34Z</time>
      </trkpt>
      <trkpt lat="46.61111" lon="-1.11381">
        <ele>68</ele>
        <time>2021-03-08T22:47:37Z</time>
      </trkpt>
      <trkpt lat="46.61102" lon="-1.11403">
        <ele>67</ele>
        <time>2021-03-08T22:47:40Z</time>
      </trkpt>
      <trkpt lat="46.61095" lon="-1.11418">
        <ele>65</ele>
        <time>2021-03-08T22:47:42Z</time>
      </trkpt>
      <trkpt lat="46.61087" lon="-1.11433">
        <ele>64</ele>
        <time>2021-03-08T22:47:45Z</time>
      </trkpt>
      <trkpt lat="46.61046" lon="-1.1149">
        <ele>61</ele>
        <time>2021-03-08T22:47:55Z</time>
      </trkpt>
      <trkpt lat="46.61042" lon="-1.115">
        <ele>61</ele>
        <time>2021-03-08T22:47:56Z</time>
      </trkpt>
      <trkpt lat="46.61039" lon="-1.1151">
        <ele>60</ele>
        <time>2021-03-08T22:47:58Z</time>
      </trkpt>
      <trkpt lat="46.61037" lon="-1.11521">
        <ele>60</ele>
        <time>2021-03-08T22:47:59Z</time>
      </trkpt>
      <trkpt lat="46.61037" lon="-1.11547">
        <ele>58</ele>
        <time>2021-03-08T22:48:02Z</time>
      </trkpt>
      <trkpt lat="46.61043" lon="-1.11603">
        <ele>56</ele>
        <time>2021-03-08T22:48:09Z</time>
      </trkpt>
      <trkpt lat="46.61046" lon="-1.11622">
        <ele>55</ele>
        <time>2021-03-08T22:48:11Z</time>
      </trkpt>
      <trkpt lat="46.6105" lon="-1.11639">
        <ele>54</ele>
        <time>2021-03-08T22:48:14Z</time>
      </trkpt>
      <trkpt lat="46.61094" lon="-1.11751">
        <ele>49</ele>
        <time>2021-03-08T22:48:29Z</time>
      </trkpt>
      <trkpt lat="46.61105" lon="-1.11789">
        <ele>47</ele>
        <time>2021-03-08T22:48:34Z</time>
      </trkpt>
      <trkpt lat="46.6111" lon="-1.11815">
        <ele>46</ele>
        <time>2021-03-08T22:48:38Z</time>
      </trkpt>
      <trkpt lat="46.6112" lon="-1.11898">
        <ele>44</ele>
        <time>2021-03-08T22:48:48Z</time>
      </trkpt>
      <trkpt lat="46.61125" lon="-1.12005">
        <ele>45</ele>
        <time>2021-03-08T22:49:01Z</time>
      </trkpt>
      <trkpt lat="46.61123" lon="-1.12019">
        <ele>46</ele>
        <time>2021-03-08T22:49:03Z</time>
      </trkpt>
      <trkpt lat="46.6112" lon="-1.12032">
        <ele>47</ele>
        <time>2021-03-08T22:49:05Z</time>
      </trkpt>
      <trkpt lat="46.61115" lon="-1.12042">
        <ele>48</ele>
        <time>2021-03-08T22:49:06Z</time>
      </trkpt>
      <trkpt lat="46.61107" lon="-1.1205">
        <ele>48</ele>
        <time>2021-03-08T22:49:08Z</time>
      </trkpt>
      <trkpt lat="46.60985" lon="-1.12118">
        <ele>58</ele>
        <time>2021-03-08T22:49:31Z</time>
      </trkpt>
      <trkpt lat="46.60966" lon="-1.12133">
        <ele>59</ele>
        <time>2021-03-08T22:49:35Z</time>
      </trkpt>
      <trkpt lat="46.60959" lon="-1.12141">
        <ele>60</ele>
        <time>2021-03-08T22:49:36Z</time>
      </trkpt>
      <trkpt lat="46.60948" lon="-1.12158">
        <ele>61</ele>
        <time>2021-03-08T22:49:39Z</time>
      </trkpt>
      <trkpt lat="46.60941" lon="-1.12181">
        <ele>62</ele>
        <time>2021-03-08T22:49:42Z</time>
      </trkpt>
      <trkpt lat="46.60938" lon="-1.12195">
        <ele>63</ele>
        <time>2021-03-08T22:49:44Z</time>
      </trkpt>
      <trkpt lat="46.60936" lon="-1.12211">
        <ele>64</ele>
        <time>2021-03-08T22:49:46Z</time>
      </trkpt>
      <trkpt lat="46.60935" lon="-1.1229">
        <ele>67</ele>
        <time>2021-03-08T22:49:56Z</time>
      </trkpt>
      <trkpt lat="46.60933" lon="-1.12323">
        <ele>68</ele>
        <time>2021-03-08T22:50:00Z</time>
      </trkpt>
      <trkpt lat="46.60929" lon="-1.12349">
        <ele>69</ele>
        <time>2021-03-08T22:50:03Z</time>
      </trkpt>
      <trkpt lat="46.60915" lon="-1.12415">
        <ele>72</ele>
        <time>2021-03-08T22:50:12Z</time>
      </trkpt>
      <trkpt lat="46.60907" lon="-1.12446">
        <ele>72</ele>
        <time>2021-03-08T22:50:16Z</time>
      </trkpt>
      <trkpt lat="46.60891" lon="-1.12495">
        <ele>72</ele>
        <time>2021-03-08T22:50:22Z</time>
      </trkpt>
      <trkpt lat="46.60883" lon="-1.12522">
        <ele>72</ele>
        <time>2021-03-08T22:50:26Z</time>
      </trkpt>
      <trkpt lat="46.60875" lon="-1.12561">
        <ele>72</ele>
        <time>2021-03-08T22:50:31Z</time>
      </trkpt>
      <trkpt lat="46.60869" lon="-1.12583">
        <ele>71</ele>
        <time>2021-03-08T22:50:34Z</time>
      </trkpt>
      <trkpt lat="46.60861" lon="-1.12602">
        <ele>71</ele>
        <time>2021-03-08T22:50:36Z</time>
      </trkpt>
      <trkpt lat="46.60817" lon="-1.12675">
        <ele>71</ele>
        <time>2021-03-08T22:50:48Z</time>
      </trkpt>
      <trkpt lat="46.60783" lon="-1.12737">
        <ele>69</ele>
        <time>2021-03-08T22:50:58Z</time>
      </trkpt>
      <trkpt lat="46.60751" lon="-1.12815">
        <ele>68</ele>
        <time>2021-03-08T22:51:09Z</time>
      </trkpt>
      <trkpt lat="46.60791" lon="-1.1285">
        <ele>69</ele>
        <time>2021-03-08T22:51:17Z</time>
      </trkpt>
      <trkpt lat="46.60867" lon="-1.12888">
        <ele>72</ele>
        <time>2021-03-08T22:51:32Z</time>
      </trkpt>
      <trkpt lat="46.6097" lon="-1.1292">
        <ele>75</ele>
        <time>2021-03-08T22:51:50Z</time>
      </trkpt>
      <trkpt lat="46.61092" lon="-1.12884">
        <ele>76</ele>
        <time>2021-03-08T22:52:13Z</time>
      </trkpt>
      <trkpt lat="46.61124" lon="-1.12882">
        <ele>77</ele>
        <time>2021-03-08T22:52:18Z</time>
      </trkpt>
      <trkpt lat="46.6115" lon="-1.12889">
        <ele>77</ele>
        <time>2021-03-08T22:52:23Z</time>
      </trkpt>
      <trkpt lat="46.61188" lon="-1.12921">
        <ele>78</ele>
        <time>2021-03-08T22:52:31Z</time>
      </trkpt>
      <trkpt lat="46.61228" lon="-1.12945">
        <ele>78</ele>
        <time>2021-03-08T22:52:39Z</time>
      </trkpt>
      <trkpt lat="46.61242" lon="-1.12968">
        <ele>79</ele>
        <time>2021-03-08T22:52:42Z</time>
      </trkpt>
      <trkpt lat="46.61273" lon="-1.1299">
        <ele>78</ele>
        <time>2021-03-08T22:52:48Z</time>
      </trkpt>
      <trkpt lat="46.61296" lon="-1.13041">
        <ele>78</ele>
        <time>2021-03-08T22:52:56Z</time>
      </trkpt>
      <trkpt lat="46.61326" lon="-1.13071">
        <ele>76</ele>
        <time>2021-03-08T22:53:02Z</time>
      </trkpt>
      <trkpt lat="46.61365" lon="-1.13087">
        <ele>75</ele>
        <time>2021-03-08T22:53:10Z</time>
      </trkpt>
      <trkpt lat="46.61401" lon="-1.13091">
        <ele>75</ele>
        <time>2021-03-08T22:53:16Z</time>
      </trkpt>
      <trkpt lat="46.61421" lon="-1.13073">
        <ele>74</ele>
        <time>2021-03-08T22:53:20Z</time>
      </trkpt>
      <trkpt lat="46.61491" lon="-1.12972">
        <ele>69</ele>
        <time>2021-03-08T22:53:38Z</time>
      </trkpt>
      <trkpt lat="46.61547" lon="-1.12903">
        <ele>68</ele>
        <time>2021-03-08T22:53:51Z</time>
      </trkpt>
      <trkpt lat="46.61585" lon="-1.12902">
        <ele>70</ele>
        <time>2021-03-08T22:53:58Z</time>
      </trkpt>
      <trkpt lat="46.6165" lon="-1.12913">
        <ele>69</ele>
        <time>2021-03-08T22:54:09Z</time>
      </trkpt>
      <trkpt lat="46.61686" lon="-1.12909">
        <ele>70</ele>
        <time>2021-03-08T22:54:16Z</time>
      </trkpt>
      <trkpt lat="46.61699" lon="-1.12896">
        <ele>70</ele>
        <time>2021-03-08T22:54:18Z</time>
      </trkpt>
      <trkpt lat="46.61707" lon="-1.12862">
        <ele>70</ele>
        <time>2021-03-08T22:54:23Z</time>
      </trkpt>
      <trkpt lat="46.61684" lon="-1.12822">
        <ele>70</ele>
        <time>2021-03-08T22:54:29Z</time>
      </trkpt>
      <trkpt lat="46.61647" lon="-1.12787">
        <ele>69</ele>
        <time>2021-03-08T22:54:37Z</time>
      </trkpt>
      <trkpt lat="46.61632" lon="-1.12751">
        <ele>69</ele>
        <time>2021-03-08T22:54:42Z</time>
      </trkpt>
      <trkpt lat="46.61636" lon="-1.12725">
        <ele>69</ele>
        <time>2021-03-08T22:54:45Z</time>
      </trkpt>
      <trkpt lat="46.61637" lon="-1.12703">
        <ele>69</ele>
        <time>2021-03-08T22:54:48Z</time>
      </trkpt>
      <trkpt lat="46.61661" lon="-1.12676">
        <ele>68</ele>
        <time>2021-03-08T22:54:53Z</time>
      </trkpt>
      <trkpt lat="46.61703" lon="-1.12589">
        <ele>64</ele>
        <time>2021-03-08T22:55:06Z</time>
      </trkpt>
      <trkpt lat="46.61742" lon="-1.12491">
        <ele>60</ele>
        <time>2021-03-08T22:55:20Z</time>
      </trkpt>
      <trkpt lat="46.61773" lon="-1.12405">
        <ele>62</ele>
        <time>2021-03-08T22:55:32Z</time>
      </trkpt>
      <trkpt lat="46.61796" lon="-1.12386">
        <ele>63</ele>
        <time>2021-03-08T22:55:37Z</time>
      </trkpt>
      <trkpt lat="46.6181" lon="-1.1237">
        <ele>64</ele>
        <time>2021-03-08T22:55:40Z</time>
      </trkpt>
      <trkpt lat="46.6182" lon="-1.12345">
        <ele>64</ele>
        <time>2021-03-08T22:55:44Z</time>
      </trkpt>
      <trkpt lat="46.61821" lon="-1.12317">
        <ele>63</ele>
        <time>2021-03-08T22:55:47Z</time>
      </trkpt>
      <trkpt lat="46.61818" lon="-1.12284">
        <ele>61</ele>
        <time>2021-03-08T22:55:51Z</time>
      </trkpt>
      <trkpt lat="46.61833" lon="-1.12265">
        <ele>60</ele>
        <time>2021-03-08T22:55:55Z</time>
      </trkpt>
      <trkpt lat="46.6187" lon="-1.12245">
        <ele>56</ele>
        <time>2021-03-08T22:56:02Z</time>
      </trkpt>
      <trkpt lat="46.61922" lon="-1.12221">
        <ele>53</ele>
        <time>2021-03-08T22:56:11Z</time>
      </trkpt>
      <trkpt lat="46.61935" lon="-1.12211">
        <ele>53</ele>
        <time>2021-03-08T22:56:14Z</time>
      </trkpt>
      <trkpt lat="46.61937" lon="-1.12175">
        <ele>52</ele>
        <time>2021-03-08T22:56:18Z</time>
      </trkpt>
      <trkpt lat="46.61937" lon="-1.12129">
        <ele>54</ele>
        <time>2021-03-08T22:56:24Z</time>
      </trkpt>
      <trkpt lat="46.61952" lon="-1.12098">
        <ele>55</ele>
        <time>2021-03-08T22:56:29Z</time>
      </trkpt>
      <trkpt lat="46.61972" lon="-1.12068">
        <ele>56</ele>
        <time>2021-03-08T22:56:34Z</time>
      </trkpt>
      <trkpt lat="46.62005" lon="-1.12044">
        <ele>57</ele>
        <time>2021-03-08T22:56:40Z</time>
      </trkpt>
      <trkpt lat="46.62064" lon="-1.12025">
        <ele>57</ele>
        <time>2021-03-08T22:56:51Z</time>
      </trkpt>
      <trkpt lat="46.62096" lon="-1.12002">
        <ele>58</ele>
        <time>2021-03-08T22:56:57Z</time>
      </trkpt>
      <trkpt lat="46.62134" lon="-1.11956">
        <ele>61</ele>
        <time>2021-03-08T22:57:06Z</time>
      </trkpt>
      <trkpt lat="46.62158" lon="-1.11907">
        <ele>64</ele>
        <time>2021-03-08T22:57:14Z</time>
      </trkpt>
      <trkpt lat="46.6217" lon="-1.11864">
        <ele>65</ele>
        <time>2021-03-08T22:57:19Z</time>
      </trkpt>
      <trkpt lat="46.6217" lon="-1.11802">
        <ele>68</ele>
        <time>2021-03-08T22:57:27Z</time>
      </trkpt>
      <trkpt lat="46.62161" lon="-1.11764">
        <ele>70</ele>
        <time>2021-03-08T22:57:32Z</time>
      </trkpt>
      <trkpt lat="46.6212" lon="-1.11737">
        <ele>72</ele>
        <time>2021-03-08T22:57:40Z</time>
      </trkpt>
      <trkpt lat="46.62065" lon="-1.11737">
        <ele>74</ele>
        <time>2021-03-08T22:57:50Z</time>
      </trkpt>
      <trkpt lat="46.62046" lon="-1.11711">
        <ele>74</ele>
        <time>2021-03-08T22:57:54Z</time>
      </trkpt>
      <trkpt lat="46.61997" lon="-1.11552">
        <ele>74</ele>
        <time>2021-03-08T22:58:15Z</time>
      </trkpt>
      <trkpt lat="46.6199" lon="-1.11509">
        <ele>73</ele>
        <time>2021-03-08T22:58:21Z</time>
      </trkpt>
      <trkpt lat="46.61997" lon="-1.1149">
        <ele>73</ele>
        <time>2021-03-08T22:58:24Z</time>
      </trkpt>
      <trkpt lat="46.62153" lon="-1.1141">
        <ele>70</ele>
        <time>2021-03-08T22:58:53Z</time>
      </trkpt>
      <trkpt lat="46.62258" lon="-1.11385">
        <ele>70</ele>
        <time>2021-03-08T22:59:12Z</time>
      </trkpt>
      <trkpt lat="46.62299" lon="-1.11362">
        <ele>71</ele>
        <time>2021-03-08T22:59:20Z</time>
      </trkpt>
      <trkpt lat="46.62301" lon="-1.11357">
        <ele>71</ele>
        <time>2021-03-08T22:59:20Z</time>
      </trkpt>
      <trkpt lat="46.6234" lon="-1.11293">
        <ele>70</ele>
        <time>2021-03-08T22:59:31Z</time>
      </trkpt>
      <trkpt lat="46.62359" lon="-1.11273">
        <ele>70</ele>
        <time>2021-03-08T22:59:35Z</time>
      </trkpt>
      <trkpt lat="46.62411" lon="-1.11247">
        <ele>69</ele>
        <time>2021-03-08T22:59:45Z</time>
      </trkpt>
      <trkpt lat="46.62453" lon="-1.11221">
        <ele>69</ele>
        <time>2021-03-08T22:59:53Z</time>
      </trkpt>
      <trkpt lat="46.62487" lon="-1.11206">
        <ele>69</ele>
        <time>2021-03-08T22:59:59Z</time>
      </trkpt>
      <trkpt lat="46.62537" lon="-1.11162">
        <ele>70</ele>
        <time>2021-03-08T23:00:10Z</time>
      </trkpt>
      <trkpt lat="46.62618" lon="-1.11073">
        <ele>70</ele>
        <time>2021-03-08T23:00:28Z</time>
      </trkpt>
      <trkpt lat="46.62639" lon="-1.11062">
        <ele>71</ele>
        <time>2021-03-08T23:00:32Z</time>
      </trkpt>
      <trkpt lat="46.62681" lon="-1.11052">
        <ele>71</ele>
        <time>2021-03-08T23:00:39Z</time>
      </trkpt>
      <trkpt lat="46.62787" lon="-1.1104">
        <ele>71</ele>
        <time>2021-03-08T23:00:58Z</time>
      </trkpt>
      <trkpt lat="46.62851" lon="-1.11019">
        <ele>70</ele>
        <time>2021-03-08T23:01:10Z</time>
      </trkpt>
      <trkpt lat="46.62868" lon="-1.11006">
        <ele>71</ele>
        <time>2021-03-08T23:01:13Z</time>
      </trkpt>
      <trkpt lat="46.62871" lon="-1.10999">
        <ele>70</ele>
        <time>2021-03-08T23:01:14Z</time>
      </trkpt>
      <trkpt lat="46.62888" lon="-1.11002">
        <ele>71</ele>
        <time>2021-03-08T23:01:17Z</time>
      </trkpt>
      <trkpt lat="46.62915" lon="-1.11004">
        <ele>71</ele>
        <time>2021-03-08T23:01:22Z</time>
      </trkpt>
      <trkpt lat="46.62976" lon="-1.10999">
        <ele>71</ele>
        <time>2021-03-08T23:01:33Z</time>
      </trkpt>
      <trkpt lat="46.63005" lon="-1.10999">
        <ele>71</ele>
        <time>2021-03-08T23:01:38Z</time>
      </trkpt>
      <trkpt lat="46.63049" lon="-1.11012">
        <ele>70</ele>
        <time>2021-03-08T23:01:46Z</time>
      </trkpt>
      <trkpt lat="46.63068" lon="-1.11023">
        <ele>69</ele>
        <time>2021-03-08T23:01:50Z</time>
      </trkpt>
      <trkpt lat="46.63096" lon="-1.11042">
        <ele>68</ele>
        <time>2021-03-08T23:01:55Z</time>
      </trkpt>
      <trkpt lat="46.63142" lon="-1.11085">
        <ele>66</ele>
        <time>2021-03-08T23:02:05Z</time>
      </trkpt>
      <trkpt lat="46.6318" lon="-1.11125">
        <ele>66</ele>
        <time>2021-03-08T23:02:13Z</time>
      </trkpt>
      <trkpt lat="46.6322" lon="-1.11172">
        <ele>66</ele>
        <time>2021-03-08T23:02:22Z</time>
      </trkpt>
      <trkpt lat="46.63243" lon="-1.11204">
        <ele>66</ele>
        <time>2021-03-08T23:02:28Z</time>
      </trkpt>
      <trkpt lat="46.63341" lon="-1.11397">
        <ele>69</ele>
        <time>2021-03-08T23:02:57Z</time>
      </trkpt>
      <trkpt lat="46.63356" lon="-1.11421">
        <ele>68</ele>
        <time>2021-03-08T23:03:01Z</time>
      </trkpt>
      <trkpt lat="46.63375" lon="-1.11445">
        <ele>68</ele>
        <time>2021-03-08T23:03:06Z</time>
      </trkpt>
      <trkpt lat="46.63446" lon="-1.11521">
        <ele>69</ele>
        <time>2021-03-08T23:03:22Z</time>
      </trkpt>
      <trkpt lat="46.63513" lon="-1.11588">
        <ele>68</ele>
        <time>2021-03-08T23:03:36Z</time>
      </trkpt>
      <trkpt lat="46.63568" lon="-1.11649">
        <ele>64</ele>
        <time>2021-03-08T23:03:48Z</time>
      </trkpt>
      <trkpt lat="46.63634" lon="-1.11751">
        <ele>61</ele>
        <time>2021-03-08T23:04:05Z</time>
      </trkpt>
      <trkpt lat="46.63684" lon="-1.11822">
        <ele>61</ele>
        <time>2021-03-08T23:04:18Z</time>
      </trkpt>
      <trkpt lat="46.63797" lon="-1.11955">
        <ele>56</ele>
        <time>2021-03-08T23:04:44Z</time>
      </trkpt>
      <trkpt lat="46.63818" lon="-1.11987">
        <ele>56</ele>
        <time>2021-03-08T23:04:49Z</time>
      </trkpt>
      <trkpt lat="46.6383" lon="-1.12014">
        <ele>56</ele>
        <time>2021-03-08T23:04:53Z</time>
      </trkpt>
      <trkpt lat="46.63877" lon="-1.1217">
        <ele>63</ele>
        <time>2021-03-08T23:05:14Z</time>
      </trkpt>
      <trkpt lat="46.63897" lon="-1.12124">
        <ele>59</ele>
        <time>2021-03-08T23:05:21Z</time>
      </trkpt>
      <trkpt lat="46.63946" lon="-1.12034">
        <ele>57</ele>
        <time>2021-03-08T23:05:35Z</time>
      </trkpt>
      <trkpt lat="46.6399" lon="-1.11975">
        <ele>56</ele>
        <time>2021-03-08T23:05:45Z</time>
      </trkpt>
      <trkpt lat="46.64022" lon="-1.11941">
        <ele>56</ele>
        <time>2021-03-08T23:05:52Z</time>
      </trkpt>
      <trkpt lat="46.64039" lon="-1.11911">
        <ele>56</ele>
        <time>2021-03-08T23:05:57Z</time>
      </trkpt>
      <trkpt lat="46.64044" lon="-1.11888">
        <ele>55</ele>
        <time>2021-03-08T23:06:00Z</time>
      </trkpt>
      <trkpt lat="46.64051" lon="-1.11821">
        <ele>52</ele>
        <time>2021-03-08T23:06:08Z</time>
      </trkpt>
      <trkpt lat="46.64052" lon="-1.11771">
        <ele>49</ele>
        <time>2021-03-08T23:06:14Z</time>
      </trkpt>
      <trkpt lat="46.64043" lon="-1.11721">
        <ele>46</ele>
        <time>2021-03-08T23:06:21Z</time>
      </trkpt>
      <trkpt lat="46.64028" lon="-1.11676">
        <ele>43</ele>
        <time>2021-03-08T23:06:27Z</time>
      </trkpt>
      <trkpt lat="46.64022" lon="-1.1165">
        <ele>42</ele>
        <time>2021-03-08T23:06:30Z</time>
      </trkpt>
      <trkpt lat="46.64029" lon="-1.11623">
        <ele>42</ele>
        <time>2021-03-08T23:06:34Z</time>
      </trkpt>
      <trkpt lat="46.64043" lon="-1.1159">
        <ele>41</ele>
        <time>2021-03-08T23:06:38Z</time>
      </trkpt>
      <trkpt lat="46.64046" lon="-1.11578">
        <ele>40</ele>
        <time>2021-03-08T23:06:40Z</time>
      </trkpt>
      <trkpt lat="46.64046" lon="-1.11569">
        <ele>40</ele>
        <time>2021-03-08T23:06:41Z</time>
      </trkpt>
      <trkpt lat="46.64045" lon="-1.11563">
        <ele>39</ele>
        <time>2021-03-08T23:06:42Z</time>
      </trkpt>
      <trkpt lat="46.64041" lon="-1.11557">
        <ele>38</ele>
        <time>2021-03-08T23:06:43Z</time>
      </trkpt>
      <trkpt lat="46.63999" lon="-1.11536">
        <ele>37</ele>
        <time>2021-03-08T23:06:51Z</time>
      </trkpt>
      <trkpt lat="46.63994" lon="-1.1153">
        <ele>37</ele>
        <time>2021-03-08T23:06:52Z</time>
      </trkpt>
      <trkpt lat="46.63992" lon="-1.11521">
        <ele>36</ele>
        <time>2021-03-08T23:06:53Z</time>
      </trkpt>
      <trkpt lat="46.63992" lon="-1.11511">
        <ele>35</ele>
        <time>2021-03-08T23:06:54Z</time>
      </trkpt>
      <trkpt lat="46.63992" lon="-1.11511">
        <ele>35</ele>
        <time>2021-03-08T23:06:54Z</time>
      </trkpt>
      <trkpt lat="46.63994" lon="-1.11478">
        <ele>32</ele>
        <time>2021-03-08T23:06:58Z</time>
      </trkpt>
      <trkpt lat="46.63995" lon="-1.11472">
        <ele>32</ele>
        <time>2021-03-08T23:06:59Z</time>
      </trkpt>
      <trkpt lat="46.63999" lon="-1.11461">
        <ele>31</ele>
        <time>2021-03-08T23:07:01Z</time>
      </trkpt>
      <trkpt lat="46.64006" lon="-1.11451">
        <ele>31</ele>
        <time>2021-03-08T23:07:02Z</time>
      </trkpt>
      <trkpt lat="46.64064" lon="-1.11411">
        <ele>30</ele>
        <time>2021-03-08T23:07:14Z</time>
      </trkpt>
      <trkpt lat="46.64186" lon="-1.11326">
        <ele>38</ele>
        <time>2021-03-08T23:07:38Z</time>
      </trkpt>
      <trkpt lat="46.64263" lon="-1.11255">
        <ele>44</ele>
        <time>2021-03-08T23:07:54Z</time>
      </trkpt>
      <trkpt lat="46.6428" lon="-1.11231">
        <ele>45</ele>
        <time>2021-03-08T23:07:58Z</time>
      </trkpt>
      <trkpt lat="46.64302" lon="-1.11155">
        <ele>47</ele>
        <time>2021-03-08T23:08:08Z</time>
      </trkpt>
      <trkpt lat="46.64318" lon="-1.11099">
        <ele>48</ele>
        <time>2021-03-08T23:08:16Z</time>
      </trkpt>
      <trkpt lat="46.64353" lon="-1.10973">
        <ele>51</ele>
        <time>2021-03-08T23:08:32Z</time>
      </trkpt>
      <trkpt lat="46.64352" lon="-1.10961">
        <ele>51</ele>
        <time>2021-03-08T23:08:34Z</time>
      </trkpt>
      <trkpt lat="46.64345" lon="-1.10961">
        <ele>51</ele>
        <time>2021-03-08T23:08:35Z</time>
      </trkpt>
      <trkpt lat="46.64337" lon="-1.10955">
        <ele>51</ele>
        <time>2021-03-08T23:08:37Z</time>
      </trkpt>
      <trkpt lat="46.64326" lon="-1.10924">
        <ele>50</ele>
        <time>2021-03-08T23:08:41Z</time>
      </trkpt>
      <trkpt lat="46.6431" lon="-1.10935">
        <ele>49</ele>
        <time>2021-03-08T23:08:44Z</time>
      </trkpt>
      <trkpt lat="46.64292" lon="-1.10941">
        <ele>48</ele>
        <time>2021-03-08T23:08:47Z</time>
      </trkpt>
      <trkpt lat="46.6431" lon="-1.10935">
        <ele>49</ele>
        <time>2021-03-08T23:08:51Z</time>
      </trkpt>
      <trkpt lat="46.64326" lon="-1.10924">
        <ele>50</ele>
        <time>2021-03-08T23:08:54Z</time>
      </trkpt>
      <trkpt lat="46.64337" lon="-1.10955">
        <ele>51</ele>
        <time>2021-03-08T23:08:58Z</time>
      </trkpt>
      <trkpt lat="46.64345" lon="-1.10961">
        <ele>51</ele>
        <time>2021-03-08T23:09:00Z</time>
      </trkpt>
      <trkpt lat="46.64352" lon="-1.10961">
        <ele>51</ele>
        <time>2021-03-08T23:09:01Z</time>
      </trkpt>
      <trkpt lat="46.64384" lon="-1.10945">
        <ele>52</ele>
        <time>2021-03-08T23:09:07Z</time>
      </trkpt>
      <trkpt lat="46.64398" lon="-1.10944">
        <ele>52</ele>
        <time>2021-03-08T23:09:09Z</time>
      </trkpt>
      <trkpt lat="46.64488" lon="-1.10953">
        <ele>55</ele>
        <time>2021-03-08T23:09:25Z</time>
      </trkpt>
      <trkpt lat="46.64516" lon="-1.10969">
        <ele>56</ele>
        <time>2021-03-08T23:09:31Z</time>
      </trkpt>
      <trkpt lat="46.64566" lon="-1.11016">
        <ele>57</ele>
        <time>2021-03-08T23:09:41Z</time>
      </trkpt>
      <trkpt lat="46.64576" lon="-1.1102">
        <ele>58</ele>
        <time>2021-03-08T23:09:43Z</time>
      </trkpt>
      <trkpt lat="46.64598" lon="-1.11023">
        <ele>58</ele>
        <time>2021-03-08T23:09:47Z</time>
      </trkpt>
      <trkpt lat="46.64622" lon="-1.11019">
        <ele>59</ele>
        <time>2021-03-08T23:09:51Z</time>
      </trkpt>
      <trkpt lat="46.64665" lon="-1.10995">
        <ele>60</ele>
        <time>2021-03-08T23:10:00Z</time>
      </trkpt>
      <trkpt lat="46.64716" lon="-1.10961">
        <ele>60</ele>
        <time>2021-03-08T23:10:10Z</time>
      </trkpt>
      <trkpt lat="46.64847" lon="-1.10861">
        <ele>62</ele>
        <time>2021-03-08T23:10:36Z</time>
      </trkpt>
      <trkpt lat="46.64976" lon="-1.10779">
        <ele>63</ele>
        <time>2021-03-08T23:11:01Z</time>
      </trkpt>
      <trkpt lat="46.65134" lon="-1.10711">
        <ele>69</ele>
        <time>2021-03-08T23:11:30Z</time>
      </trkpt>
      <trkpt lat="46.65212" lon="-1.10688">
        <ele>72</ele>
        <time>2021-03-08T23:11:44Z</time>
      </trkpt>
      <trkpt lat="46.65368" lon="-1.10652">
        <ele>77</ele>
        <time>2021-03-08T23:12:13Z</time>
      </trkpt>
      <trkpt lat="46.65531" lon="-1.10592">
        <ele>82</ele>
        <time>2021-03-08T23:12:42Z</time>
      </trkpt>
      <trkpt lat="46.65583" lon="-1.10583">
        <ele>84</ele>
        <time>2021-03-08T23:12:52Z</time>
      </trkpt>
      <trkpt lat="46.65706" lon="-1.10574">
        <ele>87</ele>
        <time>2021-03-08T23:13:14Z</time>
      </trkpt>
      <trkpt lat="46.65773" lon="-1.10562">
        <ele>89</ele>
        <time>2021-03-08T23:13:26Z</time>
      </trkpt>
      <trkpt lat="46.65793" lon="-1.10548">
        <ele>89</ele>
        <time>2021-03-08T23:13:30Z</time>
      </trkpt>
      <trkpt lat="46.65937" lon="-1.10428">
        <ele>90</ele>
        <time>2021-03-08T23:13:59Z</time>
      </trkpt>
      <trkpt lat="46.66002" lon="-1.10379">
        <ele>87</ele>
        <time>2021-03-08T23:14:12Z</time>
      </trkpt>
      <trkpt lat="46.6608" lon="-1.1031">
        <ele>88</ele>
        <time>2021-03-08T23:14:28Z</time>
      </trkpt>
      <trkpt lat="46.66157" lon="-1.10225">
        <ele>92</ele>
        <time>2021-03-08T23:14:46Z</time>
      </trkpt>
      <trkpt lat="46.66189" lon="-1.10184">
        <ele>94</ele>
        <time>2021-03-08T23:14:53Z</time>
      </trkpt>
      <trkpt lat="46.66218" lon="-1.10136">
        <ele>95</ele>
        <time>2021-03-08T23:15:01Z</time>
      </trkpt>
      <trkpt lat="46.66411" lon="-1.09763">
        <ele>96</ele>
        <time>2021-03-08T23:15:58Z</time>
      </trkpt>
      <trkpt lat="46.66487" lon="-1.09644">
        <ele>92</ele>
        <time>2021-03-08T23:16:18Z</time>
      </trkpt>
      <trkpt lat="46.66575" lon="-1.09478">
        <ele>92</ele>
        <time>2021-03-08T23:16:44Z</time>
      </trkpt>
      <trkpt lat="46.66591" lon="-1.09434">
        <ele>92</ele>
        <time>2021-03-08T23:16:50Z</time>
      </trkpt>
      <trkpt lat="46.66611" lon="-1.09363">
        <ele>94</ele>
        <time>2021-03-08T23:16:59Z</time>
      </trkpt>
      <trkpt lat="46.6663" lon="-1.09326">
        <ele>96</ele>
        <time>2021-03-08T23:17:05Z</time>
      </trkpt>
      <trkpt lat="46.66635" lon="-1.0932">
        <ele>96</ele>
        <time>2021-03-08T23:17:06Z</time>
      </trkpt>
      <trkpt lat="46.66653" lon="-1.09343">
        <ele>95</ele>
        <time>2021-03-08T23:17:10Z</time>
      </trkpt>
      <trkpt lat="46.66663" lon="-1.09347">
        <ele>95</ele>
        <time>2021-03-08T23:17:12Z</time>
      </trkpt>
      <trkpt lat="46.6667" lon="-1.09349">
        <ele>94</ele>
        <time>2021-03-08T23:17:13Z</time>
      </trkpt>
      <trkpt lat="46.66676" lon="-1.09354">
        <ele>94</ele>
        <time>2021-03-08T23:17:14Z</time>
      </trkpt>
      <trkpt lat="46.6668" lon="-1.09362">
        <ele>94</ele>
        <time>2021-03-08T23:17:16Z</time>
      </trkpt>
      <trkpt lat="46.66682" lon="-1.09371">
        <ele>94</ele>
        <time>2021-03-08T23:17:17Z</time>
      </trkpt>
      <trkpt lat="46.66682" lon="-1.0938">
        <ele>93</ele>
        <time>2021-03-08T23:17:18Z</time>
      </trkpt>
      <trkpt lat="46.6668" lon="-1.0939">
        <ele>93</ele>
        <time>2021-03-08T23:17:19Z</time>
      </trkpt>
      <trkpt lat="46.66703" lon="-1.09405">
        <ele>92</ele>
        <time>2021-03-08T23:17:24Z</time>
      </trkpt>
      <trkpt lat="46.66785" lon="-1.09427">
        <ele>91</ele>
        <time>2021-03-08T23:17:38Z</time>
      </trkpt>
      <trkpt lat="46.67002" lon="-1.0949">
        <ele>94</ele>
        <time>2021-03-08T23:18:18Z</time>
      </trkpt>
      <trkpt lat="46.67034" lon="-1.09507">
        <ele>93</ele>
        <time>2021-03-08T23:18:24Z</time>
      </trkpt>
      <trkpt lat="46.67133" lon="-1.09581">
        <ele>91</ele>
        <time>2021-03-08T23:18:44Z</time>
      </trkpt>
      <trkpt lat="46.67191" lon="-1.0963">
        <ele>89</ele>
        <time>2021-03-08T23:18:56Z</time>
      </trkpt>
      <trkpt lat="46.67209" lon="-1.09643">
        <ele>89</ele>
        <time>2021-03-08T23:18:59Z</time>
      </trkpt>
      <trkpt lat="46.67226" lon="-1.09652">
        <ele>88</ele>
        <time>2021-03-08T23:19:02Z</time>
      </trkpt>
      <trkpt lat="46.67242" lon="-1.09655">
        <ele>87</ele>
        <time>2021-03-08T23:19:05Z</time>
      </trkpt>
      <trkpt lat="46.6729" lon="-1.09651">
        <ele>85</ele>
        <time>2021-03-08T23:19:14Z</time>
      </trkpt>
      <trkpt lat="46.67316" lon="-1.09651">
        <ele>84</ele>
        <time>2021-03-08T23:19:18Z</time>
      </trkpt>
      <trkpt lat="46.67334" lon="-1.09658">
        <ele>83</ele>
        <time>2021-03-08T23:19:22Z</time>
      </trkpt>
      <trkpt lat="46.67348" lon="-1.09668">
        <ele>83</ele>
        <time>2021-03-08T23:19:25Z</time>
      </trkpt>
      <trkpt lat="46.67366" lon="-1.09685">
        <ele>84</ele>
        <time>2021-03-08T23:19:28Z</time>
      </trkpt>
      <trkpt lat="46.67392" lon="-1.09719">
        <ele>84</ele>
        <time>2021-03-08T23:19:35Z</time>
      </trkpt>
      <trkpt lat="46.67462" lon="-1.09903">
        <ele>88</ele>
        <time>2021-03-08T23:20:00Z</time>
      </trkpt>
      <trkpt lat="46.67484" lon="-1.0993">
        <ele>88</ele>
        <time>2021-03-08T23:20:05Z</time>
      </trkpt>
      <trkpt lat="46.67504" lon="-1.09939">
        <ele>89</ele>
        <time>2021-03-08T23:20:09Z</time>
      </trkpt>
      <trkpt lat="46.67518" lon="-1.09941">
        <ele>89</ele>
        <time>2021-03-08T23:20:12Z</time>
      </trkpt>
      <trkpt lat="46.67609" lon="-1.09942">
        <ele>92</ele>
        <time>2021-03-08T23:20:28Z</time>
      </trkpt>
      <trkpt lat="46.67631" lon="-1.09944">
        <ele>93</ele>
        <time>2021-03-08T23:20:32Z</time>
      </trkpt>
      <trkpt lat="46.6765" lon="-1.09949">
        <ele>93</ele>
        <time>2021-03-08T23:20:35Z</time>
      </trkpt>
      <trkpt lat="46.67796" lon="-1.10027">
        <ele>97</ele>
        <time>2021-03-08T23:21:03Z</time>
      </trkpt>
      <trkpt lat="46.67848" lon="-1.10045">
        <ele>98</ele>
        <time>2021-03-08T23:21:12Z</time>
      </trkpt>
      <trkpt lat="46.67878" lon="-1.10047">
        <ele>99</ele>
        <time>2021-03-08T23:21:18Z</time>
      </trkpt>
      <trkpt lat="46.67912" lon="-1.10033">
        <ele>100</ele>
        <time>2021-03-08T23:21:24Z</time>
      </trkpt>
      <trkpt lat="46.67973" lon="-1.09996">
        <ele>100</ele>
        <time>2021-03-08T23:21:36Z</time>
      </trkpt>
      <trkpt lat="46.68232" lon="-1.09845">
        <ele>92</ele>
        <time>2021-03-08T23:22:25Z</time>
      </trkpt>
      <trkpt lat="46.68275" lon="-1.09828">
        <ele>91</ele>
        <time>2021-03-08T23:22:33Z</time>
      </trkpt>
      <trkpt lat="46.68318" lon="-1.09833">
        <ele>88</ele>
        <time>2021-03-08T23:22:41Z</time>
      </trkpt>
      <trkpt lat="46.68527" lon="-1.09904">
        <ele>86</ele>
        <time>2021-03-08T23:23:19Z</time>
      </trkpt>
      <trkpt lat="46.68573" lon="-1.09924">
        <ele>88</ele>
        <time>2021-03-08T23:23:28Z</time>
      </trkpt>
      <trkpt lat="46.6859" lon="-1.09937">
        <ele>88</ele>
        <time>2021-03-08T23:23:31Z</time>
      </trkpt>
      <trkpt lat="46.68604" lon="-1.09953">
        <ele>88</ele>
        <time>2021-03-08T23:23:34Z</time>
      </trkpt>
      <trkpt lat="46.68675" lon="-1.10044">
        <ele>89</ele>
        <time>2021-03-08T23:23:51Z</time>
      </trkpt>
      <trkpt lat="46.68702" lon="-1.10073">
        <ele>90</ele>
        <time>2021-03-08T23:23:57Z</time>
      </trkpt>
      <trkpt lat="46.68724" lon="-1.10086">
        <ele>90</ele>
        <time>2021-03-08T23:24:01Z</time>
      </trkpt>
      <trkpt lat="46.68747" lon="-1.10089">
        <ele>90</ele>
        <time>2021-03-08T23:24:05Z</time>
      </trkpt>
      <trkpt lat="46.68788" lon="-1.10071">
        <ele>91</ele>
        <time>2021-03-08T23:24:13Z</time>
      </trkpt>
      <trkpt lat="46.69039" lon="-1.09931">
        <ele>90</ele>
        <time>2021-03-08T23:25:01Z</time>
      </trkpt>
      <trkpt lat="46.69116" lon="-1.09886">
        <ele>88</ele>
        <time>2021-03-08T23:25:16Z</time>
      </trkpt>
      <trkpt lat="46.6912" lon="-1.09885">
        <ele>88</ele>
        <time>2021-03-08T23:25:16Z</time>
      </trkpt>
      <trkpt lat="46.6923" lon="-1.0988">
        <ele>85</ele>
        <time>2021-03-08T23:25:36Z</time>
      </trkpt>
      <trkpt lat="46.6925" lon="-1.09875">
        <ele>85</ele>
        <time>2021-03-08T23:25:39Z</time>
      </trkpt>
      <trkpt lat="46.69281" lon="-1.09864">
        <ele>85</ele>
        <time>2021-03-08T23:25:45Z</time>
      </trkpt>
      <trkpt lat="46.69306" lon="-1.09858">
        <ele>85</ele>
        <time>2021-03-08T23:25:50Z</time>
      </trkpt>
      <trkpt lat="46.69325" lon="-1.09862">
        <ele>85</ele>
        <time>2021-03-08T23:25:53Z</time>
      </trkpt>
      <trkpt lat="46.69348" lon="-1.09876">
        <ele>85</ele>
        <time>2021-03-08T23:25:58Z</time>
      </trkpt>
      <trkpt lat="46.69455" lon="-1.09954">
        <ele>88</ele>
        <time>2021-03-08T23:26:19Z</time>
      </trkpt>
      <trkpt lat="46.69533" lon="-1.10008">
        <ele>90</ele>
        <time>2021-03-08T23:26:34Z</time>
      </trkpt>
      <trkpt lat="46.69609" lon="-1.10053">
        <ele>92</ele>
        <time>2021-03-08T23:26:49Z</time>
      </trkpt>
      <trkpt lat="46.69655" lon="-1.10076">
        <ele>94</ele>
        <time>2021-03-08T23:26:57Z</time>
      </trkpt>
      <trkpt lat="46.69684" lon="-1.10074">
        <ele>96</ele>
        <time>2021-03-08T23:27:03Z</time>
      </trkpt>
      <trkpt lat="46.69825" lon="-1.10018">
        <ele>103</ele>
        <time>2021-03-08T23:27:29Z</time>
      </trkpt>
      <trkpt lat="46.6984" lon="-1.10018">
        <ele>103</ele>
        <time>2021-03-08T23:27:31Z</time>
      </trkpt>
      <trkpt lat="46.69995" lon="-1.10096">
        <ele>103</ele>
        <time>2021-03-08T23:28:00Z</time>
      </trkpt>
      <trkpt lat="46.70009" lon="-1.10098">
        <ele>102</ele>
        <time>2021-03-08T23:28:03Z</time>
      </trkpt>
      <trkpt lat="46.70029" lon="-1.10088">
        <ele>103</ele>
        <time>2021-03-08T23:28:07Z</time>
      </trkpt>
      <trkpt lat="46.70095" lon="-1.1002">
        <ele>103</ele>
        <time>2021-03-08T23:28:21Z</time>
      </trkpt>
      <trkpt lat="46.70205" lon="-1.09998">
        <ele>100</ele>
        <time>2021-03-08T23:28:41Z</time>
      </trkpt>
      <trkpt lat="46.70386" lon="-1.10028">
        <ele>97</ele>
        <time>2021-03-08T23:29:13Z</time>
      </trkpt>
      <trkpt lat="46.70458" lon="-1.10051">
        <ele>96</ele>
        <time>2021-03-08T23:29:26Z</time>
      </trkpt>
      <trkpt lat="46.70544" lon="-1.10103">
        <ele>95</ele>
        <time>2021-03-08T23:29:43Z</time>
      </trkpt>
      <trkpt lat="46.70616" lon="-1.10164">
        <ele>94</ele>
        <time>2021-03-08T23:29:58Z</time>
      </trkpt>
      <trkpt lat="46.70728" lon="-1.10195">
        <ele>94</ele>
        <time>2021-03-08T23:30:18Z</time>
      </trkpt>
      <trkpt lat="46.70776" lon="-1.10231">
        <ele>94</ele>
        <time>2021-03-08T23:30:28Z</time>
      </trkpt>
      <trkpt lat="46.70851" lon="-1.10321">
        <ele>93</ele>
        <time>2021-03-08T23:30:45Z</time>
      </trkpt>
      <trkpt lat="46.70964" lon="-1.10531">
        <ele>87</ele>
        <time>2021-03-08T23:31:17Z</time>
      </trkpt>
      <trkpt lat="46.71108" lon="-1.1065">
        <ele>92</ele>
        <time>2021-03-08T23:31:47Z</time>
      </trkpt>
      <trkpt lat="46.7112" lon="-1.10653">
        <ele>92</ele>
        <time>2021-03-08T23:31:49Z</time>
      </trkpt>
      <trkpt lat="46.71134" lon="-1.10648">
        <ele>92</ele>
        <time>2021-03-08T23:31:52Z</time>
      </trkpt>
      <trkpt lat="46.71166" lon="-1.10644">
        <ele>91</ele>
        <time>2021-03-08T23:31:57Z</time>
      </trkpt>
      <trkpt lat="46.71225" lon="-1.10629">
        <ele>87</ele>
        <time>2021-03-08T23:32:08Z</time>
      </trkpt>
      <trkpt lat="46.71252" lon="-1.10629">
        <ele>86</ele>
        <time>2021-03-08T23:32:13Z</time>
      </trkpt>
      <trkpt lat="46.71267" lon="-1.10624">
        <ele>85</ele>
        <time>2021-03-08T23:32:16Z</time>
      </trkpt>
      <trkpt lat="46.71278" lon="-1.10616">
        <ele>84</ele>
        <time>2021-03-08T23:32:18Z</time>
      </trkpt>
      <trkpt lat="46.71283" lon="-1.1061">
        <ele>83</ele>
        <time>2021-03-08T23:32:19Z</time>
      </trkpt>
      <trkpt lat="46.71292" lon="-1.10584">
        <ele>82</ele>
        <time>2021-03-08T23:32:22Z</time>
      </trkpt>
      <trkpt lat="46.71312" lon="-1.10554">
        <ele>79</ele>
        <time>2021-03-08T23:32:28Z</time>
      </trkpt>
      <trkpt lat="46.7138" lon="-1.10496">
        <ele>72</ele>
        <time>2021-03-08T23:32:42Z</time>
      </trkpt>
      <trkpt lat="46.71423" lon="-1.10446">
        <ele>68</ele>
        <time>2021-03-08T23:32:51Z</time>
      </trkpt>
      <trkpt lat="46.71471" lon="-1.10395">
        <ele>70</ele>
        <time>2021-03-08T23:33:02Z</time>
      </trkpt>
      <trkpt lat="46.71484" lon="-1.1039">
        <ele>70</ele>
        <time>2021-03-08T23:33:04Z</time>
      </trkpt>
      <trkpt lat="46.71636" lon="-1.10287">
        <ele>71</ele>
        <time>2021-03-08T23:33:34Z</time>
      </trkpt>
      <trkpt lat="46.71693" lon="-1.10212">
        <ele>70</ele>
        <time>2021-03-08T23:33:48Z</time>
      </trkpt>
      <trkpt lat="46.71822" lon="-1.09983">
        <ele>71</ele>
        <time>2021-03-08T23:34:24Z</time>
      </trkpt>
      <trkpt lat="46.71893" lon="-1.09836">
        <ele>69</ele>
        <time>2021-03-08T23:34:46Z</time>
      </trkpt>
      <trkpt lat="46.71907" lon="-1.09828">
        <ele>68</ele>
        <time>2021-03-08T23:34:49Z</time>
      </trkpt>
      <trkpt lat="46.71921" lon="-1.0983">
        <ele>68</ele>
        <time>2021-03-08T23:34:51Z</time>
      </trkpt>
      <trkpt lat="46.71963" lon="-1.09822">
        <ele>67</ele>
        <time>2021-03-08T23:34:59Z</time>
      </trkpt>
      <trkpt lat="46.71996" lon="-1.09801">
        <ele>66</ele>
        <time>2021-03-08T23:35:05Z</time>
      </trkpt>
      <trkpt lat="46.72018" lon="-1.09775">
        <ele>67</ele>
        <time>2021-03-08T23:35:10Z</time>
      </trkpt>
      <trkpt lat="46.72314" lon="-1.09474">
        <ele>71</ele>
        <time>2021-03-08T23:36:14Z</time>
      </trkpt>
      <trkpt lat="46.72446" lon="-1.09209">
        <ele>76</ele>
        <time>2021-03-08T23:36:54Z</time>
      </trkpt>
      <trkpt lat="46.72495" lon="-1.09106">
        <ele>76</ele>
        <time>2021-03-08T23:37:09Z</time>
      </trkpt>
      <trkpt lat="46.72599" lon="-1.08954">
        <ele>78</ele>
        <time>2021-03-08T23:37:36Z</time>
      </trkpt>
      <trkpt lat="46.72625" lon="-1.089">
        <ele>78</ele>
        <time>2021-03-08T23:37:44Z</time>
      </trkpt>
      <trkpt lat="46.72645" lon="-1.08882">
        <ele>78</ele>
        <time>2021-03-08T23:37:48Z</time>
      </trkpt>
      <trkpt lat="46.72667" lon="-1.08876">
        <ele>79</ele>
        <time>2021-03-08T23:37:52Z</time>
      </trkpt>
      <trkpt lat="46.7292" lon="-1.08844">
        <ele>79</ele>
        <time>2021-03-08T23:38:37Z</time>
      </trkpt>
      <trkpt lat="46.72962" lon="-1.08832">
        <ele>78</ele>
        <time>2021-03-08T23:38:45Z</time>
      </trkpt>
      <trkpt lat="46.73097" lon="-1.08885">
        <ele>77</ele>
        <time>2021-03-08T23:39:10Z</time>
      </trkpt>
      <trkpt lat="46.73321" lon="-1.08958">
        <ele>75</ele>
        <time>2021-03-08T23:39:50Z</time>
      </trkpt>
      <trkpt lat="46.73514" lon="-1.09097">
        <ele>73</ele>
        <time>2021-03-08T23:40:29Z</time>
      </trkpt>
      <trkpt lat="46.73644" lon="-1.09011">
        <ele>68</ele>
        <time>2021-03-08T23:40:54Z</time>
      </trkpt>
      <trkpt lat="46.73782" lon="-1.09032">
        <ele>64</ele>
        <time>2021-03-08T23:41:19Z</time>
      </trkpt>
      <trkpt lat="46.73847" lon="-1.09059">
        <ele>63</ele>
        <time>2021-03-08T23:41:31Z</time>
      </trkpt>
      <trkpt lat="46.73888" lon="-1.0907">
        <ele>63</ele>
        <time>2021-03-08T23:41:38Z</time>
      </trkpt>
      <trkpt lat="46.73927" lon="-1.09076">
        <ele>63</ele>
        <time>2021-03-08T23:41:45Z</time>
      </trkpt>
      <trkpt lat="46.73939" lon="-1.08938">
        <ele>66</ele>
        <time>2021-03-08T23:42:02Z</time>
      </trkpt>
      <trkpt lat="46.73952" lon="-1.08831">
        <ele>70</ele>
        <time>2021-03-08T23:42:15Z</time>
      </trkpt>
      <trkpt lat="46.74001" lon="-1.08621">
        <ele>73</ele>
        <time>2021-03-08T23:42:42Z</time>
      </trkpt>
      <trkpt lat="46.74008" lon="-1.08624">
        <ele>73</ele>
        <time>2021-03-08T23:42:44Z</time>
      </trkpt>
      <trkpt lat="46.74018" lon="-1.08601">
        <ele>73</ele>
        <time>2021-03-08T23:42:47Z</time>
      </trkpt>
      <trkpt lat="46.74028" lon="-1.08585">
        <ele>73</ele>
        <time>2021-03-08T23:42:50Z</time>
      </trkpt>
      <trkpt lat="46.74056" lon="-1.08532">
        <ele>71</ele>
        <time>2021-03-08T23:42:58Z</time>
      </trkpt>
      <trkpt lat="46.74083" lon="-1.08488">
        <ele>69</ele>
        <time>2021-03-08T23:43:05Z</time>
      </trkpt>
      <trkpt lat="46.74087" lon="-1.08478">
        <ele>69</ele>
        <time>2021-03-08T23:43:07Z</time>
      </trkpt>
      <trkpt lat="46.74095" lon="-1.08403">
        <ele>68</ele>
        <time>2021-03-08T23:43:16Z</time>
      </trkpt>
      <trkpt lat="46.741" lon="-1.08377">
        <ele>68</ele>
        <time>2021-03-08T23:43:19Z</time>
      </trkpt>
      <trkpt lat="46.74121" lon="-1.08315">
        <ele>66</ele>
        <time>2021-03-08T23:43:27Z</time>
      </trkpt>
      <trkpt lat="46.74138" lon="-1.0829">
        <ele>65</ele>
        <time>2021-03-08T23:43:32Z</time>
      </trkpt>
      <trkpt lat="46.74181" lon="-1.08244">
        <ele>65</ele>
        <time>2021-03-08T23:43:41Z</time>
      </trkpt>
      <trkpt lat="46.74235" lon="-1.08173">
        <ele>64</ele>
        <time>2021-03-08T23:43:54Z</time>
      </trkpt>
      <trkpt lat="46.74273" lon="-1.08149">
        <ele>63</ele>
        <time>2021-03-08T23:44:02Z</time>
      </trkpt>
      <trkpt lat="46.74293" lon="-1.0814">
        <ele>62</ele>
        <time>2021-03-08T23:44:05Z</time>
      </trkpt>
      <trkpt lat="46.74351" lon="-1.08105">
        <ele>60</ele>
        <time>2021-03-08T23:44:16Z</time>
      </trkpt>
      <trkpt lat="46.74442" lon="-1.08061">
        <ele>59</ele>
        <time>2021-03-08T23:44:34Z</time>
      </trkpt>
      <trkpt lat="46.74445" lon="-1.0806">
        <ele>59</ele>
        <time>2021-03-08T23:44:34Z</time>
      </trkpt>
      <trkpt lat="46.74603" lon="-1.07994">
        <ele>59</ele>
        <time>2021-03-08T23:45:03Z</time>
      </trkpt>
      <trkpt lat="46.74652" lon="-1.07958">
        <ele>59</ele>
        <time>2021-03-08T23:45:13Z</time>
      </trkpt>
      <trkpt lat="46.74669" lon="-1.07986">
        <ele>59</ele>
        <time>2021-03-08T23:45:18Z</time>
      </trkpt>
      <trkpt lat="46.74684" lon="-1.08">
        <ele>60</ele>
        <time>2021-03-08T23:45:21Z</time>
      </trkpt>
      <trkpt lat="46.7477" lon="-1.08028">
        <ele>62</ele>
        <time>2021-03-08T23:45:36Z</time>
      </trkpt>
      <trkpt lat="46.7483" lon="-1.08024">
        <ele>63</ele>
        <time>2021-03-08T23:45:47Z</time>
      </trkpt>
      <trkpt lat="46.74882" lon="-1.08015">
        <ele>60</ele>
        <time>2021-03-08T23:45:56Z</time>
      </trkpt>
      <trkpt lat="46.7491" lon="-1.08016">
        <ele>59</ele>
        <time>2021-03-08T23:46:01Z</time>
      </trkpt>
      <trkpt lat="46.74969" lon="-1.08022">
        <ele>57</ele>
        <time>2021-03-08T23:46:12Z</time>
      </trkpt>
      <trkpt lat="46.7499" lon="-1.08018">
        <ele>56</ele>
        <time>2021-03-08T23:46:16Z</time>
      </trkpt>
      <trkpt lat="46.75004" lon="-1.08011">
        <ele>55</ele>
        <time>2021-03-08T23:46:18Z</time>
      </trkpt>
      <trkpt lat="46.75014" lon="-1.08">
        <ele>55</ele>
        <time>2021-03-08T23:46:21Z</time>
      </trkpt>
      <trkpt lat="46.7503" lon="-1.07979">
        <ele>56</ele>
        <time>2021-03-08T23:46:24Z</time>
      </trkpt>
      <trkpt lat="46.75122" lon="-1.07916">
        <ele>60</ele>
        <time>2021-03-08T23:46:43Z</time>
      </trkpt>
      <trkpt lat="46.7522" lon="-1.07833">
        <ele>64</ele>
        <time>2021-03-08T23:47:03Z</time>
      </trkpt>
      <trkpt lat="46.75254" lon="-1.07819">
        <ele>64</ele>
        <time>2021-03-08T23:47:09Z</time>
      </trkpt>
      <trkpt lat="46.75292" lon="-1.07816">
        <ele>62</ele>
        <time>2021-03-08T23:47:16Z</time>
      </trkpt>
      <trkpt lat="46.75327" lon="-1.07787">
        <ele>60</ele>
        <time>2021-03-08T23:47:23Z</time>
      </trkpt>
      <trkpt lat="46.75399" lon="-1.07694">
        <ele>58</ele>
        <time>2021-03-08T23:47:40Z</time>
      </trkpt>
      <trkpt lat="46.75465" lon="-1.07582">
        <ele>59</ele>
        <time>2021-03-08T23:47:58Z</time>
      </trkpt>
      <trkpt lat="46.75491" lon="-1.07526">
        <ele>60</ele>
        <time>2021-03-08T23:48:06Z</time>
      </trkpt>
      <trkpt lat="46.75496" lon="-1.07513">
        <ele>61</ele>
        <time>2021-03-08T23:48:08Z</time>
      </trkpt>
      <trkpt lat="46.7552" lon="-1.07454">
        <ele>64</ele>
        <time>2021-03-08T23:48:16Z</time>
      </trkpt>
      <trkpt lat="46.75531" lon="-1.07426">
        <ele>66</ele>
        <time>2021-03-08T23:48:20Z</time>
      </trkpt>
      <trkpt lat="46.75558" lon="-1.07383">
        <ele>68</ele>
        <time>2021-03-08T23:48:27Z</time>
      </trkpt>
      <trkpt lat="46.75602" lon="-1.07334">
        <ele>69</ele>
        <time>2021-03-08T23:48:37Z</time>
      </trkpt>
      <trkpt lat="46.75599" lon="-1.07294">
        <ele>70</ele>
        <time>2021-03-08T23:48:42Z</time>
      </trkpt>
      <trkpt lat="46.75597" lon="-1.07268">
        <ele>71</ele>
        <time>2021-03-08T23:48:45Z</time>
      </trkpt>
      <trkpt lat="46.75595" lon="-1.07236">
        <ele>72</ele>
        <time>2021-03-08T23:48:49Z</time>
      </trkpt>
      <trkpt lat="46.75584" lon="-1.07167">
        <ele>74</ele>
        <time>2021-03-08T23:48:58Z</time>
      </trkpt>
      <trkpt lat="46.75609" lon="-1.07168">
        <ele>73</ele>
        <time>2021-03-08T23:49:02Z</time>
      </trkpt>
      <trkpt lat="46.75632" lon="-1.07174">
        <ele>73</ele>
        <time>2021-03-08T23:49:07Z</time>
      </trkpt>
      <trkpt lat="46.75634" lon="-1.07174">
        <ele>73</ele>
        <time>2021-03-08T23:49:07Z</time>
      </trkpt>
      <trkpt lat="46.75661" lon="-1.0718">
        <ele>72</ele>
        <time>2021-03-08T23:49:12Z</time>
      </trkpt>
      <trkpt lat="46.75675" lon="-1.07189">
        <ele>71</ele>
        <time>2021-03-08T23:49:15Z</time>
      </trkpt>
      <trkpt lat="46.75679" lon="-1.07202">
        <ele>70</ele>
        <time>2021-03-08T23:49:16Z</time>
      </trkpt>
      <trkpt lat="46.75762" lon="-1.07211">
        <ele>66</ele>
        <time>2021-03-08T23:49:31Z</time>
      </trkpt>
      <trkpt lat="46.75907" lon="-1.07226">
        <ele>63</ele>
        <time>2021-03-08T23:49:57Z</time>
      </trkpt>
      <trkpt lat="46.76058" lon="-1.07242">
        <ele>60</ele>
        <time>2021-03-08T23:50:24Z</time>
      </trkpt>
      <trkpt lat="46.76094" lon="-1.07246">
        <ele>60</ele>
        <time>2021-03-08T23:50:30Z</time>
      </trkpt>
      <trkpt lat="46.76216" lon="-1.07262">
        <ele>66</ele>
        <time>2021-03-08T23:50:52Z</time>
      </trkpt>
      <trkpt lat="46.76392" lon="-1.0728">
        <ele>70</ele>
        <time>2021-03-08T23:51:23Z</time>
      </trkpt>
      <trkpt lat="46.76426" lon="-1.07284">
        <ele>70</ele>
        <time>2021-03-08T23:51:30Z</time>
      </trkpt>
      <trkpt lat="46.7649" lon="-1.0729">
        <ele>73</ele>
        <time>2021-03-08T23:51:41Z</time>
      </trkpt>
      <trkpt lat="46.7655" lon="-1.07292">
        <ele>74</ele>
        <time>2021-03-08T23:51:52Z</time>
      </trkpt>
      <trkpt lat="46.76615" lon="-1.07292">
        <ele>74</ele>
        <time>2021-03-08T23:52:03Z</time>
      </trkpt>
      <trkpt lat="46.76651" lon="-1.07289">
        <ele>74</ele>
        <time>2021-03-08T23:52:10Z</time>
      </trkpt>
      <trkpt lat="46.76665" lon="-1.07288">
        <ele>73</ele>
        <time>2021-03-08T23:52:12Z</time>
      </trkpt>
      <trkpt lat="46.77017" lon="-1.07264">
        <ele>75</ele>
        <time>2021-03-08T23:53:15Z</time>
      </trkpt>
      <trkpt lat="46.77103" lon="-1.07259">
        <ele>76</ele>
        <time>2021-03-08T23:53:30Z</time>
      </trkpt>
      <trkpt lat="46.77152" lon="-1.07252">
        <ele>77</ele>
        <time>2021-03-08T23:53:39Z</time>
      </trkpt>
      <trkpt lat="46.77169" lon="-1.07241">
        <ele>77</ele>
        <time>2021-03-08T23:53:42Z</time>
      </trkpt>
      <trkpt lat="46.77185" lon="-1.07223">
        <ele>78</ele>
        <time>2021-03-08T23:53:46Z</time>
      </trkpt>
      <trkpt lat="46.77189" lon="-1.07219">
        <ele>78</ele>
        <time>2021-03-08T23:53:47Z</time>
      </trkpt>
      <trkpt lat="46.77199" lon="-1.07241">
        <ele>77</ele>
        <time>2021-03-08T23:53:50Z</time>
      </trkpt>
      <trkpt lat="46.77202" lon="-1.07261">
        <ele>77</ele>
        <time>2021-03-08T23:53:52Z</time>
      </trkpt>
      <trkpt lat="46.77198" lon="-1.07279">
        <ele>76</ele>
        <time>2021-03-08T23:53:55Z</time>
      </trkpt>
      <trkpt lat="46.77204" lon="-1.07339">
        <ele>74</ele>
        <time>2021-03-08T23:54:02Z</time>
      </trkpt>
      <trkpt lat="46.77202" lon="-1.07356">
        <ele>74</ele>
        <time>2021-03-08T23:54:04Z</time>
      </trkpt>
      <trkpt lat="46.77204" lon="-1.07376">
        <ele>73</ele>
        <time>2021-03-08T23:54:07Z</time>
      </trkpt>
      <trkpt lat="46.77215" lon="-1.07402">
        <ele>73</ele>
        <time>2021-03-08T23:54:10Z</time>
      </trkpt>
      <trkpt lat="46.77279" lon="-1.07335">
        <ele>75</ele>
        <time>2021-03-08T23:54:24Z</time>
      </trkpt>
      <trkpt lat="46.77346" lon="-1.07293">
        <ele>77</ele>
        <time>2021-03-08T23:54:37Z</time>
      </trkpt>
      <trkpt lat="46.77413" lon="-1.07268">
        <ele>76</ele>
        <time>2021-03-08T23:54:50Z</time>
      </trkpt>
      <trkpt lat="46.77579" lon="-1.07253">
        <ele>85</ele>
        <time>2021-03-08T23:55:19Z</time>
      </trkpt>
      <trkpt lat="46.77661" lon="-1.07248">
        <ele>90</ele>
        <time>2021-03-08T23:55:34Z</time>
      </trkpt>
      <trkpt lat="46.7773" lon="-1.07233">
        <ele>92</ele>
        <time>2021-03-08T23:55:46Z</time>
      </trkpt>
      <trkpt lat="46.77993" lon="-1.07156">
        <ele>99</ele>
        <time>2021-03-08T23:56:34Z</time>
      </trkpt>
      <trkpt lat="46.78049" lon="-1.07136">
        <ele>101</ele>
        <time>2021-03-08T23:56:44Z</time>
      </trkpt>
      <trkpt lat="46.78136" lon="-1.07114">
        <ele>102</ele>
        <time>2021-03-08T23:57:00Z</time>
      </trkpt>
      <trkpt lat="46.78192" lon="-1.0709">
        <ele>102</ele>
        <time>2021-03-08T23:57:10Z</time>
      </trkpt>
      <trkpt lat="46.78204" lon="-1.07078">
        <ele>102</ele>
        <time>2021-03-08T23:57:13Z</time>
      </trkpt>
      <trkpt lat="46.78203" lon="-1.07068">
        <ele>102</ele>
        <time>2021-03-08T23:57:14Z</time>
      </trkpt>
      <trkpt lat="46.78203" lon="-1.07058">
        <ele>102</ele>
        <time>2021-03-08T23:57:15Z</time>
      </trkpt>
      <trkpt lat="46.78206" lon="-1.07049">
        <ele>102</ele>
        <time>2021-03-08T23:57:17Z</time>
      </trkpt>
      <trkpt lat="46.78211" lon="-1.07042">
        <ele>101</ele>
        <time>2021-03-08T23:57:18Z</time>
      </trkpt>
      <trkpt lat="46.78217" lon="-1.07038">
        <ele>101</ele>
        <time>2021-03-08T23:57:19Z</time>
      </trkpt>
      <trkpt lat="46.78223" lon="-1.07036">
        <ele>101</ele>
        <time>2021-03-08T23:57:20Z</time>
      </trkpt>
      <trkpt lat="46.7823" lon="-1.07038">
        <ele>101</ele>
        <time>2021-03-08T23:57:21Z</time>
      </trkpt>
      <trkpt lat="46.78236" lon="-1.07042">
        <ele>101</ele>
        <time>2021-03-08T23:57:23Z</time>
      </trkpt>
      <trkpt lat="46.7824" lon="-1.07049">
        <ele>101</ele>
        <time>2021-03-08T23:57:24Z</time>
      </trkpt>
      <trkpt lat="46.78243" lon="-1.07058">
        <ele>101</ele>
        <time>2021-03-08T23:57:25Z</time>
      </trkpt>
      <trkpt lat="46.78339" lon="-1.07035">
        <ele>99</ele>
        <time>2021-03-08T23:57:42Z</time>
      </trkpt>
      <trkpt lat="46.78395" lon="-1.07004">
        <ele>95</ele>
        <time>2021-03-08T23:57:53Z</time>
      </trkpt>
      <trkpt lat="46.78439" lon="-1.06975">
        <ele>93</ele>
        <time>2021-03-08T23:58:01Z</time>
      </trkpt>
      <trkpt lat="46.78486" lon="-1.06924">
        <ele>93</ele>
        <time>2021-03-08T23:58:12Z</time>
      </trkpt>
      <trkpt lat="46.78522" lon="-1.06877">
        <ele>94</ele>
        <time>2021-03-08T23:58:20Z</time>
      </trkpt>
      <trkpt lat="46.78566" lon="-1.06778">
        <ele>98</ele>
        <time>2021-03-08T23:58:35Z</time>
      </trkpt>
      <trkpt lat="46.78644" lon="-1.06522">
        <ele>107</ele>
        <time>2021-03-08T23:59:09Z</time>
      </trkpt>
      <trkpt lat="46.7868" lon="-1.06311">
        <ele>108</ele>
        <time>2021-03-08T23:59:35Z</time>
      </trkpt>
      <trkpt lat="46.78689" lon="-1.06237">
        <ele>108</ele>
        <time>2021-03-08T23:59:45Z</time>
      </trkpt>
      <trkpt lat="46.78695" lon="-1.06163">
        <ele>109</ele>
        <time>2021-03-08T23:59:54Z</time>
      </trkpt>
      <trkpt lat="46.78718" lon="-1.06159">
        <ele>110</ele>
        <time>2021-03-08T23:59:58Z</time>
      </trkpt>
      <trkpt lat="46.78796" lon="-1.06108">
        <ele>108</ele>
        <time>2021-03-09T00:00:13Z</time>
      </trkpt>
      <trkpt lat="46.78813" lon="-1.06101">
        <ele>107</ele>
        <time>2021-03-09T00:00:16Z</time>
      </trkpt>
      <trkpt lat="46.78844" lon="-1.061">
        <ele>106</ele>
        <time>2021-03-09T00:00:22Z</time>
      </trkpt>
      <trkpt lat="46.78884" lon="-1.0611">
        <ele>103</ele>
        <time>2021-03-09T00:00:29Z</time>
      </trkpt>
      <trkpt lat="46.7919" lon="-1.06265">
        <ele>91</ele>
        <time>2021-03-09T00:01:27Z</time>
      </trkpt>
      <trkpt lat="46.79414" lon="-1.06308">
        <ele>91</ele>
        <time>2021-03-09T00:02:07Z</time>
      </trkpt>
      <trkpt lat="46.79475" lon="-1.06317">
        <ele>89</ele>
        <time>2021-03-09T00:02:18Z</time>
      </trkpt>
      <trkpt lat="46.79511" lon="-1.06311">
        <ele>88</ele>
        <time>2021-03-09T00:02:24Z</time>
      </trkpt>
      <trkpt lat="46.79621" lon="-1.06254">
        <ele>90</ele>
        <time>2021-03-09T00:02:45Z</time>
      </trkpt>
      <trkpt lat="46.79745" lon="-1.06194">
        <ele>93</ele>
        <time>2021-03-09T00:03:08Z</time>
      </trkpt>
      <trkpt lat="46.79819" lon="-1.06184">
        <ele>92</ele>
        <time>2021-03-09T00:03:21Z</time>
      </trkpt>
      <trkpt lat="46.79865" lon="-1.06168">
        <ele>91</ele>
        <time>2021-03-09T00:03:30Z</time>
      </trkpt>
      <trkpt lat="46.79899" lon="-1.06141">
        <ele>90</ele>
        <time>2021-03-09T00:03:37Z</time>
      </trkpt>
      <trkpt lat="46.80054" lon="-1.05921">
        <ele>93</ele>
        <time>2021-03-09T00:04:15Z</time>
      </trkpt>
      <trkpt lat="46.80096" lon="-1.05906">
        <ele>93</ele>
        <time>2021-03-09T00:04:23Z</time>
      </trkpt>
      <trkpt lat="46.80128" lon="-1.05908">
        <ele>93</ele>
        <time>2021-03-09T00:04:28Z</time>
      </trkpt>
      <trkpt lat="46.80264" lon="-1.05947">
        <ele>91</ele>
        <time>2021-03-09T00:04:53Z</time>
      </trkpt>
      <trkpt lat="46.80294" lon="-1.05943">
        <ele>91</ele>
        <time>2021-03-09T00:04:58Z</time>
      </trkpt>
      <trkpt lat="46.80362" lon="-1.05897">
        <ele>91</ele>
        <time>2021-03-09T00:05:12Z</time>
      </trkpt>
      <trkpt lat="46.80452" lon="-1.05873">
        <ele>92</ele>
        <time>2021-03-09T00:05:28Z</time>
      </trkpt>
      <trkpt lat="46.80505" lon="-1.05841">
        <ele>93</ele>
        <time>2021-03-09T00:05:38Z</time>
      </trkpt>
      <trkpt lat="46.80548" lon="-1.05792">
        <ele>94</ele>
        <time>2021-03-09T00:05:48Z</time>
      </trkpt>
      <trkpt lat="46.80589" lon="-1.05729">
        <ele>93</ele>
        <time>2021-03-09T00:05:59Z</time>
      </trkpt>
      <trkpt lat="46.80695" lon="-1.05634">
        <ele>92</ele>
        <time>2021-03-09T00:06:21Z</time>
      </trkpt>
      <trkpt lat="46.80742" lon="-1.05581">
        <ele>93</ele>
        <time>2021-03-09T00:06:31Z</time>
      </trkpt>
      <trkpt lat="46.80841" lon="-1.0546">
        <ele>95</ele>
        <time>2021-03-09T00:06:54Z</time>
      </trkpt>
      <trkpt lat="46.80883" lon="-1.05433">
        <ele>96</ele>
        <time>2021-03-09T00:07:02Z</time>
      </trkpt>
      <trkpt lat="46.80927" lon="-1.05424">
        <ele>98</ele>
        <time>2021-03-09T00:07:10Z</time>
      </trkpt>
      <trkpt lat="46.80966" lon="-1.05438">
        <ele>99</ele>
        <time>2021-03-09T00:07:17Z</time>
      </trkpt>
      <trkpt lat="46.81007" lon="-1.05459">
        <ele>101</ele>
        <time>2021-03-09T00:07:25Z</time>
      </trkpt>
      <trkpt lat="46.81049" lon="-1.05457">
        <ele>102</ele>
        <time>2021-03-09T00:07:33Z</time>
      </trkpt>
      <trkpt lat="46.81145" lon="-1.05477">
        <ele>104</ele>
        <time>2021-03-09T00:07:50Z</time>
      </trkpt>
      <trkpt lat="46.81234" lon="-1.05501">
        <ele>104</ele>
        <time>2021-03-09T00:08:06Z</time>
      </trkpt>
      <trkpt lat="46.81284" lon="-1.05519">
        <ele>104</ele>
        <time>2021-03-09T00:08:15Z</time>
      </trkpt>
      <trkpt lat="46.81504" lon="-1.05612">
        <ele>105</ele>
        <time>2021-03-09T00:08:56Z</time>
      </trkpt>
      <trkpt lat="46.81562" lon="-1.05631">
        <ele>105</ele>
        <time>2021-03-09T00:09:06Z</time>
      </trkpt>
      <trkpt lat="46.81645" lon="-1.05652">
        <ele>104</ele>
        <time>2021-03-09T00:09:21Z</time>
      </trkpt>
      <trkpt lat="46.81876" lon="-1.0568">
        <ele>105</ele>
        <time>2021-03-09T00:10:03Z</time>
      </trkpt>
      <trkpt lat="46.81923" lon="-1.05676">
        <ele>106</ele>
        <time>2021-03-09T00:10:11Z</time>
      </trkpt>
      <trkpt lat="46.82039" lon="-1.05625">
        <ele>113</ele>
        <time>2021-03-09T00:10:33Z</time>
      </trkpt>
      <trkpt lat="46.82102" lon="-1.05592">
        <ele>113</ele>
        <time>2021-03-09T00:10:45Z</time>
      </trkpt>
      <trkpt lat="46.82585" lon="-1.05367">
        <ele>108</ele>
        <time>2021-03-09T00:12:15Z</time>
      </trkpt>
      <trkpt lat="46.82853" lon="-1.05241">
        <ele>105</ele>
        <time>2021-03-09T00:13:05Z</time>
      </trkpt>
      <trkpt lat="46.82888" lon="-1.05223">
        <ele>103</ele>
        <time>2021-03-09T00:13:11Z</time>
      </trkpt>
      <trkpt lat="46.82935" lon="-1.05211">
        <ele>100</ele>
        <time>2021-03-09T00:13:20Z</time>
      </trkpt>
      <trkpt lat="46.82988" lon="-1.05205">
        <ele>100</ele>
        <time>2021-03-09T00:13:29Z</time>
      </trkpt>
      <trkpt lat="46.83203" lon="-1.05146">
        <ele>103</ele>
        <time>2021-03-09T00:14:08Z</time>
      </trkpt>
      <trkpt lat="46.83288" lon="-1.05117">
        <ele>104</ele>
        <time>2021-03-09T00:14:24Z</time>
      </trkpt>
      <trkpt lat="46.83315" lon="-1.05247">
        <ele>105</ele>
        <time>2021-03-09T00:14:40Z</time>
      </trkpt>
      <trkpt lat="46.83436" lon="-1.05196">
        <ele>107</ele>
        <time>2021-03-09T00:15:03Z</time>
      </trkpt>
      <trkpt lat="46.83718" lon="-1.05134">
        <ele>98</ele>
        <time>2021-03-09T00:15:54Z</time>
      </trkpt>
      <trkpt lat="46.8374" lon="-1.05124">
        <ele>97</ele>
        <time>2021-03-09T00:15:58Z</time>
      </trkpt>
      <trkpt lat="46.83768" lon="-1.05106">
        <ele>96</ele>
        <time>2021-03-09T00:16:03Z</time>
      </trkpt>
      <trkpt lat="46.83791" lon="-1.05086">
        <ele>95</ele>
        <time>2021-03-09T00:16:08Z</time>
      </trkpt>
      <trkpt lat="46.83815" lon="-1.05077">
        <ele>95</ele>
        <time>2021-03-09T00:16:12Z</time>
      </trkpt>
      <trkpt lat="46.83913" lon="-1.05049">
        <ele>91</ele>
        <time>2021-03-09T00:16:30Z</time>
      </trkpt>
      <trkpt lat="46.83978" lon="-1.05034">
        <ele>94</ele>
        <time>2021-03-09T00:16:42Z</time>
      </trkpt>
      <trkpt lat="46.84058" lon="-1.0499">
        <ele>98</ele>
        <time>2021-03-09T00:16:57Z</time>
      </trkpt>
      <trkpt lat="46.84279" lon="-1.04849">
        <ele>103</ele>
        <time>2021-03-09T00:17:40Z</time>
      </trkpt>
      <trkpt lat="46.84305" lon="-1.0482">
        <ele>104</ele>
        <time>2021-03-09T00:17:46Z</time>
      </trkpt>
      <trkpt lat="46.84331" lon="-1.04787">
        <ele>105</ele>
        <time>2021-03-09T00:17:52Z</time>
      </trkpt>
      <trkpt lat="46.84355" lon="-1.04749">
        <ele>107</ele>
        <time>2021-03-09T00:17:58Z</time>
      </trkpt>
      <trkpt lat="46.84363" lon="-1.04722">
        <ele>107</ele>
        <time>2021-03-09T00:18:02Z</time>
      </trkpt>
      <trkpt lat="46.84413" lon="-1.04676">
        <ele>108</ele>
        <time>2021-03-09T00:18:12Z</time>
      </trkpt>
      <trkpt lat="46.8445" lon="-1.04656">
        <ele>107</ele>
        <time>2021-03-09T00:18:19Z</time>
      </trkpt>
      <trkpt lat="46.84462" lon="-1.04644">
        <ele>107</ele>
        <time>2021-03-09T00:18:22Z</time>
      </trkpt>
      <trkpt lat="46.84476" lon="-1.04626">
        <ele>106</ele>
        <time>2021-03-09T00:18:25Z</time>
      </trkpt>
      <trkpt lat="46.8452" lon="-1.04549">
        <ele>105</ele>
        <time>2021-03-09T00:18:37Z</time>
      </trkpt>
      <trkpt lat="46.84547" lon="-1.04504">
        <ele>104</ele>
        <time>2021-03-09T00:18:45Z</time>
      </trkpt>
      <trkpt lat="46.84604" lon="-1.04447">
        <ele>101</ele>
        <time>2021-03-09T00:18:57Z</time>
      </trkpt>
      <trkpt lat="46.84689" lon="-1.04373">
        <ele>100</ele>
        <time>2021-03-09T00:19:14Z</time>
      </trkpt>
      <trkpt lat="46.84732" lon="-1.0435">
        <ele>99</ele>
        <time>2021-03-09T00:19:23Z</time>
      </trkpt>
      <trkpt lat="46.84776" lon="-1.04317">
        <ele>97</ele>
        <time>2021-03-09T00:19:31Z</time>
      </trkpt>
      <trkpt lat="46.84788" lon="-1.04302">
        <ele>97</ele>
        <time>2021-03-09T00:19:34Z</time>
      </trkpt>
      <trkpt lat="46.84804" lon="-1.04272">
        <ele>97</ele>
        <time>2021-03-09T00:19:39Z</time>
      </trkpt>
      <trkpt lat="46.84832" lon="-1.04252">
        <ele>97</ele>
        <time>2021-03-09T00:19:44Z</time>
      </trkpt>
      <trkpt lat="46.84831" lon="-1.04242">
        <ele>97</ele>
        <time>2021-03-09T00:19:46Z</time>
      </trkpt>
      <trkpt lat="46.84832" lon="-1.04233">
        <ele>97</ele>
        <time>2021-03-09T00:19:47Z</time>
      </trkpt>
      <trkpt lat="46.84835" lon="-1.04224">
        <ele>97</ele>
        <time>2021-03-09T00:19:48Z</time>
      </trkpt>
      <trkpt lat="46.84839" lon="-1.04217">
        <ele>97</ele>
        <time>2021-03-09T00:19:49Z</time>
      </trkpt>
      <trkpt lat="46.84845" lon="-1.04213">
        <ele>97</ele>
        <time>2021-03-09T00:19:50Z</time>
      </trkpt>
      <trkpt lat="46.84852" lon="-1.04212">
        <ele>97</ele>
        <time>2021-03-09T00:19:51Z</time>
      </trkpt>
      <trkpt lat="46.84857" lon="-1.04213">
        <ele>97</ele>
        <time>2021-03-09T00:19:52Z</time>
      </trkpt>
      <trkpt lat="46.84867" lon="-1.04223">
        <ele>97</ele>
        <time>2021-03-09T00:19:55Z</time>
      </trkpt>
      <trkpt lat="46.8487" lon="-1.0423">
        <ele>97</ele>
        <time>2021-03-09T00:19:56Z</time>
      </trkpt>
      <trkpt lat="46.84881" lon="-1.04224">
        <ele>97</ele>
        <time>2021-03-09T00:19:58Z</time>
      </trkpt>
      <trkpt lat="46.84892" lon="-1.04214">
        <ele>96</ele>
        <time>2021-03-09T00:20:00Z</time>
      </trkpt>
      <trkpt lat="46.84902" lon="-1.04201">
        <ele>96</ele>
        <time>2021-03-09T00:20:02Z</time>
      </trkpt>
      <trkpt lat="46.84912" lon="-1.04182">
        <ele>96</ele>
        <time>2021-03-09T00:20:05Z</time>
      </trkpt>
      <trkpt lat="46.84922" lon="-1.04169">
        <ele>96</ele>
        <time>2021-03-09T00:20:08Z</time>
      </trkpt>
      <trkpt lat="46.84989" lon="-1.041">
        <ele>94</ele>
        <time>2021-03-09T00:20:22Z</time>
      </trkpt>
      <trkpt lat="46.85111" lon="-1.03956">
        <ele>93</ele>
        <time>2021-03-09T00:20:50Z</time>
      </trkpt>
      <trkpt lat="46.85129" lon="-1.03931">
        <ele>93</ele>
        <time>2021-03-09T00:20:55Z</time>
      </trkpt>
      <trkpt lat="46.85163" lon="-1.03868">
        <ele>93</ele>
        <time>2021-03-09T00:21:04Z</time>
      </trkpt>
      <trkpt lat="46.85233" lon="-1.03767">
        <ele>93</ele>
        <time>2021-03-09T00:21:22Z</time>
      </trkpt>
      <trkpt lat="46.85248" lon="-1.03755">
        <ele>93</ele>
        <time>2021-03-09T00:21:25Z</time>
      </trkpt>
      <trkpt lat="46.85258" lon="-1.0375">
        <ele>93</ele>
        <time>2021-03-09T00:21:27Z</time>
      </trkpt>
      <trkpt lat="46.85398" lon="-1.0371">
        <ele>97</ele>
        <time>2021-03-09T00:21:52Z</time>
      </trkpt>
      <trkpt lat="46.85447" lon="-1.03702">
        <ele>98</ele>
        <time>2021-03-09T00:22:01Z</time>
      </trkpt>
      <trkpt lat="46.85721" lon="-1.0362">
        <ele>104</ele>
        <time>2021-03-09T00:22:51Z</time>
      </trkpt>
      <trkpt lat="46.85747" lon="-1.03623">
        <ele>104</ele>
        <time>2021-03-09T00:22:55Z</time>
      </trkpt>
      <trkpt lat="46.8577" lon="-1.03633">
        <ele>104</ele>
        <time>2021-03-09T00:23:00Z</time>
      </trkpt>
      <trkpt lat="46.85856" lon="-1.03677">
        <ele>106</ele>
        <time>2021-03-09T00:23:16Z</time>
      </trkpt>
      <trkpt lat="46.85858" lon="-1.0367">
        <ele>106</ele>
        <time>2021-03-09T00:23:17Z</time>
      </trkpt>
      <trkpt lat="46.85866" lon="-1.03575">
        <ele>106</ele>
        <time>2021-03-09T00:23:28Z</time>
      </trkpt>
      <trkpt lat="46.85869" lon="-1.0356">
        <ele>106</ele>
        <time>2021-03-09T00:23:30Z</time>
      </trkpt>
      <trkpt lat="46.85876" lon="-1.03544">
        <ele>106</ele>
        <time>2021-03-09T00:23:33Z</time>
      </trkpt>
      <trkpt lat="46.85969" lon="-1.03393">
        <ele>109</ele>
        <time>2021-03-09T00:23:57Z</time>
      </trkpt>
      <trkpt lat="46.85902" lon="-1.03159">
        <ele>106</ele>
        <time>2021-03-09T00:24:28Z</time>
      </trkpt>
      <trkpt lat="46.85898" lon="-1.0314">
        <ele>106</ele>
        <time>2021-03-09T00:24:31Z</time>
      </trkpt>
      <trkpt lat="46.85894" lon="-1.0309">
        <ele>107</ele>
        <time>2021-03-09T00:24:37Z</time>
      </trkpt>
      <trkpt lat="46.85883" lon="-1.03024">
        <ele>108</ele>
        <time>2021-03-09T00:24:45Z</time>
      </trkpt>
      <trkpt lat="46.8587" lon="-1.02978">
        <ele>108</ele>
        <time>2021-03-09T00:24:51Z</time>
      </trkpt>
      <trkpt lat="46.85862" lon="-1.02945">
        <ele>108</ele>
        <time>2021-03-09T00:24:55Z</time>
      </trkpt>
      <trkpt lat="46.85839" lon="-1.0279">
        <ele>107</ele>
        <time>2021-03-09T00:25:15Z</time>
      </trkpt>
      <trkpt lat="46.85829" lon="-1.02739">
        <ele>107</ele>
        <time>2021-03-09T00:25:21Z</time>
      </trkpt>
      <trkpt lat="46.85823" lon="-1.02723">
        <ele>107</ele>
        <time>2021-03-09T00:25:23Z</time>
      </trkpt>
      <trkpt lat="46.85803" lon="-1.027">
        <ele>108</ele>
        <time>2021-03-09T00:25:28Z</time>
      </trkpt>
      <trkpt lat="46.85796" lon="-1.02689">
        <ele>108</ele>
        <time>2021-03-09T00:25:30Z</time>
      </trkpt>
      <trkpt lat="46.85792" lon="-1.02671">
        <ele>108</ele>
        <time>2021-03-09T00:25:32Z</time>
      </trkpt>
      <trkpt lat="46.8579" lon="-1.02671">
        <ele>108</ele>
        <time>2021-03-09T00:25:32Z</time>
      </trkpt>
      <trkpt lat="46.85786" lon="-1.02666">
        <ele>109</ele>
        <time>2021-03-09T00:25:33Z</time>
      </trkpt>
      <trkpt lat="46.85786" lon="-1.02661">
        <ele>109</ele>
        <time>2021-03-09T00:25:34Z</time>
      </trkpt>
      <trkpt lat="46.85788" lon="-1.02657">
        <ele>109</ele>
        <time>2021-03-09T00:25:34Z</time>
      </trkpt>
      <trkpt lat="46.85791" lon="-1.02655">
        <ele>109</ele>
        <time>2021-03-09T00:25:35Z</time>
      </trkpt>
      <trkpt lat="46.85795" lon="-1.02658">
        <ele>109</ele>
        <time>2021-03-09T00:25:36Z</time>
      </trkpt>
      <trkpt lat="46.85801" lon="-1.02646">
        <ele>109</ele>
        <time>2021-03-09T00:25:38Z</time>
      </trkpt>
      <trkpt lat="46.85824" lon="-1.02616">
        <ele>108</ele>
        <time>2021-03-09T00:25:43Z</time>
      </trkpt>
      <trkpt lat="46.85888" lon="-1.02543">
        <ele>109</ele>
        <time>2021-03-09T00:25:57Z</time>
      </trkpt>
      <trkpt lat="46.85932" lon="-1.02498">
        <ele>111</ele>
        <time>2021-03-09T00:26:07Z</time>
      </trkpt>
      <trkpt lat="46.85941" lon="-1.0248">
        <ele>111</ele>
        <time>2021-03-09T00:26:10Z</time>
      </trkpt>
      <trkpt lat="46.85937" lon="-1.02468">
        <ele>111</ele>
        <time>2021-03-09T00:26:11Z</time>
      </trkpt>
      <trkpt lat="46.85939" lon="-1.0246">
        <ele>111</ele>
        <time>2021-03-09T00:26:12Z</time>
      </trkpt>
      <trkpt lat="46.85942" lon="-1.02456">
        <ele>111</ele>
        <time>2021-03-09T00:26:13Z</time>
      </trkpt>
      <trkpt lat="46.85853" lon="-1.02301">
        <ele>111</ele>
        <time>2021-03-09T00:26:38Z</time>
      </trkpt>
      <trkpt lat="46.85838" lon="-1.02267">
        <ele>110</ele>
        <time>2021-03-09T00:26:43Z</time>
      </trkpt>
      <trkpt lat="46.859" lon="-1.02155">
        <ele>109</ele>
        <time>2021-03-09T00:27:00Z</time>
      </trkpt>
      <trkpt lat="46.85902" lon="-1.02149">
        <ele>109</ele>
        <time>2021-03-09T00:27:01Z</time>
      </trkpt>
      <trkpt lat="46.85905" lon="-1.02132">
        <ele>109</ele>
        <time>2021-03-09T00:27:03Z</time>
      </trkpt>
      <trkpt lat="46.85905" lon="-1.02113">
        <ele>109</ele>
        <time>2021-03-09T00:27:05Z</time>
      </trkpt>
      <trkpt lat="46.85911" lon="-1.02085">
        <ele>108</ele>
        <time>2021-03-09T00:27:09Z</time>
      </trkpt>
      <trkpt lat="46.8594" lon="-1.02031">
        <ele>110</ele>
        <time>2021-03-09T00:27:17Z</time>
      </trkpt>
      <trkpt lat="46.85947" lon="-1.0202">
        <ele>110</ele>
        <time>2021-03-09T00:27:19Z</time>
      </trkpt>
      <trkpt lat="46.85945" lon="-1.02019">
        <ele>110</ele>
        <time>2021-03-09T00:27:20Z</time>
      </trkpt>
      <trkpt lat="46.85941" lon="-1.02015">
        <ele>110</ele>
        <time>2021-03-09T00:27:20Z</time>
      </trkpt>
      <trkpt lat="46.85941" lon="-1.02005">
        <ele>110</ele>
        <time>2021-03-09T00:27:22Z</time>
      </trkpt>
      <trkpt lat="46.85947" lon="-1.02001">
        <ele>110</ele>
        <time>2021-03-09T00:27:23Z</time>
      </trkpt>
      <trkpt lat="46.8595" lon="-1.02002">
        <ele>111</ele>
        <time>2021-03-09T00:27:23Z</time>
      </trkpt>
      <trkpt lat="46.85953" lon="-1.02007">
        <ele>111</ele>
        <time>2021-03-09T00:27:24Z</time>
      </trkpt>
      <trkpt lat="46.86042" lon="-1.01947">
        <ele>113</ele>
        <time>2021-03-09T00:27:42Z</time>
      </trkpt>
      <trkpt lat="46.86059" lon="-1.01933">
        <ele>113</ele>
        <time>2021-03-09T00:27:45Z</time>
      </trkpt>
      <trkpt lat="46.86056" lon="-1.01925">
        <ele>113</ele>
        <time>2021-03-09T00:27:46Z</time>
      </trkpt>
      <trkpt lat="46.86056" lon="-1.019">
        <ele>113</ele>
        <time>2021-03-09T00:27:49Z</time>
      </trkpt>
      <trkpt lat="46.86052" lon="-1.01889">
        <ele>112</ele>
        <time>2021-03-09T00:27:51Z</time>
      </trkpt>
      <trkpt lat="46.86043" lon="-1.01869">
        <ele>112</ele>
        <time>2021-03-09T00:27:54Z</time>
      </trkpt>
      <trkpt lat="46.85966" lon="-1.01719">
        <ele>109</ele>
        <time>2021-03-09T00:28:17Z</time>
      </trkpt>
      <trkpt lat="46.85926" lon="-1.01606">
        <ele>108</ele>
        <time>2021-03-09T00:28:32Z</time>
      </trkpt>
      <trkpt lat="46.85904" lon="-1.01554">
        <ele>109</ele>
        <time>2021-03-09T00:28:39Z</time>
      </trkpt>
      <trkpt lat="46.85895" lon="-1.01537">
        <ele>109</ele>
        <time>2021-03-09T00:28:42Z</time>
      </trkpt>
      <trkpt lat="46.85857" lon="-1.01484">
        <ele>109</ele>
        <time>2021-03-09T00:28:51Z</time>
      </trkpt>
      <trkpt lat="46.85851" lon="-1.01477">
        <ele>109</ele>
        <time>2021-03-09T00:28:53Z</time>
      </trkpt>
      <trkpt lat="46.85849" lon="-1.01467">
        <ele>109</ele>
        <time>2021-03-09T00:28:54Z</time>
      </trkpt>
      <trkpt lat="46.8585" lon="-1.0146">
        <ele>109</ele>
        <time>2021-03-09T00:28:55Z</time>
      </trkpt>
      <trkpt lat="46.85853" lon="-1.01453">
        <ele>109</ele>
        <time>2021-03-09T00:28:56Z</time>
      </trkpt>
      <trkpt lat="46.85859" lon="-1.01448">
        <ele>109</ele>
        <time>2021-03-09T00:28:57Z</time>
      </trkpt>
      <trkpt lat="46.85864" lon="-1.01448">
        <ele>109</ele>
        <time>2021-03-09T00:28:58Z</time>
      </trkpt>
      <trkpt lat="46.85868" lon="-1.01451">
        <ele>109</ele>
        <time>2021-03-09T00:28:59Z</time>
      </trkpt>
      <trkpt lat="46.8588" lon="-1.01446">
        <ele>110</ele>
        <time>2021-03-09T00:29:01Z</time>
      </trkpt>
      <trkpt lat="46.85899" lon="-1.01432">
        <ele>110</ele>
        <time>2021-03-09T00:29:05Z</time>
      </trkpt>
      <trkpt lat="46.86021" lon="-1.01337">
        <ele>112</ele>
        <time>2021-03-09T00:29:29Z</time>
      </trkpt>
      <trkpt lat="46.86054" lon="-1.01308">
        <ele>113</ele>
        <time>2021-03-09T00:29:36Z</time>
      </trkpt>
      <trkpt lat="46.86074" lon="-1.01286">
        <ele>113</ele>
        <time>2021-03-09T00:29:41Z</time>
      </trkpt>
      <trkpt lat="46.86136" lon="-1.01207">
        <ele>114</ele>
        <time>2021-03-09T00:29:55Z</time>
      </trkpt>
      <trkpt lat="46.86181" lon="-1.01147">
        <ele>115</ele>
        <time>2021-03-09T00:30:06Z</time>
      </trkpt>
      <trkpt lat="46.86179" lon="-1.01141">
        <ele>115</ele>
        <time>2021-03-09T00:30:07Z</time>
      </trkpt>
      <trkpt lat="46.86181" lon="-1.01135">
        <ele>116</ele>
        <time>2021-03-09T00:30:08Z</time>
      </trkpt>
      <trkpt lat="46.86155" lon="-1.01112">
        <ele>116</ele>
        <time>2021-03-09T00:30:13Z</time>
      </trkpt>
      <trkpt lat="46.86159" lon="-1.01104">
        <ele>116</ele>
        <time>2021-03-09T00:30:14Z</time>
      </trkpt>
      <trkpt lat="46.86245" lon="-1.00869">
        <ele>118</ele>
        <time>2021-03-09T00:30:47Z</time>
      </trkpt>
      <trkpt lat="46.86254" lon="-1.00835">
        <ele>119</ele>
        <time>2021-03-09T00:30:51Z</time>
      </trkpt>
      <trkpt lat="46.86256" lon="-1.00821">
        <ele>119</ele>
        <time>2021-03-09T00:30:53Z</time>
      </trkpt>
      <trkpt lat="46.86255" lon="-1.00783">
        <ele>119</ele>
        <time>2021-03-09T00:30:58Z</time>
      </trkpt>
      <trkpt lat="46.86234" lon="-1.00681">
        <ele>117</ele>
        <time>2021-03-09T00:31:11Z</time>
      </trkpt>
      <trkpt lat="46.8627" lon="-1.00662">
        <ele>118</ele>
        <time>2021-03-09T00:31:17Z</time>
      </trkpt>
      <trkpt lat="46.86315" lon="-1.00632">
        <ele>119</ele>
        <time>2021-03-09T00:31:26Z</time>
      </trkpt>
      <trkpt lat="46.86335" lon="-1.00614">
        <ele>119</ele>
        <time>2021-03-09T00:31:30Z</time>
      </trkpt>
      <trkpt lat="46.8637" lon="-1.00575">
        <ele>120</ele>
        <time>2021-03-09T00:31:38Z</time>
      </trkpt>
    </trkseg>
  </trk>
</gpx>